<?xml version="1.0" encoding="UTF-8" standalone="no" ?>
<gpx xmlns="http://www.topografix.com/GPX/1/1" xmlns:xsi="http://www.w3.org/2001/XMLSchema-instance" xsi:schemaLocation="http://www.topografix.com/GPX/1/1 http://www.topografix.com/GPX/1/1/gpx.xsd" version="1.1" creator="VisuGPX - https://www.visugpx.com">
  <metadata>
    <name>vtt circuit n°18 la provostière gr 1</name>
    <desc><![CDATA[sortie vtt au départ de l'étang de la provostière,circuit avec passages techniques.
beau temps sec]]></desc>
  </metadata>
  <trk>
    <name><![CDATA[2018-09-14-15-12-20 on GPSies.com]]></name>
    <trkseg>
      <trkpt lat="47.52556" lon="-1.34774">
        <ele>32.9</ele>
        <time>2018-09-14T15:12:20Z</time>
      </trkpt>
      <trkpt lat="47.52553" lon="-1.34772">
        <ele>32.9</ele>
        <time>2018-09-14T15:12:30Z</time>
      </trkpt>
      <trkpt lat="47.52549" lon="-1.34766">
        <ele>32.9</ele>
        <time>2018-09-14T15:12:33Z</time>
      </trkpt>
      <trkpt lat="47.52541" lon="-1.34744">
        <ele>33.1</ele>
        <time>2018-09-14T15:12:39Z</time>
      </trkpt>
      <trkpt lat="47.52528" lon="-1.34713">
        <ele>33.4</ele>
        <time>2018-09-14T15:12:47Z</time>
      </trkpt>
      <trkpt lat="47.5251" lon="-1.34688">
        <ele>32.2</ele>
        <time>2018-09-14T15:12:54Z</time>
      </trkpt>
      <trkpt lat="47.52489" lon="-1.34658">
        <ele>32.3</ele>
        <time>2018-09-14T15:13:01Z</time>
      </trkpt>
      <trkpt lat="47.52462" lon="-1.34628">
        <ele>31.9</ele>
        <time>2018-09-14T15:13:09Z</time>
      </trkpt>
      <trkpt lat="47.52431" lon="-1.34595">
        <ele>31.9</ele>
        <time>2018-09-14T15:13:18Z</time>
      </trkpt>
      <trkpt lat="47.52404" lon="-1.34568">
        <ele>32.1</ele>
        <time>2018-09-14T15:13:26Z</time>
      </trkpt>
      <trkpt lat="47.52394" lon="-1.34558">
        <ele>32.6</ele>
        <time>2018-09-14T15:13:29Z</time>
      </trkpt>
      <trkpt lat="47.52382" lon="-1.34545">
        <ele>33.1</ele>
        <time>2018-09-14T15:13:33Z</time>
      </trkpt>
      <trkpt lat="47.52374" lon="-1.34525">
        <ele>1</ele>
        <time>2018-09-14T15:13:39Z</time>
      </trkpt>
      <trkpt lat="47.52378" lon="-1.34522">
        <ele>1</ele>
        <time>2018-09-14T15:13:43Z</time>
      </trkpt>
      <trkpt lat="47.52379" lon="-1.34521">
        <ele>1</ele>
        <time>2018-09-14T15:13:44Z</time>
      </trkpt>
      <trkpt lat="47.52381" lon="-1.34519">
        <ele>1</ele>
        <time>2018-09-14T15:13:46Z</time>
      </trkpt>
      <trkpt lat="47.52384" lon="-1.34512">
        <ele>32.5</ele>
        <time>2018-09-14T15:13:49Z</time>
      </trkpt>
      <trkpt lat="47.52385" lon="-1.34509">
        <ele>32.4</ele>
        <time>2018-09-14T15:13:50Z</time>
      </trkpt>
      <trkpt lat="47.5239" lon="-1.34487">
        <ele>32.4</ele>
        <time>2018-09-14T15:13:55Z</time>
      </trkpt>
      <trkpt lat="47.52398" lon="-1.34462">
        <ele>32.7</ele>
        <time>2018-09-14T15:14:02Z</time>
      </trkpt>
      <trkpt lat="47.52402" lon="-1.3444">
        <ele>32.6</ele>
        <time>2018-09-14T15:14:07Z</time>
      </trkpt>
      <trkpt lat="47.52405" lon="-1.34404">
        <ele>32.9</ele>
        <time>2018-09-14T15:14:13Z</time>
      </trkpt>
      <trkpt lat="47.52403" lon="-1.34375">
        <ele>33</ele>
        <time>2018-09-14T15:14:18Z</time>
      </trkpt>
      <trkpt lat="47.52414" lon="-1.34351">
        <ele>32.5</ele>
        <time>2018-09-14T15:14:24Z</time>
      </trkpt>
      <trkpt lat="47.5242" lon="-1.3433">
        <ele>32.9</ele>
        <time>2018-09-14T15:14:29Z</time>
      </trkpt>
      <trkpt lat="47.52427" lon="-1.3431">
        <ele>32.6</ele>
        <time>2018-09-14T15:14:41Z</time>
      </trkpt>
      <trkpt lat="47.52432" lon="-1.34302">
        <ele>32.5</ele>
        <time>2018-09-14T15:14:44Z</time>
      </trkpt>
      <trkpt lat="47.52438" lon="-1.34279">
        <ele>32.2</ele>
        <time>2018-09-14T15:14:49Z</time>
      </trkpt>
      <trkpt lat="47.52449" lon="-1.34239">
        <ele>32.8</ele>
        <time>2018-09-14T15:14:56Z</time>
      </trkpt>
      <trkpt lat="47.52457" lon="-1.34212">
        <ele>32.6</ele>
        <time>2018-09-14T15:15:02Z</time>
      </trkpt>
      <trkpt lat="47.52456" lon="-1.34183">
        <ele>32.6</ele>
        <time>2018-09-14T15:15:07Z</time>
      </trkpt>
      <trkpt lat="47.52446" lon="-1.34158">
        <ele>33</ele>
        <time>2018-09-14T15:15:12Z</time>
      </trkpt>
      <trkpt lat="47.52432" lon="-1.34135">
        <ele>33</ele>
        <time>2018-09-14T15:15:18Z</time>
      </trkpt>
      <trkpt lat="47.52433" lon="-1.34112">
        <ele>32.8</ele>
        <time>2018-09-14T15:15:23Z</time>
      </trkpt>
      <trkpt lat="47.52444" lon="-1.34085">
        <ele>32</ele>
        <time>2018-09-14T15:15:29Z</time>
      </trkpt>
      <trkpt lat="47.52454" lon="-1.34056">
        <ele>32.6</ele>
        <time>2018-09-14T15:15:35Z</time>
      </trkpt>
      <trkpt lat="47.52465" lon="-1.34021">
        <ele>32.7</ele>
        <time>2018-09-14T15:15:42Z</time>
      </trkpt>
      <trkpt lat="47.52474" lon="-1.33982">
        <ele>32.9</ele>
        <time>2018-09-14T15:15:49Z</time>
      </trkpt>
      <trkpt lat="47.52487" lon="-1.33934">
        <ele>32.9</ele>
        <time>2018-09-14T15:15:58Z</time>
      </trkpt>
      <trkpt lat="47.52498" lon="-1.339">
        <ele>1</ele>
        <time>2018-09-14T15:16:05Z</time>
      </trkpt>
      <trkpt lat="47.52503" lon="-1.33891">
        <ele>1</ele>
        <time>2018-09-14T15:16:07Z</time>
      </trkpt>
      <trkpt lat="47.52512" lon="-1.33877">
        <ele>32.8</ele>
        <time>2018-09-14T15:16:10Z</time>
      </trkpt>
      <trkpt lat="47.52524" lon="-1.33855">
        <ele>32.5</ele>
        <time>2018-09-14T15:16:16Z</time>
      </trkpt>
      <trkpt lat="47.52533" lon="-1.33833">
        <ele>32.8</ele>
        <time>2018-09-14T15:16:21Z</time>
      </trkpt>
      <trkpt lat="47.52541" lon="-1.3382">
        <ele>32.8</ele>
        <time>2018-09-14T15:16:26Z</time>
      </trkpt>
      <trkpt lat="47.52545" lon="-1.33816">
        <ele>32.6</ele>
        <time>2018-09-14T15:16:28Z</time>
      </trkpt>
      <trkpt lat="47.52552" lon="-1.33812">
        <ele>32.2</ele>
        <time>2018-09-14T15:16:31Z</time>
      </trkpt>
      <trkpt lat="47.52567" lon="-1.33809">
        <ele>32</ele>
        <time>2018-09-14T15:16:36Z</time>
      </trkpt>
      <trkpt lat="47.52569" lon="-1.33806">
        <ele>32</ele>
        <time>2018-09-14T15:16:37Z</time>
      </trkpt>
      <trkpt lat="47.52571" lon="-1.33796">
        <ele>32.1</ele>
        <time>2018-09-14T15:16:39Z</time>
      </trkpt>
      <trkpt lat="47.52581" lon="-1.33769">
        <ele>32.1</ele>
        <time>2018-09-14T15:16:45Z</time>
      </trkpt>
      <trkpt lat="47.52583" lon="-1.33754">
        <ele>32</ele>
        <time>2018-09-14T15:16:49Z</time>
      </trkpt>
      <trkpt lat="47.52581" lon="-1.3375">
        <ele>32.1</ele>
        <time>2018-09-14T15:16:50Z</time>
      </trkpt>
      <trkpt lat="47.52567" lon="-1.33725">
        <ele>32.6</ele>
        <time>2018-09-14T15:16:56Z</time>
      </trkpt>
      <trkpt lat="47.52555" lon="-1.3371">
        <ele>32.6</ele>
        <time>2018-09-14T15:17:01Z</time>
      </trkpt>
      <trkpt lat="47.52548" lon="-1.33699">
        <ele>32.6</ele>
        <time>2018-09-14T15:17:06Z</time>
      </trkpt>
      <trkpt lat="47.52546" lon="-1.33691">
        <ele>32.7</ele>
        <time>2018-09-14T15:17:10Z</time>
      </trkpt>
      <trkpt lat="47.52546" lon="-1.33684">
        <ele>32.7</ele>
        <time>2018-09-14T15:17:12Z</time>
      </trkpt>
      <trkpt lat="47.52542" lon="-1.33664">
        <ele>32.9</ele>
        <time>2018-09-14T15:17:17Z</time>
      </trkpt>
      <trkpt lat="47.52537" lon="-1.33641">
        <ele>32.7</ele>
        <time>2018-09-14T15:17:22Z</time>
      </trkpt>
      <trkpt lat="47.52536" lon="-1.33636">
        <ele>32.7</ele>
        <time>2018-09-14T15:17:23Z</time>
      </trkpt>
      <trkpt lat="47.52529" lon="-1.33609">
        <ele>32.9</ele>
        <time>2018-09-14T15:17:28Z</time>
      </trkpt>
      <trkpt lat="47.52526" lon="-1.3358">
        <ele>32.2</ele>
        <time>2018-09-14T15:17:34Z</time>
      </trkpt>
      <trkpt lat="47.52517" lon="-1.33546">
        <ele>32.8</ele>
        <time>2018-09-14T15:17:41Z</time>
      </trkpt>
      <trkpt lat="47.52511" lon="-1.33511">
        <ele>33.2</ele>
        <time>2018-09-14T15:17:47Z</time>
      </trkpt>
      <trkpt lat="47.52507" lon="-1.33473">
        <ele>32.8</ele>
        <time>2018-09-14T15:17:54Z</time>
      </trkpt>
      <trkpt lat="47.52507" lon="-1.33441">
        <ele>32.7</ele>
        <time>2018-09-14T15:18:01Z</time>
      </trkpt>
      <trkpt lat="47.52508" lon="-1.33422">
        <ele>32.7</ele>
        <time>2018-09-14T15:18:06Z</time>
      </trkpt>
      <trkpt lat="47.52507" lon="-1.33419">
        <ele>32.7</ele>
        <time>2018-09-14T15:18:07Z</time>
      </trkpt>
      <trkpt lat="47.52507" lon="-1.33416">
        <ele>32.7</ele>
        <time>2018-09-14T15:18:08Z</time>
      </trkpt>
      <trkpt lat="47.52511" lon="-1.33397">
        <ele>32.6</ele>
        <time>2018-09-14T15:18:17Z</time>
      </trkpt>
      <trkpt lat="47.52511" lon="-1.33394">
        <ele>32.6</ele>
        <time>2018-09-14T15:18:18Z</time>
      </trkpt>
      <trkpt lat="47.52515" lon="-1.33373">
        <ele>32.7</ele>
        <time>2018-09-14T15:18:23Z</time>
      </trkpt>
      <trkpt lat="47.5252" lon="-1.33348">
        <ele>32.6</ele>
        <time>2018-09-14T15:18:41Z</time>
      </trkpt>
      <trkpt lat="47.52524" lon="-1.3333">
        <ele>32.4</ele>
        <time>2018-09-14T15:18:48Z</time>
      </trkpt>
      <trkpt lat="47.52524" lon="-1.33325">
        <ele>32.5</ele>
        <time>2018-09-14T15:18:50Z</time>
      </trkpt>
      <trkpt lat="47.52526" lon="-1.33318">
        <ele>32.6</ele>
        <time>2018-09-14T15:18:53Z</time>
      </trkpt>
      <trkpt lat="47.52534" lon="-1.33304">
        <ele>32.8</ele>
        <time>2018-09-14T15:18:58Z</time>
      </trkpt>
      <trkpt lat="47.52542" lon="-1.33282">
        <ele>32.9</ele>
        <time>2018-09-14T15:19:04Z</time>
      </trkpt>
      <trkpt lat="47.52547" lon="-1.33263">
        <ele>32.6</ele>
        <time>2018-09-14T15:19:09Z</time>
      </trkpt>
      <trkpt lat="47.52556" lon="-1.33237">
        <ele>32.5</ele>
        <time>2018-09-14T15:19:15Z</time>
      </trkpt>
      <trkpt lat="47.52568" lon="-1.33208">
        <ele>32.6</ele>
        <time>2018-09-14T15:19:21Z</time>
      </trkpt>
      <trkpt lat="47.52576" lon="-1.33182">
        <ele>32.3</ele>
        <time>2018-09-14T15:19:27Z</time>
      </trkpt>
      <trkpt lat="47.52576" lon="-1.33159">
        <ele>32.2</ele>
        <time>2018-09-14T15:19:33Z</time>
      </trkpt>
      <trkpt lat="47.52572" lon="-1.33123">
        <ele>32.4</ele>
        <time>2018-09-14T15:19:40Z</time>
      </trkpt>
      <trkpt lat="47.52565" lon="-1.33107">
        <ele>32.6</ele>
        <time>2018-09-14T15:19:45Z</time>
      </trkpt>
      <trkpt lat="47.52558" lon="-1.33093">
        <ele>32.3</ele>
        <time>2018-09-14T15:19:50Z</time>
      </trkpt>
      <trkpt lat="47.52554" lon="-1.33084">
        <ele>32.1</ele>
        <time>2018-09-14T15:19:53Z</time>
      </trkpt>
      <trkpt lat="47.52548" lon="-1.33076">
        <ele>32.2</ele>
        <time>2018-09-14T15:19:56Z</time>
      </trkpt>
      <trkpt lat="47.52539" lon="-1.33067">
        <ele>32.2</ele>
        <time>2018-09-14T15:20:00Z</time>
      </trkpt>
      <trkpt lat="47.52538" lon="-1.33064">
        <ele>32.2</ele>
        <time>2018-09-14T15:20:01Z</time>
      </trkpt>
      <trkpt lat="47.52525" lon="-1.33056">
        <ele>32.1</ele>
        <time>2018-09-14T15:20:06Z</time>
      </trkpt>
      <trkpt lat="47.52512" lon="-1.33053">
        <ele>32.5</ele>
        <time>2018-09-14T15:20:11Z</time>
      </trkpt>
      <trkpt lat="47.52511" lon="-1.33052">
        <ele>32.5</ele>
        <time>2018-09-14T15:20:12Z</time>
      </trkpt>
      <trkpt lat="47.525" lon="-1.3305">
        <ele>32.8</ele>
        <time>2018-09-14T15:20:17Z</time>
      </trkpt>
      <trkpt lat="47.52486" lon="-1.33043">
        <ele>32.5</ele>
        <time>2018-09-14T15:20:22Z</time>
      </trkpt>
      <trkpt lat="47.52478" lon="-1.3304">
        <ele>32.4</ele>
        <time>2018-09-14T15:20:25Z</time>
      </trkpt>
      <trkpt lat="47.52473" lon="-1.33033">
        <ele>32.2</ele>
        <time>2018-09-14T15:20:27Z</time>
      </trkpt>
      <trkpt lat="47.52461" lon="-1.33002">
        <ele>32</ele>
        <time>2018-09-14T15:20:34Z</time>
      </trkpt>
      <trkpt lat="47.52453" lon="-1.32977">
        <ele>32</ele>
        <time>2018-09-14T15:20:40Z</time>
      </trkpt>
      <trkpt lat="47.52452" lon="-1.32947">
        <ele>32</ele>
        <time>2018-09-14T15:20:46Z</time>
      </trkpt>
      <trkpt lat="47.52453" lon="-1.32913">
        <ele>32.1</ele>
        <time>2018-09-14T15:20:53Z</time>
      </trkpt>
      <trkpt lat="47.52456" lon="-1.32879">
        <ele>32.6</ele>
        <time>2018-09-14T15:20:59Z</time>
      </trkpt>
      <trkpt lat="47.52458" lon="-1.32852">
        <ele>1</ele>
        <time>2018-09-14T15:21:05Z</time>
      </trkpt>
      <trkpt lat="47.52465" lon="-1.32832">
        <ele>32.3</ele>
        <time>2018-09-14T15:21:11Z</time>
      </trkpt>
      <trkpt lat="47.52475" lon="-1.32806">
        <ele>1</ele>
        <time>2018-09-14T15:21:17Z</time>
      </trkpt>
      <trkpt lat="47.52486" lon="-1.3277">
        <ele>1</ele>
        <time>2018-09-14T15:21:24Z</time>
      </trkpt>
      <trkpt lat="47.52491" lon="-1.32762">
        <ele>1</ele>
        <time>2018-09-14T15:21:26Z</time>
      </trkpt>
      <trkpt lat="47.52498" lon="-1.3275">
        <ele>1</ele>
        <time>2018-09-14T15:21:30Z</time>
      </trkpt>
      <trkpt lat="47.52504" lon="-1.3274">
        <ele>1</ele>
        <time>2018-09-14T15:21:35Z</time>
      </trkpt>
      <trkpt lat="47.52506" lon="-1.32735">
        <ele>32.9</ele>
        <time>2018-09-14T15:21:37Z</time>
      </trkpt>
      <trkpt lat="47.52512" lon="-1.32722">
        <ele>33.1</ele>
        <time>2018-09-14T15:21:41Z</time>
      </trkpt>
      <trkpt lat="47.52521" lon="-1.32697">
        <ele>1</ele>
        <time>2018-09-14T15:21:46Z</time>
      </trkpt>
      <trkpt lat="47.52526" lon="-1.32665">
        <ele>1</ele>
        <time>2018-09-14T15:21:52Z</time>
      </trkpt>
      <trkpt lat="47.52527" lon="-1.32622">
        <ele>1</ele>
        <time>2018-09-14T15:21:59Z</time>
      </trkpt>
      <trkpt lat="47.52523" lon="-1.32583">
        <ele>1</ele>
        <time>2018-09-14T15:22:06Z</time>
      </trkpt>
      <trkpt lat="47.52514" lon="-1.32553">
        <ele>1</ele>
        <time>2018-09-14T15:22:12Z</time>
      </trkpt>
      <trkpt lat="47.52511" lon="-1.32536">
        <ele>1</ele>
        <time>2018-09-14T15:22:17Z</time>
      </trkpt>
      <trkpt lat="47.52518" lon="-1.32528">
        <ele>1</ele>
        <time>2018-09-14T15:22:22Z</time>
      </trkpt>
      <trkpt lat="47.52525" lon="-1.32499">
        <ele>1</ele>
        <time>2018-09-14T15:22:28Z</time>
      </trkpt>
      <trkpt lat="47.52531" lon="-1.32476">
        <ele>32</ele>
        <time>2018-09-14T15:22:34Z</time>
      </trkpt>
      <trkpt lat="47.52535" lon="-1.32449">
        <ele>32</ele>
        <time>2018-09-14T15:22:40Z</time>
      </trkpt>
      <trkpt lat="47.52536" lon="-1.32416">
        <ele>32.7</ele>
        <time>2018-09-14T15:22:47Z</time>
      </trkpt>
      <trkpt lat="47.52539" lon="-1.32399">
        <ele>32.6</ele>
        <time>2018-09-14T15:22:57Z</time>
      </trkpt>
      <trkpt lat="47.52546" lon="-1.32381">
        <ele>32.3</ele>
        <time>2018-09-14T15:23:03Z</time>
      </trkpt>
      <trkpt lat="47.52559" lon="-1.3236">
        <ele>32</ele>
        <time>2018-09-14T15:23:09Z</time>
      </trkpt>
      <trkpt lat="47.52568" lon="-1.32341">
        <ele>32.4</ele>
        <time>2018-09-14T15:23:14Z</time>
      </trkpt>
      <trkpt lat="47.52577" lon="-1.32331">
        <ele>32.3</ele>
        <time>2018-09-14T15:23:19Z</time>
      </trkpt>
      <trkpt lat="47.52592" lon="-1.32309">
        <ele>32.6</ele>
        <time>2018-09-14T15:23:25Z</time>
      </trkpt>
      <trkpt lat="47.52609" lon="-1.32286">
        <ele>1</ele>
        <time>2018-09-14T15:23:31Z</time>
      </trkpt>
      <trkpt lat="47.52622" lon="-1.32274">
        <ele>32.1</ele>
        <time>2018-09-14T15:23:36Z</time>
      </trkpt>
      <trkpt lat="47.52625" lon="-1.32273">
        <ele>32.2</ele>
        <time>2018-09-14T15:23:37Z</time>
      </trkpt>
      <trkpt lat="47.52633" lon="-1.32272">
        <ele>32.2</ele>
        <time>2018-09-14T15:23:40Z</time>
      </trkpt>
      <trkpt lat="47.52646" lon="-1.32269">
        <ele>32.3</ele>
        <time>2018-09-14T15:23:45Z</time>
      </trkpt>
      <trkpt lat="47.52661" lon="-1.32268">
        <ele>32.3</ele>
        <time>2018-09-14T15:23:50Z</time>
      </trkpt>
      <trkpt lat="47.5268" lon="-1.32262">
        <ele>32.6</ele>
        <time>2018-09-14T15:23:56Z</time>
      </trkpt>
      <trkpt lat="47.52697" lon="-1.32245">
        <ele>32.9</ele>
        <time>2018-09-14T15:24:01Z</time>
      </trkpt>
      <trkpt lat="47.52705" lon="-1.32236">
        <ele>32.8</ele>
        <time>2018-09-14T15:24:04Z</time>
      </trkpt>
      <trkpt lat="47.52714" lon="-1.32226">
        <ele>32.9</ele>
        <time>2018-09-14T15:24:07Z</time>
      </trkpt>
      <trkpt lat="47.52728" lon="-1.32209">
        <ele>32.8</ele>
        <time>2018-09-14T15:24:12Z</time>
      </trkpt>
      <trkpt lat="47.52743" lon="-1.32194">
        <ele>32.3</ele>
        <time>2018-09-14T15:24:18Z</time>
      </trkpt>
      <trkpt lat="47.52752" lon="-1.32178">
        <ele>32.5</ele>
        <time>2018-09-14T15:24:23Z</time>
      </trkpt>
      <trkpt lat="47.52764" lon="-1.32146">
        <ele>32.5</ele>
        <time>2018-09-14T15:24:29Z</time>
      </trkpt>
      <trkpt lat="47.52774" lon="-1.32114">
        <ele>32.9</ele>
        <time>2018-09-14T15:24:35Z</time>
      </trkpt>
      <trkpt lat="47.52787" lon="-1.32082">
        <ele>32.7</ele>
        <time>2018-09-14T15:24:41Z</time>
      </trkpt>
      <trkpt lat="47.52802" lon="-1.32058">
        <ele>32.1</ele>
        <time>2018-09-14T15:24:46Z</time>
      </trkpt>
      <trkpt lat="47.52808" lon="-1.32037">
        <ele>32.6</ele>
        <time>2018-09-14T15:24:50Z</time>
      </trkpt>
      <trkpt lat="47.52816" lon="-1.32024">
        <ele>32.7</ele>
        <time>2018-09-14T15:24:54Z</time>
      </trkpt>
      <trkpt lat="47.5282" lon="-1.32025">
        <ele>1</ele>
        <time>2018-09-14T15:24:56Z</time>
      </trkpt>
      <trkpt lat="47.52824" lon="-1.3203">
        <ele>1</ele>
        <time>2018-09-14T15:24:58Z</time>
      </trkpt>
      <trkpt lat="47.5284" lon="-1.32056">
        <ele>1</ele>
        <time>2018-09-14T15:25:04Z</time>
      </trkpt>
      <trkpt lat="47.52857" lon="-1.32077">
        <ele>32.2</ele>
        <time>2018-09-14T15:25:10Z</time>
      </trkpt>
      <trkpt lat="47.52864" lon="-1.32086">
        <ele>32.1</ele>
        <time>2018-09-14T15:25:18Z</time>
      </trkpt>
      <trkpt lat="47.52866" lon="-1.32088">
        <ele>32.1</ele>
        <time>2018-09-14T15:25:19Z</time>
      </trkpt>
      <trkpt lat="47.52877" lon="-1.32104">
        <ele>1</ele>
        <time>2018-09-14T15:25:24Z</time>
      </trkpt>
      <trkpt lat="47.5289" lon="-1.32131">
        <ele>1</ele>
        <time>2018-09-14T15:25:29Z</time>
      </trkpt>
      <trkpt lat="47.52908" lon="-1.32169">
        <ele>1</ele>
        <time>2018-09-14T15:25:36Z</time>
      </trkpt>
      <trkpt lat="47.52922" lon="-1.32204">
        <ele>1</ele>
        <time>2018-09-14T15:25:43Z</time>
      </trkpt>
      <trkpt lat="47.52942" lon="-1.32249">
        <ele>1</ele>
        <time>2018-09-14T15:25:52Z</time>
      </trkpt>
      <trkpt lat="47.52955" lon="-1.3228">
        <ele>2</ele>
        <time>2018-09-14T15:25:59Z</time>
      </trkpt>
      <trkpt lat="47.52957" lon="-1.32285">
        <ele>2</ele>
        <time>2018-09-14T15:26:00Z</time>
      </trkpt>
      <trkpt lat="47.5297" lon="-1.32316">
        <ele>2</ele>
        <time>2018-09-14T15:26:06Z</time>
      </trkpt>
      <trkpt lat="47.52986" lon="-1.32358">
        <ele>2</ele>
        <time>2018-09-14T15:26:14Z</time>
      </trkpt>
      <trkpt lat="47.52996" lon="-1.32385">
        <ele>3</ele>
        <time>2018-09-14T15:26:20Z</time>
      </trkpt>
      <trkpt lat="47.53003" lon="-1.32402">
        <ele>3</ele>
        <time>2018-09-14T15:26:24Z</time>
      </trkpt>
      <trkpt lat="47.53014" lon="-1.32427">
        <ele>3</ele>
        <time>2018-09-14T15:26:29Z</time>
      </trkpt>
      <trkpt lat="47.53033" lon="-1.32473">
        <ele>2</ele>
        <time>2018-09-14T15:26:37Z</time>
      </trkpt>
      <trkpt lat="47.53046" lon="-1.32509">
        <ele>3</ele>
        <time>2018-09-14T15:26:44Z</time>
      </trkpt>
      <trkpt lat="47.53046" lon="-1.32512">
        <ele>3</ele>
        <time>2018-09-14T15:26:45Z</time>
      </trkpt>
      <trkpt lat="47.53038" lon="-1.32518">
        <ele>2</ele>
        <time>2018-09-14T15:26:48Z</time>
      </trkpt>
      <trkpt lat="47.53029" lon="-1.3252">
        <ele>2</ele>
        <time>2018-09-14T15:26:50Z</time>
      </trkpt>
      <trkpt lat="47.53025" lon="-1.32523">
        <ele>2</ele>
        <time>2018-09-14T15:26:51Z</time>
      </trkpt>
      <trkpt lat="47.53018" lon="-1.32529">
        <ele>1</ele>
        <time>2018-09-14T15:26:53Z</time>
      </trkpt>
      <trkpt lat="47.53002" lon="-1.32555">
        <ele>1</ele>
        <time>2018-09-14T15:26:59Z</time>
      </trkpt>
      <trkpt lat="47.52989" lon="-1.3258">
        <ele>1</ele>
        <time>2018-09-14T15:27:04Z</time>
      </trkpt>
      <trkpt lat="47.5298" lon="-1.32606">
        <ele>1</ele>
        <time>2018-09-14T15:27:08Z</time>
      </trkpt>
      <trkpt lat="47.52978" lon="-1.32619">
        <ele>32.8</ele>
        <time>2018-09-14T15:27:10Z</time>
      </trkpt>
      <trkpt lat="47.52976" lon="-1.3264">
        <ele>1</ele>
        <time>2018-09-14T15:27:13Z</time>
      </trkpt>
      <trkpt lat="47.52976" lon="-1.32654">
        <ele>1</ele>
        <time>2018-09-14T15:27:15Z</time>
      </trkpt>
      <trkpt lat="47.52975" lon="-1.32703">
        <ele>1</ele>
        <time>2018-09-14T15:27:22Z</time>
      </trkpt>
      <trkpt lat="47.52974" lon="-1.32715">
        <ele>1</ele>
        <time>2018-09-14T15:27:24Z</time>
      </trkpt>
      <trkpt lat="47.52971" lon="-1.32736">
        <ele>32.6</ele>
        <time>2018-09-14T15:27:27Z</time>
      </trkpt>
      <trkpt lat="47.5296" lon="-1.32776">
        <ele>32.4</ele>
        <time>2018-09-14T15:27:33Z</time>
      </trkpt>
      <trkpt lat="47.52953" lon="-1.32817">
        <ele>1</ele>
        <time>2018-09-14T15:27:39Z</time>
      </trkpt>
      <trkpt lat="47.52949" lon="-1.32831">
        <ele>1</ele>
        <time>2018-09-14T15:27:41Z</time>
      </trkpt>
      <trkpt lat="47.52942" lon="-1.32849">
        <ele>1</ele>
        <time>2018-09-14T15:27:44Z</time>
      </trkpt>
      <trkpt lat="47.52926" lon="-1.32895">
        <ele>1</ele>
        <time>2018-09-14T15:27:51Z</time>
      </trkpt>
      <trkpt lat="47.52917" lon="-1.32944">
        <ele>32</ele>
        <time>2018-09-14T15:27:58Z</time>
      </trkpt>
      <trkpt lat="47.52904" lon="-1.32978">
        <ele>32.3</ele>
        <time>2018-09-14T15:28:04Z</time>
      </trkpt>
      <trkpt lat="47.52897" lon="-1.32999">
        <ele>1</ele>
        <time>2018-09-14T15:28:09Z</time>
      </trkpt>
      <trkpt lat="47.52895" lon="-1.33002">
        <ele>1</ele>
        <time>2018-09-14T15:28:11Z</time>
      </trkpt>
      <trkpt lat="47.52893" lon="-1.33005">
        <ele>1</ele>
        <time>2018-09-14T15:28:13Z</time>
      </trkpt>
      <trkpt lat="47.52894" lon="-1.33008">
        <ele>1</ele>
        <time>2018-09-14T15:28:20Z</time>
      </trkpt>
      <trkpt lat="47.52896" lon="-1.33014">
        <ele>1</ele>
        <time>2018-09-14T15:28:22Z</time>
      </trkpt>
      <trkpt lat="47.52907" lon="-1.33041">
        <ele>1</ele>
        <time>2018-09-14T15:28:28Z</time>
      </trkpt>
      <trkpt lat="47.52927" lon="-1.33087">
        <ele>1</ele>
        <time>2018-09-14T15:28:37Z</time>
      </trkpt>
      <trkpt lat="47.52924" lon="-1.3311">
        <ele>1</ele>
        <time>2018-09-14T15:28:41Z</time>
      </trkpt>
      <trkpt lat="47.52919" lon="-1.33137">
        <ele>1</ele>
        <time>2018-09-14T15:28:46Z</time>
      </trkpt>
      <trkpt lat="47.5292" lon="-1.33168">
        <ele>1</ele>
        <time>2018-09-14T15:28:52Z</time>
      </trkpt>
      <trkpt lat="47.52919" lon="-1.33205">
        <ele>1</ele>
        <time>2018-09-14T15:28:58Z</time>
      </trkpt>
      <trkpt lat="47.52917" lon="-1.33221">
        <ele>2</ele>
        <time>2018-09-14T15:29:01Z</time>
      </trkpt>
      <trkpt lat="47.52916" lon="-1.33228">
        <ele>2</ele>
        <time>2018-09-14T15:29:02Z</time>
      </trkpt>
      <trkpt lat="47.52913" lon="-1.33242">
        <ele>2</ele>
        <time>2018-09-14T15:29:04Z</time>
      </trkpt>
      <trkpt lat="47.52908" lon="-1.3328">
        <ele>2</ele>
        <time>2018-09-14T15:29:10Z</time>
      </trkpt>
      <trkpt lat="47.52909" lon="-1.33303">
        <ele>2</ele>
        <time>2018-09-14T15:29:15Z</time>
      </trkpt>
      <trkpt lat="47.52911" lon="-1.33307">
        <ele>2</ele>
        <time>2018-09-14T15:29:16Z</time>
      </trkpt>
      <trkpt lat="47.52923" lon="-1.33315">
        <ele>2</ele>
        <time>2018-09-14T15:29:20Z</time>
      </trkpt>
      <trkpt lat="47.5293" lon="-1.33317">
        <ele>2</ele>
        <time>2018-09-14T15:29:22Z</time>
      </trkpt>
      <trkpt lat="47.52943" lon="-1.33323">
        <ele>3</ele>
        <time>2018-09-14T15:29:26Z</time>
      </trkpt>
      <trkpt lat="47.5295" lon="-1.33326">
        <ele>3</ele>
        <time>2018-09-14T15:29:28Z</time>
      </trkpt>
      <trkpt lat="47.52981" lon="-1.33337">
        <ele>4</ele>
        <time>2018-09-14T15:29:36Z</time>
      </trkpt>
      <trkpt lat="47.5301" lon="-1.33348">
        <ele>5</ele>
        <time>2018-09-14T15:29:44Z</time>
      </trkpt>
      <trkpt lat="47.53013" lon="-1.33349">
        <ele>5</ele>
        <time>2018-09-14T15:29:45Z</time>
      </trkpt>
      <trkpt lat="47.53037" lon="-1.33356">
        <ele>6</ele>
        <time>2018-09-14T15:29:52Z</time>
      </trkpt>
      <trkpt lat="47.53044" lon="-1.33359">
        <ele>6</ele>
        <time>2018-09-14T15:29:54Z</time>
      </trkpt>
      <trkpt lat="47.53056" lon="-1.33362">
        <ele>7</ele>
        <time>2018-09-14T15:29:58Z</time>
      </trkpt>
      <trkpt lat="47.53062" lon="-1.33363">
        <ele>7</ele>
        <time>2018-09-14T15:30:00Z</time>
      </trkpt>
      <trkpt lat="47.53076" lon="-1.33364">
        <ele>8</ele>
        <time>2018-09-14T15:30:05Z</time>
      </trkpt>
      <trkpt lat="47.53079" lon="-1.33364">
        <ele>8</ele>
        <time>2018-09-14T15:30:06Z</time>
      </trkpt>
      <trkpt lat="47.53088" lon="-1.33364">
        <ele>9</ele>
        <time>2018-09-14T15:30:09Z</time>
      </trkpt>
      <trkpt lat="47.53099" lon="-1.33359">
        <ele>10</ele>
        <time>2018-09-14T15:30:13Z</time>
      </trkpt>
      <trkpt lat="47.53102" lon="-1.33357">
        <ele>10</ele>
        <time>2018-09-14T15:30:14Z</time>
      </trkpt>
      <trkpt lat="47.53119" lon="-1.33351">
        <ele>11</ele>
        <time>2018-09-14T15:30:20Z</time>
      </trkpt>
      <trkpt lat="47.53125" lon="-1.33353">
        <ele>11</ele>
        <time>2018-09-14T15:30:22Z</time>
      </trkpt>
      <trkpt lat="47.5313" lon="-1.3336">
        <ele>12</ele>
        <time>2018-09-14T15:30:24Z</time>
      </trkpt>
      <trkpt lat="47.53151" lon="-1.33385">
        <ele>12</ele>
        <time>2018-09-14T15:30:31Z</time>
      </trkpt>
      <trkpt lat="47.53162" lon="-1.33401">
        <ele>12</ele>
        <time>2018-09-14T15:30:35Z</time>
      </trkpt>
      <trkpt lat="47.53169" lon="-1.33414">
        <ele>13</ele>
        <time>2018-09-14T15:30:38Z</time>
      </trkpt>
      <trkpt lat="47.53185" lon="-1.3344">
        <ele>13</ele>
        <time>2018-09-14T15:30:44Z</time>
      </trkpt>
      <trkpt lat="47.53193" lon="-1.33452">
        <ele>14</ele>
        <time>2018-09-14T15:30:47Z</time>
      </trkpt>
      <trkpt lat="47.53211" lon="-1.3348">
        <ele>14</ele>
        <time>2018-09-14T15:30:54Z</time>
      </trkpt>
      <trkpt lat="47.53216" lon="-1.33488">
        <ele>15</ele>
        <time>2018-09-14T15:30:56Z</time>
      </trkpt>
      <trkpt lat="47.53232" lon="-1.33524">
        <ele>15</ele>
        <time>2018-09-14T15:31:03Z</time>
      </trkpt>
      <trkpt lat="47.53252" lon="-1.33572">
        <ele>15</ele>
        <time>2018-09-14T15:31:12Z</time>
      </trkpt>
      <trkpt lat="47.53256" lon="-1.33583">
        <ele>16</ele>
        <time>2018-09-14T15:31:14Z</time>
      </trkpt>
      <trkpt lat="47.53268" lon="-1.33614">
        <ele>17</ele>
        <time>2018-09-14T15:31:20Z</time>
      </trkpt>
      <trkpt lat="47.5327" lon="-1.33619">
        <ele>17</ele>
        <time>2018-09-14T15:31:21Z</time>
      </trkpt>
      <trkpt lat="47.53282" lon="-1.33669">
        <ele>18</ele>
        <time>2018-09-14T15:31:30Z</time>
      </trkpt>
      <trkpt lat="47.53284" lon="-1.33675">
        <ele>18</ele>
        <time>2018-09-14T15:31:31Z</time>
      </trkpt>
      <trkpt lat="47.53296" lon="-1.33721">
        <ele>19</ele>
        <time>2018-09-14T15:31:39Z</time>
      </trkpt>
      <trkpt lat="47.53305" lon="-1.33748">
        <ele>19</ele>
        <time>2018-09-14T15:31:44Z</time>
      </trkpt>
      <trkpt lat="47.53313" lon="-1.3376">
        <ele>19</ele>
        <time>2018-09-14T15:31:47Z</time>
      </trkpt>
      <trkpt lat="47.53334" lon="-1.33778">
        <ele>20</ele>
        <time>2018-09-14T15:31:53Z</time>
      </trkpt>
      <trkpt lat="47.53353" lon="-1.33786">
        <ele>21</ele>
        <time>2018-09-14T15:31:58Z</time>
      </trkpt>
      <trkpt lat="47.53357" lon="-1.33788">
        <ele>21</ele>
        <time>2018-09-14T15:31:59Z</time>
      </trkpt>
      <trkpt lat="47.53361" lon="-1.33789">
        <ele>21</ele>
        <time>2018-09-14T15:32:00Z</time>
      </trkpt>
      <trkpt lat="47.53386" lon="-1.33799">
        <ele>22</ele>
        <time>2018-09-14T15:32:07Z</time>
      </trkpt>
      <trkpt lat="47.53393" lon="-1.33806">
        <ele>22</ele>
        <time>2018-09-14T15:32:10Z</time>
      </trkpt>
      <trkpt lat="47.53392" lon="-1.33819">
        <ele>23</ele>
        <time>2018-09-14T15:32:13Z</time>
      </trkpt>
      <trkpt lat="47.53384" lon="-1.33832">
        <ele>23</ele>
        <time>2018-09-14T15:32:16Z</time>
      </trkpt>
      <trkpt lat="47.53381" lon="-1.33836">
        <ele>23</ele>
        <time>2018-09-14T15:32:17Z</time>
      </trkpt>
      <trkpt lat="47.53358" lon="-1.33869">
        <ele>23</ele>
        <time>2018-09-14T15:32:24Z</time>
      </trkpt>
      <trkpt lat="47.53335" lon="-1.33914">
        <ele>22</ele>
        <time>2018-09-14T15:32:31Z</time>
      </trkpt>
      <trkpt lat="47.53308" lon="-1.33984">
        <ele>22</ele>
        <time>2018-09-14T15:32:40Z</time>
      </trkpt>
      <trkpt lat="47.53292" lon="-1.34025">
        <ele>21</ele>
        <time>2018-09-14T15:32:45Z</time>
      </trkpt>
      <trkpt lat="47.53286" lon="-1.34043">
        <ele>20</ele>
        <time>2018-09-14T15:32:47Z</time>
      </trkpt>
      <trkpt lat="47.53284" lon="-1.34052">
        <ele>20</ele>
        <time>2018-09-14T15:32:48Z</time>
      </trkpt>
      <trkpt lat="47.53283" lon="-1.34092">
        <ele>20</ele>
        <time>2018-09-14T15:32:52Z</time>
      </trkpt>
      <trkpt lat="47.53285" lon="-1.34101">
        <ele>20</ele>
        <time>2018-09-14T15:32:53Z</time>
      </trkpt>
      <trkpt lat="47.53288" lon="-1.3412">
        <ele>20</ele>
        <time>2018-09-14T15:32:55Z</time>
      </trkpt>
      <trkpt lat="47.53293" lon="-1.34148">
        <ele>19</ele>
        <time>2018-09-14T15:32:58Z</time>
      </trkpt>
      <trkpt lat="47.53299" lon="-1.34183">
        <ele>19</ele>
        <time>2018-09-14T15:33:02Z</time>
      </trkpt>
      <trkpt lat="47.53306" lon="-1.34216">
        <ele>18</ele>
        <time>2018-09-14T15:33:06Z</time>
      </trkpt>
      <trkpt lat="47.5332" lon="-1.34264">
        <ele>18</ele>
        <time>2018-09-14T15:33:12Z</time>
      </trkpt>
      <trkpt lat="47.53326" lon="-1.34298">
        <ele>18</ele>
        <time>2018-09-14T15:33:16Z</time>
      </trkpt>
      <trkpt lat="47.53333" lon="-1.34323">
        <ele>18</ele>
        <time>2018-09-14T15:33:19Z</time>
      </trkpt>
      <trkpt lat="47.53341" lon="-1.34348">
        <ele>17</ele>
        <time>2018-09-14T15:33:22Z</time>
      </trkpt>
      <trkpt lat="47.53344" lon="-1.34375">
        <ele>17</ele>
        <time>2018-09-14T15:33:25Z</time>
      </trkpt>
      <trkpt lat="47.53338" lon="-1.34409">
        <ele>17</ele>
        <time>2018-09-14T15:33:29Z</time>
      </trkpt>
      <trkpt lat="47.53319" lon="-1.34456">
        <ele>18</ele>
        <time>2018-09-14T15:33:35Z</time>
      </trkpt>
      <trkpt lat="47.533" lon="-1.34502">
        <ele>18</ele>
        <time>2018-09-14T15:33:41Z</time>
      </trkpt>
      <trkpt lat="47.53292" lon="-1.34557">
        <ele>18</ele>
        <time>2018-09-14T15:33:47Z</time>
      </trkpt>
      <trkpt lat="47.53282" lon="-1.3464">
        <ele>18</ele>
        <time>2018-09-14T15:33:56Z</time>
      </trkpt>
      <trkpt lat="47.53276" lon="-1.34715">
        <ele>18</ele>
        <time>2018-09-14T15:34:04Z</time>
      </trkpt>
      <trkpt lat="47.53283" lon="-1.34773">
        <ele>18</ele>
        <time>2018-09-14T15:34:10Z</time>
      </trkpt>
      <trkpt lat="47.53288" lon="-1.34791">
        <ele>18</ele>
        <time>2018-09-14T15:34:12Z</time>
      </trkpt>
      <trkpt lat="47.53297" lon="-1.34804">
        <ele>18</ele>
        <time>2018-09-14T15:34:14Z</time>
      </trkpt>
      <trkpt lat="47.53315" lon="-1.34812">
        <ele>18</ele>
        <time>2018-09-14T15:34:17Z</time>
      </trkpt>
      <trkpt lat="47.53333" lon="-1.34809">
        <ele>18</ele>
        <time>2018-09-14T15:34:20Z</time>
      </trkpt>
      <trkpt lat="47.53338" lon="-1.34808">
        <ele>18</ele>
        <time>2018-09-14T15:34:21Z</time>
      </trkpt>
      <trkpt lat="47.53344" lon="-1.34807">
        <ele>19</ele>
        <time>2018-09-14T15:34:22Z</time>
      </trkpt>
      <trkpt lat="47.5337" lon="-1.34799">
        <ele>20</ele>
        <time>2018-09-14T15:34:27Z</time>
      </trkpt>
      <trkpt lat="47.53375" lon="-1.34797">
        <ele>20</ele>
        <time>2018-09-14T15:34:28Z</time>
      </trkpt>
      <trkpt lat="47.534" lon="-1.34791">
        <ele>21</ele>
        <time>2018-09-14T15:34:33Z</time>
      </trkpt>
      <trkpt lat="47.53417" lon="-1.34787">
        <ele>22</ele>
        <time>2018-09-14T15:34:36Z</time>
      </trkpt>
      <trkpt lat="47.53475" lon="-1.34771">
        <ele>22</ele>
        <time>2018-09-14T15:34:46Z</time>
      </trkpt>
      <trkpt lat="47.53481" lon="-1.3477">
        <ele>22</ele>
        <time>2018-09-14T15:34:47Z</time>
      </trkpt>
      <trkpt lat="47.53539" lon="-1.34754">
        <ele>23</ele>
        <time>2018-09-14T15:34:57Z</time>
      </trkpt>
      <trkpt lat="47.53545" lon="-1.34752">
        <ele>23</ele>
        <time>2018-09-14T15:34:58Z</time>
      </trkpt>
      <trkpt lat="47.53597" lon="-1.34739">
        <ele>23</ele>
        <time>2018-09-14T15:35:07Z</time>
      </trkpt>
      <trkpt lat="47.5364" lon="-1.34727">
        <ele>22</ele>
        <time>2018-09-14T15:35:15Z</time>
      </trkpt>
      <trkpt lat="47.53659" lon="-1.34727">
        <ele>22</ele>
        <time>2018-09-14T15:35:20Z</time>
      </trkpt>
      <trkpt lat="47.53661" lon="-1.3474">
        <ele>22</ele>
        <time>2018-09-14T15:35:23Z</time>
      </trkpt>
      <trkpt lat="47.53662" lon="-1.34746">
        <ele>22</ele>
        <time>2018-09-14T15:35:24Z</time>
      </trkpt>
      <trkpt lat="47.53666" lon="-1.34783">
        <ele>21</ele>
        <time>2018-09-14T15:35:29Z</time>
      </trkpt>
      <trkpt lat="47.53667" lon="-1.34791">
        <ele>21</ele>
        <time>2018-09-14T15:35:30Z</time>
      </trkpt>
      <trkpt lat="47.53671" lon="-1.34821">
        <ele>20</ele>
        <time>2018-09-14T15:35:34Z</time>
      </trkpt>
      <trkpt lat="47.53673" lon="-1.34835">
        <ele>20</ele>
        <time>2018-09-14T15:35:36Z</time>
      </trkpt>
      <trkpt lat="47.53676" lon="-1.34857">
        <ele>19</ele>
        <time>2018-09-14T15:35:39Z</time>
      </trkpt>
      <trkpt lat="47.5368" lon="-1.34893">
        <ele>18</ele>
        <time>2018-09-14T15:35:44Z</time>
      </trkpt>
      <trkpt lat="47.53683" lon="-1.34926">
        <ele>17</ele>
        <time>2018-09-14T15:35:50Z</time>
      </trkpt>
      <trkpt lat="47.5369" lon="-1.34943">
        <ele>17</ele>
        <time>2018-09-14T15:35:54Z</time>
      </trkpt>
      <trkpt lat="47.53706" lon="-1.3497">
        <ele>18</ele>
        <time>2018-09-14T15:36:01Z</time>
      </trkpt>
      <trkpt lat="47.53714" lon="-1.34987">
        <ele>19</ele>
        <time>2018-09-14T15:36:05Z</time>
      </trkpt>
      <trkpt lat="47.53724" lon="-1.35005">
        <ele>19</ele>
        <time>2018-09-14T15:36:09Z</time>
      </trkpt>
      <trkpt lat="47.53733" lon="-1.3503">
        <ele>20</ele>
        <time>2018-09-14T15:36:14Z</time>
      </trkpt>
      <trkpt lat="47.53735" lon="-1.35035">
        <ele>20</ele>
        <time>2018-09-14T15:36:15Z</time>
      </trkpt>
      <trkpt lat="47.53748" lon="-1.35071">
        <ele>20</ele>
        <time>2018-09-14T15:36:22Z</time>
      </trkpt>
      <trkpt lat="47.53753" lon="-1.35088">
        <ele>21</ele>
        <time>2018-09-14T15:36:25Z</time>
      </trkpt>
      <trkpt lat="47.53758" lon="-1.3511">
        <ele>21</ele>
        <time>2018-09-14T15:36:29Z</time>
      </trkpt>
      <trkpt lat="47.53764" lon="-1.35138">
        <ele>22</ele>
        <time>2018-09-14T15:36:34Z</time>
      </trkpt>
      <trkpt lat="47.53765" lon="-1.35144">
        <ele>22</ele>
        <time>2018-09-14T15:36:35Z</time>
      </trkpt>
      <trkpt lat="47.53771" lon="-1.3518">
        <ele>22</ele>
        <time>2018-09-14T15:36:41Z</time>
      </trkpt>
      <trkpt lat="47.53774" lon="-1.35226">
        <ele>23</ele>
        <time>2018-09-14T15:36:48Z</time>
      </trkpt>
      <trkpt lat="47.53776" lon="-1.35249">
        <ele>23</ele>
        <time>2018-09-14T15:36:51Z</time>
      </trkpt>
      <trkpt lat="47.53779" lon="-1.35269">
        <ele>23</ele>
        <time>2018-09-14T15:36:54Z</time>
      </trkpt>
      <trkpt lat="47.53782" lon="-1.35296">
        <ele>23</ele>
        <time>2018-09-14T15:36:59Z</time>
      </trkpt>
      <trkpt lat="47.53785" lon="-1.35338">
        <ele>23</ele>
        <time>2018-09-14T15:37:06Z</time>
      </trkpt>
      <trkpt lat="47.53779" lon="-1.35373">
        <ele>23</ele>
        <time>2018-09-14T15:37:12Z</time>
      </trkpt>
      <trkpt lat="47.53772" lon="-1.3538">
        <ele>23</ele>
        <time>2018-09-14T15:37:14Z</time>
      </trkpt>
      <trkpt lat="47.53767" lon="-1.35384">
        <ele>23</ele>
        <time>2018-09-14T15:37:15Z</time>
      </trkpt>
      <trkpt lat="47.53738" lon="-1.35403">
        <ele>23</ele>
        <time>2018-09-14T15:37:21Z</time>
      </trkpt>
      <trkpt lat="47.53703" lon="-1.35423">
        <ele>23</ele>
        <time>2018-09-14T15:37:28Z</time>
      </trkpt>
      <trkpt lat="47.53689" lon="-1.35433">
        <ele>22</ele>
        <time>2018-09-14T15:37:31Z</time>
      </trkpt>
      <trkpt lat="47.5367" lon="-1.35447">
        <ele>22</ele>
        <time>2018-09-14T15:37:35Z</time>
      </trkpt>
      <trkpt lat="47.53637" lon="-1.35467">
        <ele>21</ele>
        <time>2018-09-14T15:37:42Z</time>
      </trkpt>
      <trkpt lat="47.53614" lon="-1.35478">
        <ele>21</ele>
        <time>2018-09-14T15:37:47Z</time>
      </trkpt>
      <trkpt lat="47.5361" lon="-1.35486">
        <ele>21</ele>
        <time>2018-09-14T15:37:49Z</time>
      </trkpt>
      <trkpt lat="47.53611" lon="-1.355">
        <ele>20</ele>
        <time>2018-09-14T15:37:52Z</time>
      </trkpt>
      <trkpt lat="47.53613" lon="-1.3551">
        <ele>20</ele>
        <time>2018-09-14T15:37:54Z</time>
      </trkpt>
      <trkpt lat="47.53617" lon="-1.35526">
        <ele>20</ele>
        <time>2018-09-14T15:37:57Z</time>
      </trkpt>
      <trkpt lat="47.53624" lon="-1.35557">
        <ele>21</ele>
        <time>2018-09-14T15:38:03Z</time>
      </trkpt>
      <trkpt lat="47.53634" lon="-1.35596">
        <ele>22</ele>
        <time>2018-09-14T15:38:10Z</time>
      </trkpt>
      <trkpt lat="47.53636" lon="-1.35602">
        <ele>22</ele>
        <time>2018-09-14T15:38:11Z</time>
      </trkpt>
      <trkpt lat="47.53644" lon="-1.35633">
        <ele>22</ele>
        <time>2018-09-14T15:38:16Z</time>
      </trkpt>
      <trkpt lat="47.53654" lon="-1.35681">
        <ele>23</ele>
        <time>2018-09-14T15:38:24Z</time>
      </trkpt>
      <trkpt lat="47.53664" lon="-1.35719">
        <ele>23</ele>
        <time>2018-09-14T15:38:30Z</time>
      </trkpt>
      <trkpt lat="47.53665" lon="-1.35725">
        <ele>23</ele>
        <time>2018-09-14T15:38:31Z</time>
      </trkpt>
      <trkpt lat="47.5367" lon="-1.35759">
        <ele>24</ele>
        <time>2018-09-14T15:38:37Z</time>
      </trkpt>
      <trkpt lat="47.53669" lon="-1.35787">
        <ele>24</ele>
        <time>2018-09-14T15:38:41Z</time>
      </trkpt>
      <trkpt lat="47.5367" lon="-1.35803">
        <ele>24</ele>
        <time>2018-09-14T15:38:43Z</time>
      </trkpt>
      <trkpt lat="47.53671" lon="-1.35843">
        <ele>24</ele>
        <time>2018-09-14T15:38:49Z</time>
      </trkpt>
      <trkpt lat="47.53675" lon="-1.3587">
        <ele>24</ele>
        <time>2018-09-14T15:38:53Z</time>
      </trkpt>
      <trkpt lat="47.53677" lon="-1.35882">
        <ele>24</ele>
        <time>2018-09-14T15:38:55Z</time>
      </trkpt>
      <trkpt lat="47.53685" lon="-1.35905">
        <ele>24</ele>
        <time>2018-09-14T15:38:59Z</time>
      </trkpt>
      <trkpt lat="47.53689" lon="-1.35917">
        <ele>24</ele>
        <time>2018-09-14T15:39:01Z</time>
      </trkpt>
      <trkpt lat="47.53708" lon="-1.35966">
        <ele>24</ele>
        <time>2018-09-14T15:39:09Z</time>
      </trkpt>
      <trkpt lat="47.53722" lon="-1.36002">
        <ele>24</ele>
        <time>2018-09-14T15:39:16Z</time>
      </trkpt>
      <trkpt lat="47.53726" lon="-1.36005">
        <ele>24</ele>
        <time>2018-09-14T15:39:17Z</time>
      </trkpt>
      <trkpt lat="47.53731" lon="-1.36008">
        <ele>24</ele>
        <time>2018-09-14T15:39:19Z</time>
      </trkpt>
      <trkpt lat="47.53741" lon="-1.36005">
        <ele>24</ele>
        <time>2018-09-14T15:39:23Z</time>
      </trkpt>
      <trkpt lat="47.53747" lon="-1.35996">
        <ele>24</ele>
        <time>2018-09-14T15:39:25Z</time>
      </trkpt>
      <trkpt lat="47.5376" lon="-1.35979">
        <ele>24</ele>
        <time>2018-09-14T15:39:29Z</time>
      </trkpt>
      <trkpt lat="47.53783" lon="-1.35949">
        <ele>24</ele>
        <time>2018-09-14T15:39:35Z</time>
      </trkpt>
      <trkpt lat="47.53818" lon="-1.35905">
        <ele>24</ele>
        <time>2018-09-14T15:39:43Z</time>
      </trkpt>
      <trkpt lat="47.5386" lon="-1.35861">
        <ele>24</ele>
        <time>2018-09-14T15:39:51Z</time>
      </trkpt>
      <trkpt lat="47.53907" lon="-1.35813">
        <ele>24</ele>
        <time>2018-09-14T15:40:00Z</time>
      </trkpt>
      <trkpt lat="47.53912" lon="-1.35808">
        <ele>24</ele>
        <time>2018-09-14T15:40:01Z</time>
      </trkpt>
      <trkpt lat="47.53935" lon="-1.35784">
        <ele>24</ele>
        <time>2018-09-14T15:40:07Z</time>
      </trkpt>
      <trkpt lat="47.53942" lon="-1.35798">
        <ele>24</ele>
        <time>2018-09-14T15:40:10Z</time>
      </trkpt>
      <trkpt lat="47.53945" lon="-1.35821">
        <ele>23</ele>
        <time>2018-09-14T15:40:13Z</time>
      </trkpt>
      <trkpt lat="47.53946" lon="-1.35829">
        <ele>23</ele>
        <time>2018-09-14T15:40:14Z</time>
      </trkpt>
      <trkpt lat="47.53952" lon="-1.35895">
        <ele>23</ele>
        <time>2018-09-14T15:40:21Z</time>
      </trkpt>
      <trkpt lat="47.53961" lon="-1.35977">
        <ele>22</ele>
        <time>2018-09-14T15:40:29Z</time>
      </trkpt>
      <trkpt lat="47.53962" lon="-1.35988">
        <ele>22</ele>
        <time>2018-09-14T15:40:30Z</time>
      </trkpt>
      <trkpt lat="47.53973" lon="-1.36073">
        <ele>21</ele>
        <time>2018-09-14T15:40:38Z</time>
      </trkpt>
      <trkpt lat="47.53974" lon="-1.36083">
        <ele>21</ele>
        <time>2018-09-14T15:40:39Z</time>
      </trkpt>
      <trkpt lat="47.53976" lon="-1.36103">
        <ele>21</ele>
        <time>2018-09-14T15:40:41Z</time>
      </trkpt>
      <trkpt lat="47.53977" lon="-1.36141">
        <ele>20</ele>
        <time>2018-09-14T15:40:45Z</time>
      </trkpt>
      <trkpt lat="47.53974" lon="-1.3616">
        <ele>20</ele>
        <time>2018-09-14T15:40:47Z</time>
      </trkpt>
      <trkpt lat="47.53968" lon="-1.36188">
        <ele>20</ele>
        <time>2018-09-14T15:40:50Z</time>
      </trkpt>
      <trkpt lat="47.53953" lon="-1.36252">
        <ele>20</ele>
        <time>2018-09-14T15:40:57Z</time>
      </trkpt>
      <trkpt lat="47.53943" lon="-1.3632">
        <ele>19</ele>
        <time>2018-09-14T15:41:04Z</time>
      </trkpt>
      <trkpt lat="47.53942" lon="-1.3634">
        <ele>19</ele>
        <time>2018-09-14T15:41:06Z</time>
      </trkpt>
      <trkpt lat="47.53946" lon="-1.36357">
        <ele>19</ele>
        <time>2018-09-14T15:41:08Z</time>
      </trkpt>
      <trkpt lat="47.5396" lon="-1.3637">
        <ele>19</ele>
        <time>2018-09-14T15:41:11Z</time>
      </trkpt>
      <trkpt lat="47.53966" lon="-1.36371">
        <ele>19</ele>
        <time>2018-09-14T15:41:12Z</time>
      </trkpt>
      <trkpt lat="47.53979" lon="-1.36372">
        <ele>18</ele>
        <time>2018-09-14T15:41:14Z</time>
      </trkpt>
      <trkpt lat="47.53985" lon="-1.36373">
        <ele>18</ele>
        <time>2018-09-14T15:41:15Z</time>
      </trkpt>
      <trkpt lat="47.54018" lon="-1.36378">
        <ele>18</ele>
        <time>2018-09-14T15:41:20Z</time>
      </trkpt>
      <trkpt lat="47.54024" lon="-1.36382">
        <ele>18</ele>
        <time>2018-09-14T15:41:21Z</time>
      </trkpt>
      <trkpt lat="47.54034" lon="-1.364">
        <ele>18</ele>
        <time>2018-09-14T15:41:24Z</time>
      </trkpt>
      <trkpt lat="47.54035" lon="-1.36425">
        <ele>17</ele>
        <time>2018-09-14T15:41:27Z</time>
      </trkpt>
      <trkpt lat="47.54034" lon="-1.36435">
        <ele>17</ele>
        <time>2018-09-14T15:41:28Z</time>
      </trkpt>
      <trkpt lat="47.54033" lon="-1.36444">
        <ele>17</ele>
        <time>2018-09-14T15:41:29Z</time>
      </trkpt>
      <trkpt lat="47.5403" lon="-1.36473">
        <ele>17</ele>
        <time>2018-09-14T15:41:32Z</time>
      </trkpt>
      <trkpt lat="47.54026" lon="-1.36522">
        <ele>17</ele>
        <time>2018-09-14T15:41:37Z</time>
      </trkpt>
      <trkpt lat="47.54027" lon="-1.36551">
        <ele>16</ele>
        <time>2018-09-14T15:41:40Z</time>
      </trkpt>
      <trkpt lat="47.54029" lon="-1.36561">
        <ele>16</ele>
        <time>2018-09-14T15:41:41Z</time>
      </trkpt>
      <trkpt lat="47.54037" lon="-1.36591">
        <ele>16</ele>
        <time>2018-09-14T15:41:44Z</time>
      </trkpt>
      <trkpt lat="47.54055" lon="-1.36638">
        <ele>16</ele>
        <time>2018-09-14T15:41:49Z</time>
      </trkpt>
      <trkpt lat="47.54059" lon="-1.36647">
        <ele>15</ele>
        <time>2018-09-14T15:41:50Z</time>
      </trkpt>
      <trkpt lat="47.54073" lon="-1.36686">
        <ele>14</ele>
        <time>2018-09-14T15:41:54Z</time>
      </trkpt>
      <trkpt lat="47.54084" lon="-1.3671">
        <ele>14</ele>
        <time>2018-09-14T15:41:57Z</time>
      </trkpt>
      <trkpt lat="47.54099" lon="-1.3673">
        <ele>13</ele>
        <time>2018-09-14T15:42:00Z</time>
      </trkpt>
      <trkpt lat="47.5411" lon="-1.36744">
        <ele>13</ele>
        <time>2018-09-14T15:42:02Z</time>
      </trkpt>
      <trkpt lat="47.54121" lon="-1.36758">
        <ele>12</ele>
        <time>2018-09-14T15:42:04Z</time>
      </trkpt>
      <trkpt lat="47.54155" lon="-1.36799">
        <ele>11</ele>
        <time>2018-09-14T15:42:10Z</time>
      </trkpt>
      <trkpt lat="47.54191" lon="-1.3683">
        <ele>11</ele>
        <time>2018-09-14T15:42:16Z</time>
      </trkpt>
      <trkpt lat="47.54233" lon="-1.36857">
        <ele>11</ele>
        <time>2018-09-14T15:42:23Z</time>
      </trkpt>
      <trkpt lat="47.54256" lon="-1.36881">
        <ele>12</ele>
        <time>2018-09-14T15:42:28Z</time>
      </trkpt>
      <trkpt lat="47.54265" lon="-1.36891">
        <ele>13</ele>
        <time>2018-09-14T15:42:30Z</time>
      </trkpt>
      <trkpt lat="47.54282" lon="-1.36914">
        <ele>13</ele>
        <time>2018-09-14T15:42:34Z</time>
      </trkpt>
      <trkpt lat="47.54309" lon="-1.3695">
        <ele>14</ele>
        <time>2018-09-14T15:42:40Z</time>
      </trkpt>
      <trkpt lat="47.54344" lon="-1.36986">
        <ele>14</ele>
        <time>2018-09-14T15:42:47Z</time>
      </trkpt>
      <trkpt lat="47.54396" lon="-1.3702">
        <ele>14</ele>
        <time>2018-09-14T15:42:56Z</time>
      </trkpt>
      <trkpt lat="47.54436" lon="-1.37046">
        <ele>14</ele>
        <time>2018-09-14T15:43:03Z</time>
      </trkpt>
      <trkpt lat="47.54453" lon="-1.37058">
        <ele>15</ele>
        <time>2018-09-14T15:43:06Z</time>
      </trkpt>
      <trkpt lat="47.5449" lon="-1.37085">
        <ele>15</ele>
        <time>2018-09-14T15:43:13Z</time>
      </trkpt>
      <trkpt lat="47.54508" lon="-1.3711">
        <ele>14</ele>
        <time>2018-09-14T15:43:18Z</time>
      </trkpt>
      <trkpt lat="47.54509" lon="-1.37118">
        <ele>14</ele>
        <time>2018-09-14T15:43:19Z</time>
      </trkpt>
      <trkpt lat="47.54502" lon="-1.37136">
        <ele>14</ele>
        <time>2018-09-14T15:43:22Z</time>
      </trkpt>
      <trkpt lat="47.54494" lon="-1.37147">
        <ele>13</ele>
        <time>2018-09-14T15:43:24Z</time>
      </trkpt>
      <trkpt lat="47.54485" lon="-1.37156">
        <ele>13</ele>
        <time>2018-09-14T15:43:26Z</time>
      </trkpt>
      <trkpt lat="47.5448" lon="-1.37161">
        <ele>13</ele>
        <time>2018-09-14T15:43:27Z</time>
      </trkpt>
      <trkpt lat="47.54448" lon="-1.37202">
        <ele>12</ele>
        <time>2018-09-14T15:43:34Z</time>
      </trkpt>
      <trkpt lat="47.54438" lon="-1.37215">
        <ele>12</ele>
        <time>2018-09-14T15:43:36Z</time>
      </trkpt>
      <trkpt lat="47.54416" lon="-1.37249">
        <ele>12</ele>
        <time>2018-09-14T15:43:41Z</time>
      </trkpt>
      <trkpt lat="47.54408" lon="-1.37265">
        <ele>11</ele>
        <time>2018-09-14T15:43:43Z</time>
      </trkpt>
      <trkpt lat="47.54392" lon="-1.37298">
        <ele>10</ele>
        <time>2018-09-14T15:43:47Z</time>
      </trkpt>
      <trkpt lat="47.54388" lon="-1.37307">
        <ele>10</ele>
        <time>2018-09-14T15:43:48Z</time>
      </trkpt>
      <trkpt lat="47.54376" lon="-1.37342">
        <ele>9</ele>
        <time>2018-09-14T15:43:52Z</time>
      </trkpt>
      <trkpt lat="47.54372" lon="-1.3736">
        <ele>8</ele>
        <time>2018-09-14T15:43:54Z</time>
      </trkpt>
      <trkpt lat="47.54364" lon="-1.3741">
        <ele>8</ele>
        <time>2018-09-14T15:43:59Z</time>
      </trkpt>
      <trkpt lat="47.5436" lon="-1.37419">
        <ele>8</ele>
        <time>2018-09-14T15:44:00Z</time>
      </trkpt>
      <trkpt lat="47.54356" lon="-1.37427">
        <ele>8</ele>
        <time>2018-09-14T15:44:01Z</time>
      </trkpt>
      <trkpt lat="47.54347" lon="-1.37442">
        <ele>8</ele>
        <time>2018-09-14T15:44:03Z</time>
      </trkpt>
      <trkpt lat="47.54342" lon="-1.3745">
        <ele>8</ele>
        <time>2018-09-14T15:44:04Z</time>
      </trkpt>
      <trkpt lat="47.54312" lon="-1.37504">
        <ele>7</ele>
        <time>2018-09-14T15:44:11Z</time>
      </trkpt>
      <trkpt lat="47.54283" lon="-1.37557">
        <ele>8</ele>
        <time>2018-09-14T15:44:18Z</time>
      </trkpt>
      <trkpt lat="47.54252" lon="-1.37616">
        <ele>9</ele>
        <time>2018-09-14T15:44:26Z</time>
      </trkpt>
      <trkpt lat="47.5424" lon="-1.37639">
        <ele>9</ele>
        <time>2018-09-14T15:44:29Z</time>
      </trkpt>
      <trkpt lat="47.54209" lon="-1.37697">
        <ele>9</ele>
        <time>2018-09-14T15:44:37Z</time>
      </trkpt>
      <trkpt lat="47.54172" lon="-1.37765">
        <ele>10</ele>
        <time>2018-09-14T15:44:46Z</time>
      </trkpt>
      <trkpt lat="47.54168" lon="-1.37772">
        <ele>10</ele>
        <time>2018-09-14T15:44:47Z</time>
      </trkpt>
      <trkpt lat="47.5415" lon="-1.37808">
        <ele>10</ele>
        <time>2018-09-14T15:44:52Z</time>
      </trkpt>
      <trkpt lat="47.5413" lon="-1.37841">
        <ele>11</ele>
        <time>2018-09-14T15:44:57Z</time>
      </trkpt>
      <trkpt lat="47.5412" lon="-1.37861">
        <ele>11</ele>
        <time>2018-09-14T15:45:00Z</time>
      </trkpt>
      <trkpt lat="47.54095" lon="-1.37909">
        <ele>11</ele>
        <time>2018-09-14T15:45:07Z</time>
      </trkpt>
      <trkpt lat="47.54064" lon="-1.3797">
        <ele>11</ele>
        <time>2018-09-14T15:45:16Z</time>
      </trkpt>
      <trkpt lat="47.5403" lon="-1.38038">
        <ele>12</ele>
        <time>2018-09-14T15:45:26Z</time>
      </trkpt>
      <trkpt lat="47.54027" lon="-1.38045">
        <ele>12</ele>
        <time>2018-09-14T15:45:27Z</time>
      </trkpt>
      <trkpt lat="47.54021" lon="-1.38058">
        <ele>12</ele>
        <time>2018-09-14T15:45:29Z</time>
      </trkpt>
      <trkpt lat="47.53996" lon="-1.38101">
        <ele>13</ele>
        <time>2018-09-14T15:45:36Z</time>
      </trkpt>
      <trkpt lat="47.53966" lon="-1.38151">
        <ele>13</ele>
        <time>2018-09-14T15:45:44Z</time>
      </trkpt>
      <trkpt lat="47.53954" lon="-1.3817">
        <ele>13</ele>
        <time>2018-09-14T15:45:47Z</time>
      </trkpt>
      <trkpt lat="47.53939" lon="-1.38195">
        <ele>13</ele>
        <time>2018-09-14T15:45:51Z</time>
      </trkpt>
      <trkpt lat="47.53904" lon="-1.3826">
        <ele>13</ele>
        <time>2018-09-14T15:46:01Z</time>
      </trkpt>
      <trkpt lat="47.53901" lon="-1.38268">
        <ele>13</ele>
        <time>2018-09-14T15:46:02Z</time>
      </trkpt>
      <trkpt lat="47.53893" lon="-1.383">
        <ele>14</ele>
        <time>2018-09-14T15:46:06Z</time>
      </trkpt>
      <trkpt lat="47.53887" lon="-1.38332">
        <ele>14</ele>
        <time>2018-09-14T15:46:10Z</time>
      </trkpt>
      <trkpt lat="47.53882" lon="-1.38364">
        <ele>15</ele>
        <time>2018-09-14T15:46:14Z</time>
      </trkpt>
      <trkpt lat="47.53876" lon="-1.384">
        <ele>15</ele>
        <time>2018-09-14T15:46:19Z</time>
      </trkpt>
      <trkpt lat="47.53874" lon="-1.38412">
        <ele>15</ele>
        <time>2018-09-14T15:46:21Z</time>
      </trkpt>
      <trkpt lat="47.53868" lon="-1.38421">
        <ele>16</ele>
        <time>2018-09-14T15:46:23Z</time>
      </trkpt>
      <trkpt lat="47.53864" lon="-1.38422">
        <ele>16</ele>
        <time>2018-09-14T15:46:24Z</time>
      </trkpt>
      <trkpt lat="47.5385" lon="-1.38423">
        <ele>16</ele>
        <time>2018-09-14T15:46:27Z</time>
      </trkpt>
      <trkpt lat="47.53845" lon="-1.38424">
        <ele>16</ele>
        <time>2018-09-14T15:46:28Z</time>
      </trkpt>
      <trkpt lat="47.5384" lon="-1.38424">
        <ele>16</ele>
        <time>2018-09-14T15:46:29Z</time>
      </trkpt>
      <trkpt lat="47.53816" lon="-1.38425">
        <ele>16</ele>
        <time>2018-09-14T15:46:33Z</time>
      </trkpt>
      <trkpt lat="47.53799" lon="-1.38429">
        <ele>16</ele>
        <time>2018-09-14T15:46:36Z</time>
      </trkpt>
      <trkpt lat="47.53777" lon="-1.38437">
        <ele>17</ele>
        <time>2018-09-14T15:46:40Z</time>
      </trkpt>
      <trkpt lat="47.53737" lon="-1.38451">
        <ele>17</ele>
        <time>2018-09-14T15:46:48Z</time>
      </trkpt>
      <trkpt lat="47.53733" lon="-1.38448">
        <ele>17</ele>
        <time>2018-09-14T15:46:50Z</time>
      </trkpt>
      <trkpt lat="47.53732" lon="-1.38444">
        <ele>17</ele>
        <time>2018-09-14T15:46:51Z</time>
      </trkpt>
      <trkpt lat="47.53731" lon="-1.38439">
        <ele>17</ele>
        <time>2018-09-14T15:46:52Z</time>
      </trkpt>
      <trkpt lat="47.53731" lon="-1.38426">
        <ele>17</ele>
        <time>2018-09-14T15:46:54Z</time>
      </trkpt>
      <trkpt lat="47.5373" lon="-1.38419">
        <ele>17</ele>
        <time>2018-09-14T15:46:55Z</time>
      </trkpt>
      <trkpt lat="47.53727" lon="-1.38363">
        <ele>17</ele>
        <time>2018-09-14T15:47:02Z</time>
      </trkpt>
      <trkpt lat="47.5372" lon="-1.38278">
        <ele>16</ele>
        <time>2018-09-14T15:47:12Z</time>
      </trkpt>
      <trkpt lat="47.53714" lon="-1.38208">
        <ele>15</ele>
        <time>2018-09-14T15:47:20Z</time>
      </trkpt>
      <trkpt lat="47.53711" lon="-1.38181">
        <ele>15</ele>
        <time>2018-09-14T15:47:23Z</time>
      </trkpt>
      <trkpt lat="47.53709" lon="-1.38155">
        <ele>14</ele>
        <time>2018-09-14T15:47:26Z</time>
      </trkpt>
      <trkpt lat="47.53703" lon="-1.38083">
        <ele>13</ele>
        <time>2018-09-14T15:47:35Z</time>
      </trkpt>
      <trkpt lat="47.53701" lon="-1.38078">
        <ele>13</ele>
        <time>2018-09-14T15:47:36Z</time>
      </trkpt>
      <trkpt lat="47.53697" lon="-1.38075">
        <ele>13</ele>
        <time>2018-09-14T15:47:37Z</time>
      </trkpt>
      <trkpt lat="47.53694" lon="-1.38074">
        <ele>12</ele>
        <time>2018-09-14T15:47:38Z</time>
      </trkpt>
      <trkpt lat="47.53676" lon="-1.38081">
        <ele>12</ele>
        <time>2018-09-14T15:47:42Z</time>
      </trkpt>
      <trkpt lat="47.53635" lon="-1.38096">
        <ele>12</ele>
        <time>2018-09-14T15:47:49Z</time>
      </trkpt>
      <trkpt lat="47.53588" lon="-1.38112">
        <ele>11</ele>
        <time>2018-09-14T15:47:57Z</time>
      </trkpt>
      <trkpt lat="47.53572" lon="-1.38119">
        <ele>12</ele>
        <time>2018-09-14T15:48:00Z</time>
      </trkpt>
      <trkpt lat="47.53551" lon="-1.38127">
        <ele>13</ele>
        <time>2018-09-14T15:48:04Z</time>
      </trkpt>
      <trkpt lat="47.53541" lon="-1.3813">
        <ele>13</ele>
        <time>2018-09-14T15:48:06Z</time>
      </trkpt>
      <trkpt lat="47.53503" lon="-1.38142">
        <ele>13</ele>
        <time>2018-09-14T15:48:13Z</time>
      </trkpt>
      <trkpt lat="47.53477" lon="-1.38151">
        <ele>14</ele>
        <time>2018-09-14T15:48:18Z</time>
      </trkpt>
      <trkpt lat="47.53467" lon="-1.38156">
        <ele>13</ele>
        <time>2018-09-14T15:48:20Z</time>
      </trkpt>
      <trkpt lat="47.53437" lon="-1.38165">
        <ele>13</ele>
        <time>2018-09-14T15:48:26Z</time>
      </trkpt>
      <trkpt lat="47.53412" lon="-1.38171">
        <ele>12</ele>
        <time>2018-09-14T15:48:31Z</time>
      </trkpt>
      <trkpt lat="47.53402" lon="-1.38173">
        <ele>11</ele>
        <time>2018-09-14T15:48:33Z</time>
      </trkpt>
      <trkpt lat="47.53384" lon="-1.38178">
        <ele>10</ele>
        <time>2018-09-14T15:48:36Z</time>
      </trkpt>
      <trkpt lat="47.53359" lon="-1.38183">
        <ele>10</ele>
        <time>2018-09-14T15:48:40Z</time>
      </trkpt>
      <trkpt lat="47.53353" lon="-1.38185">
        <ele>9</ele>
        <time>2018-09-14T15:48:41Z</time>
      </trkpt>
      <trkpt lat="47.53328" lon="-1.38193">
        <ele>8</ele>
        <time>2018-09-14T15:48:45Z</time>
      </trkpt>
      <trkpt lat="47.53311" lon="-1.38198">
        <ele>8</ele>
        <time>2018-09-14T15:48:48Z</time>
      </trkpt>
      <trkpt lat="47.53256" lon="-1.38215">
        <ele>8</ele>
        <time>2018-09-14T15:48:58Z</time>
      </trkpt>
      <trkpt lat="47.5323" lon="-1.38223">
        <ele>9</ele>
        <time>2018-09-14T15:49:04Z</time>
      </trkpt>
      <trkpt lat="47.53225" lon="-1.38236">
        <ele>10</ele>
        <time>2018-09-14T15:49:07Z</time>
      </trkpt>
      <trkpt lat="47.53226" lon="-1.38248">
        <ele>10</ele>
        <time>2018-09-14T15:49:09Z</time>
      </trkpt>
      <trkpt lat="47.53229" lon="-1.38277">
        <ele>10</ele>
        <time>2018-09-14T15:49:13Z</time>
      </trkpt>
      <trkpt lat="47.5323" lon="-1.38292">
        <ele>10</ele>
        <time>2018-09-14T15:49:15Z</time>
      </trkpt>
      <trkpt lat="47.53231" lon="-1.38345">
        <ele>11</ele>
        <time>2018-09-14T15:49:22Z</time>
      </trkpt>
      <trkpt lat="47.53231" lon="-1.38352">
        <ele>12</ele>
        <time>2018-09-14T15:49:23Z</time>
      </trkpt>
      <trkpt lat="47.53231" lon="-1.38381">
        <ele>13</ele>
        <time>2018-09-14T15:49:27Z</time>
      </trkpt>
      <trkpt lat="47.53231" lon="-1.38402">
        <ele>13</ele>
        <time>2018-09-14T15:49:30Z</time>
      </trkpt>
      <trkpt lat="47.53231" lon="-1.38417">
        <ele>14</ele>
        <time>2018-09-14T15:49:32Z</time>
      </trkpt>
      <trkpt lat="47.5323" lon="-1.38456">
        <ele>15</ele>
        <time>2018-09-14T15:49:37Z</time>
      </trkpt>
      <trkpt lat="47.53229" lon="-1.38465">
        <ele>15</ele>
        <time>2018-09-14T15:49:38Z</time>
      </trkpt>
      <trkpt lat="47.53229" lon="-1.38537">
        <ele>15</ele>
        <time>2018-09-14T15:49:47Z</time>
      </trkpt>
      <trkpt lat="47.5323" lon="-1.38597">
        <ele>16</ele>
        <time>2018-09-14T15:49:55Z</time>
      </trkpt>
      <trkpt lat="47.53231" lon="-1.3861">
        <ele>16</ele>
        <time>2018-09-14T15:49:57Z</time>
      </trkpt>
      <trkpt lat="47.5323" lon="-1.38615">
        <ele>16</ele>
        <time>2018-09-14T15:49:58Z</time>
      </trkpt>
      <trkpt lat="47.53226" lon="-1.38621">
        <ele>16</ele>
        <time>2018-09-14T15:50:00Z</time>
      </trkpt>
      <trkpt lat="47.53212" lon="-1.38622">
        <ele>15</ele>
        <time>2018-09-14T15:50:04Z</time>
      </trkpt>
      <trkpt lat="47.53207" lon="-1.38622">
        <ele>15</ele>
        <time>2018-09-14T15:50:05Z</time>
      </trkpt>
      <trkpt lat="47.53181" lon="-1.38612">
        <ele>16</ele>
        <time>2018-09-14T15:50:11Z</time>
      </trkpt>
      <trkpt lat="47.53137" lon="-1.38595">
        <ele>17</ele>
        <time>2018-09-14T15:50:20Z</time>
      </trkpt>
      <trkpt lat="47.53084" lon="-1.38576">
        <ele>18</ele>
        <time>2018-09-14T15:50:30Z</time>
      </trkpt>
      <trkpt lat="47.53079" lon="-1.38574">
        <ele>18</ele>
        <time>2018-09-14T15:50:31Z</time>
      </trkpt>
      <trkpt lat="47.5305" lon="-1.38563">
        <ele>19</ele>
        <time>2018-09-14T15:50:37Z</time>
      </trkpt>
      <trkpt lat="47.53031" lon="-1.38556">
        <ele>20</ele>
        <time>2018-09-14T15:50:41Z</time>
      </trkpt>
      <trkpt lat="47.53016" lon="-1.38551">
        <ele>20</ele>
        <time>2018-09-14T15:50:44Z</time>
      </trkpt>
      <trkpt lat="47.53" lon="-1.38543">
        <ele>21</ele>
        <time>2018-09-14T15:50:48Z</time>
      </trkpt>
      <trkpt lat="47.52996" lon="-1.38544">
        <ele>21</ele>
        <time>2018-09-14T15:50:49Z</time>
      </trkpt>
      <trkpt lat="47.52994" lon="-1.38546">
        <ele>21</ele>
        <time>2018-09-14T15:50:50Z</time>
      </trkpt>
      <trkpt lat="47.52993" lon="-1.38549">
        <ele>21</ele>
        <time>2018-09-14T15:50:51Z</time>
      </trkpt>
      <trkpt lat="47.52994" lon="-1.38562">
        <ele>21</ele>
        <time>2018-09-14T15:50:54Z</time>
      </trkpt>
      <trkpt lat="47.52994" lon="-1.38566">
        <ele>21</ele>
        <time>2018-09-14T15:50:55Z</time>
      </trkpt>
      <trkpt lat="47.52995" lon="-1.38596">
        <ele>22</ele>
        <time>2018-09-14T15:51:02Z</time>
      </trkpt>
      <trkpt lat="47.52989" lon="-1.38603">
        <ele>22</ele>
        <time>2018-09-14T15:51:06Z</time>
      </trkpt>
      <trkpt lat="47.52987" lon="-1.38605">
        <ele>22</ele>
        <time>2018-09-14T15:51:07Z</time>
      </trkpt>
      <trkpt lat="47.52975" lon="-1.38611">
        <ele>23</ele>
        <time>2018-09-14T15:51:11Z</time>
      </trkpt>
      <trkpt lat="47.52952" lon="-1.38626">
        <ele>23</ele>
        <time>2018-09-14T15:51:18Z</time>
      </trkpt>
      <trkpt lat="47.52919" lon="-1.3865">
        <ele>23</ele>
        <time>2018-09-14T15:51:26Z</time>
      </trkpt>
      <trkpt lat="47.52894" lon="-1.38679">
        <ele>21</ele>
        <time>2018-09-14T15:51:32Z</time>
      </trkpt>
      <trkpt lat="47.52878" lon="-1.387">
        <ele>20</ele>
        <time>2018-09-14T15:51:36Z</time>
      </trkpt>
      <trkpt lat="47.52869" lon="-1.38714">
        <ele>19</ele>
        <time>2018-09-14T15:51:39Z</time>
      </trkpt>
      <trkpt lat="47.52866" lon="-1.38718">
        <ele>19</ele>
        <time>2018-09-14T15:51:40Z</time>
      </trkpt>
      <trkpt lat="47.52865" lon="-1.38729">
        <ele>18</ele>
        <time>2018-09-14T15:51:42Z</time>
      </trkpt>
      <trkpt lat="47.52865" lon="-1.38734">
        <ele>18</ele>
        <time>2018-09-14T15:51:43Z</time>
      </trkpt>
      <trkpt lat="47.52867" lon="-1.38739">
        <ele>18</ele>
        <time>2018-09-14T15:51:44Z</time>
      </trkpt>
      <trkpt lat="47.52876" lon="-1.38763">
        <ele>17</ele>
        <time>2018-09-14T15:51:49Z</time>
      </trkpt>
      <trkpt lat="47.52878" lon="-1.38768">
        <ele>17</ele>
        <time>2018-09-14T15:51:50Z</time>
      </trkpt>
      <trkpt lat="47.52891" lon="-1.38797">
        <ele>16</ele>
        <time>2018-09-14T15:51:56Z</time>
      </trkpt>
      <trkpt lat="47.52908" lon="-1.38838">
        <ele>17</ele>
        <time>2018-09-14T15:52:03Z</time>
      </trkpt>
      <trkpt lat="47.52915" lon="-1.3886">
        <ele>17</ele>
        <time>2018-09-14T15:52:07Z</time>
      </trkpt>
      <trkpt lat="47.52921" lon="-1.38878">
        <ele>17</ele>
        <time>2018-09-14T15:52:10Z</time>
      </trkpt>
      <trkpt lat="47.52932" lon="-1.38923">
        <ele>17</ele>
        <time>2018-09-14T15:52:18Z</time>
      </trkpt>
      <trkpt lat="47.52934" lon="-1.38932">
        <ele>18</ele>
        <time>2018-09-14T15:52:20Z</time>
      </trkpt>
      <trkpt lat="47.52938" lon="-1.38951">
        <ele>19</ele>
        <time>2018-09-14T15:52:24Z</time>
      </trkpt>
      <trkpt lat="47.52939" lon="-1.38955">
        <ele>19</ele>
        <time>2018-09-14T15:52:25Z</time>
      </trkpt>
      <trkpt lat="47.52941" lon="-1.38984">
        <ele>20</ele>
        <time>2018-09-14T15:52:31Z</time>
      </trkpt>
      <trkpt lat="47.52944" lon="-1.39023">
        <ele>21</ele>
        <time>2018-09-14T15:52:39Z</time>
      </trkpt>
      <trkpt lat="47.52951" lon="-1.3906">
        <ele>22</ele>
        <time>2018-09-14T15:52:47Z</time>
      </trkpt>
      <trkpt lat="47.52951" lon="-1.39065">
        <ele>23</ele>
        <time>2018-09-14T15:52:48Z</time>
      </trkpt>
      <trkpt lat="47.52953" lon="-1.39101">
        <ele>24</ele>
        <time>2018-09-14T15:52:55Z</time>
      </trkpt>
      <trkpt lat="47.52953" lon="-1.39106">
        <ele>24</ele>
        <time>2018-09-14T15:52:56Z</time>
      </trkpt>
      <trkpt lat="47.52954" lon="-1.39134">
        <ele>25</ele>
        <time>2018-09-14T15:53:02Z</time>
      </trkpt>
      <trkpt lat="47.52954" lon="-1.39143">
        <ele>25</ele>
        <time>2018-09-14T15:53:04Z</time>
      </trkpt>
      <trkpt lat="47.52953" lon="-1.39164">
        <ele>25</ele>
        <time>2018-09-14T15:53:08Z</time>
      </trkpt>
      <trkpt lat="47.52951" lon="-1.39201">
        <ele>26</ele>
        <time>2018-09-14T15:53:15Z</time>
      </trkpt>
      <trkpt lat="47.52947" lon="-1.39229">
        <ele>26</ele>
        <time>2018-09-14T15:53:20Z</time>
      </trkpt>
      <trkpt lat="47.52946" lon="-1.39241">
        <ele>26</ele>
        <time>2018-09-14T15:53:22Z</time>
      </trkpt>
      <trkpt lat="47.52945" lon="-1.3928">
        <ele>26</ele>
        <time>2018-09-14T15:53:29Z</time>
      </trkpt>
      <trkpt lat="47.52942" lon="-1.39317">
        <ele>26</ele>
        <time>2018-09-14T15:53:36Z</time>
      </trkpt>
      <trkpt lat="47.52936" lon="-1.39356">
        <ele>25</ele>
        <time>2018-09-14T15:53:44Z</time>
      </trkpt>
      <trkpt lat="47.52933" lon="-1.39378">
        <ele>25</ele>
        <time>2018-09-14T15:53:49Z</time>
      </trkpt>
      <trkpt lat="47.52934" lon="-1.39381">
        <ele>25</ele>
        <time>2018-09-14T15:53:50Z</time>
      </trkpt>
      <trkpt lat="47.52941" lon="-1.39385">
        <ele>25</ele>
        <time>2018-09-14T15:53:53Z</time>
      </trkpt>
      <trkpt lat="47.52943" lon="-1.39385">
        <ele>25</ele>
        <time>2018-09-14T15:53:54Z</time>
      </trkpt>
      <trkpt lat="47.52948" lon="-1.39386">
        <ele>24</ele>
        <time>2018-09-14T15:53:56Z</time>
      </trkpt>
      <trkpt lat="47.52951" lon="-1.39389">
        <ele>24</ele>
        <time>2018-09-14T15:53:58Z</time>
      </trkpt>
      <trkpt lat="47.52967" lon="-1.39414">
        <ele>24</ele>
        <time>2018-09-14T15:54:04Z</time>
      </trkpt>
      <trkpt lat="47.52975" lon="-1.39434">
        <ele>24</ele>
        <time>2018-09-14T15:54:09Z</time>
      </trkpt>
      <trkpt lat="47.52988" lon="-1.39455">
        <ele>24</ele>
        <time>2018-09-14T15:54:16Z</time>
      </trkpt>
      <trkpt lat="47.53005" lon="-1.39477">
        <ele>25</ele>
        <time>2018-09-14T15:54:22Z</time>
      </trkpt>
      <trkpt lat="47.53021" lon="-1.395">
        <ele>25</ele>
        <time>2018-09-14T15:54:27Z</time>
      </trkpt>
      <trkpt lat="47.5304" lon="-1.39528">
        <ele>25</ele>
        <time>2018-09-14T15:54:33Z</time>
      </trkpt>
      <trkpt lat="47.53059" lon="-1.39554">
        <ele>25</ele>
        <time>2018-09-14T15:54:39Z</time>
      </trkpt>
      <trkpt lat="47.53063" lon="-1.39574">
        <ele>26</ele>
        <time>2018-09-14T15:54:43Z</time>
      </trkpt>
      <trkpt lat="47.53059" lon="-1.39588">
        <ele>26</ele>
        <time>2018-09-14T15:54:46Z</time>
      </trkpt>
      <trkpt lat="47.53056" lon="-1.39593">
        <ele>26</ele>
        <time>2018-09-14T15:54:47Z</time>
      </trkpt>
      <trkpt lat="47.53052" lon="-1.39598">
        <ele>26</ele>
        <time>2018-09-14T15:54:48Z</time>
      </trkpt>
      <trkpt lat="47.53033" lon="-1.39624">
        <ele>26</ele>
        <time>2018-09-14T15:54:54Z</time>
      </trkpt>
      <trkpt lat="47.5301" lon="-1.39655">
        <ele>26</ele>
        <time>2018-09-14T15:55:01Z</time>
      </trkpt>
      <trkpt lat="47.52992" lon="-1.39679">
        <ele>26</ele>
        <time>2018-09-14T15:55:07Z</time>
      </trkpt>
      <trkpt lat="47.52976" lon="-1.39707">
        <ele>27</ele>
        <time>2018-09-14T15:55:13Z</time>
      </trkpt>
      <trkpt lat="47.52967" lon="-1.39727">
        <ele>27</ele>
        <time>2018-09-14T15:55:34Z</time>
      </trkpt>
      <trkpt lat="47.52964" lon="-1.39733">
        <ele>27</ele>
        <time>2018-09-14T15:55:37Z</time>
      </trkpt>
      <trkpt lat="47.52963" lon="-1.39738">
        <ele>27</ele>
        <time>2018-09-14T15:55:39Z</time>
      </trkpt>
      <trkpt lat="47.52962" lon="-1.39741">
        <ele>27</ele>
        <time>2018-09-14T15:55:40Z</time>
      </trkpt>
      <trkpt lat="47.52959" lon="-1.39747">
        <ele>27</ele>
        <time>2018-09-14T15:55:43Z</time>
      </trkpt>
      <trkpt lat="47.52959" lon="-1.39751">
        <ele>27</ele>
        <time>2018-09-14T15:55:44Z</time>
      </trkpt>
      <trkpt lat="47.52955" lon="-1.39772">
        <ele>26</ele>
        <time>2018-09-14T15:55:48Z</time>
      </trkpt>
      <trkpt lat="47.52942" lon="-1.39817">
        <ele>26</ele>
        <time>2018-09-14T15:55:55Z</time>
      </trkpt>
      <trkpt lat="47.52927" lon="-1.39866">
        <ele>26</ele>
        <time>2018-09-14T15:56:01Z</time>
      </trkpt>
      <trkpt lat="47.52924" lon="-1.399">
        <ele>25</ele>
        <time>2018-09-14T15:56:04Z</time>
      </trkpt>
      <trkpt lat="47.52924" lon="-1.39912">
        <ele>24</ele>
        <time>2018-09-14T15:56:05Z</time>
      </trkpt>
      <trkpt lat="47.52928" lon="-1.39935">
        <ele>24</ele>
        <time>2018-09-14T15:56:07Z</time>
      </trkpt>
      <trkpt lat="47.52934" lon="-1.39956">
        <ele>23</ele>
        <time>2018-09-14T15:56:09Z</time>
      </trkpt>
      <trkpt lat="47.52938" lon="-1.39966">
        <ele>22</ele>
        <time>2018-09-14T15:56:10Z</time>
      </trkpt>
      <trkpt lat="47.52942" lon="-1.39975">
        <ele>22</ele>
        <time>2018-09-14T15:56:11Z</time>
      </trkpt>
      <trkpt lat="47.52954" lon="-1.40004">
        <ele>21</ele>
        <time>2018-09-14T15:56:14Z</time>
      </trkpt>
      <trkpt lat="47.52964" lon="-1.40036">
        <ele>20</ele>
        <time>2018-09-14T15:56:18Z</time>
      </trkpt>
      <trkpt lat="47.52975" lon="-1.40068">
        <ele>21</ele>
        <time>2018-09-14T15:56:24Z</time>
      </trkpt>
      <trkpt lat="47.52977" lon="-1.40073">
        <ele>21</ele>
        <time>2018-09-14T15:56:25Z</time>
      </trkpt>
      <trkpt lat="47.52984" lon="-1.40096">
        <ele>22</ele>
        <time>2018-09-14T15:56:30Z</time>
      </trkpt>
      <trkpt lat="47.53" lon="-1.40128">
        <ele>23</ele>
        <time>2018-09-14T15:56:37Z</time>
      </trkpt>
      <trkpt lat="47.53002" lon="-1.40131">
        <ele>23</ele>
        <time>2018-09-14T15:56:38Z</time>
      </trkpt>
      <trkpt lat="47.53016" lon="-1.40141">
        <ele>24</ele>
        <time>2018-09-14T15:56:43Z</time>
      </trkpt>
      <trkpt lat="47.53022" lon="-1.40143">
        <ele>24</ele>
        <time>2018-09-14T15:56:45Z</time>
      </trkpt>
      <trkpt lat="47.53035" lon="-1.40154">
        <ele>25</ele>
        <time>2018-09-14T15:56:50Z</time>
      </trkpt>
      <trkpt lat="47.53055" lon="-1.40165">
        <ele>25</ele>
        <time>2018-09-14T15:56:56Z</time>
      </trkpt>
      <trkpt lat="47.53058" lon="-1.40168">
        <ele>25</ele>
        <time>2018-09-14T15:56:57Z</time>
      </trkpt>
      <trkpt lat="47.53081" lon="-1.40183">
        <ele>26</ele>
        <time>2018-09-14T15:57:03Z</time>
      </trkpt>
      <trkpt lat="47.53105" lon="-1.40199">
        <ele>26</ele>
        <time>2018-09-14T15:57:10Z</time>
      </trkpt>
      <trkpt lat="47.53125" lon="-1.40216">
        <ele>26</ele>
        <time>2018-09-14T15:57:15Z</time>
      </trkpt>
      <trkpt lat="47.53131" lon="-1.40219">
        <ele>26</ele>
        <time>2018-09-14T15:57:16Z</time>
      </trkpt>
      <trkpt lat="47.53178" lon="-1.40251">
        <ele>26</ele>
        <time>2018-09-14T15:57:24Z</time>
      </trkpt>
      <trkpt lat="47.53195" lon="-1.4026">
        <ele>26</ele>
        <time>2018-09-14T15:57:28Z</time>
      </trkpt>
      <trkpt lat="47.53197" lon="-1.40264">
        <ele>26</ele>
        <time>2018-09-14T15:57:29Z</time>
      </trkpt>
      <trkpt lat="47.53201" lon="-1.40277">
        <ele>26</ele>
        <time>2018-09-14T15:57:34Z</time>
      </trkpt>
      <trkpt lat="47.532" lon="-1.40279">
        <ele>27</ele>
        <time>2018-09-14T15:57:35Z</time>
      </trkpt>
      <trkpt lat="47.53197" lon="-1.40293">
        <ele>27</ele>
        <time>2018-09-14T15:57:39Z</time>
      </trkpt>
      <trkpt lat="47.53191" lon="-1.40324">
        <ele>27</ele>
        <time>2018-09-14T15:57:44Z</time>
      </trkpt>
      <trkpt lat="47.53181" lon="-1.40369">
        <ele>26</ele>
        <time>2018-09-14T15:57:51Z</time>
      </trkpt>
      <trkpt lat="47.53174" lon="-1.40404">
        <ele>27</ele>
        <time>2018-09-14T15:57:57Z</time>
      </trkpt>
      <trkpt lat="47.53163" lon="-1.40461">
        <ele>26</ele>
        <time>2018-09-14T15:58:05Z</time>
      </trkpt>
      <trkpt lat="47.53154" lon="-1.40504">
        <ele>26</ele>
        <time>2018-09-14T15:58:12Z</time>
      </trkpt>
      <trkpt lat="47.53143" lon="-1.40547">
        <ele>26</ele>
        <time>2018-09-14T15:58:19Z</time>
      </trkpt>
      <trkpt lat="47.53139" lon="-1.40565">
        <ele>26</ele>
        <time>2018-09-14T15:58:22Z</time>
      </trkpt>
      <trkpt lat="47.53137" lon="-1.40577">
        <ele>26</ele>
        <time>2018-09-14T15:58:24Z</time>
      </trkpt>
      <trkpt lat="47.53129" lon="-1.40617">
        <ele>25</ele>
        <time>2018-09-14T15:58:31Z</time>
      </trkpt>
      <trkpt lat="47.53126" lon="-1.40623">
        <ele>25</ele>
        <time>2018-09-14T15:58:33Z</time>
      </trkpt>
      <trkpt lat="47.53124" lon="-1.40626">
        <ele>25</ele>
        <time>2018-09-14T15:58:35Z</time>
      </trkpt>
      <trkpt lat="47.53121" lon="-1.40635">
        <ele>25</ele>
        <time>2018-09-14T15:58:38Z</time>
      </trkpt>
      <trkpt lat="47.53122" lon="-1.40642">
        <ele>25</ele>
        <time>2018-09-14T15:58:40Z</time>
      </trkpt>
      <trkpt lat="47.53126" lon="-1.40676">
        <ele>25</ele>
        <time>2018-09-14T15:58:46Z</time>
      </trkpt>
      <trkpt lat="47.5313" lon="-1.40714">
        <ele>26</ele>
        <time>2018-09-14T15:58:52Z</time>
      </trkpt>
      <trkpt lat="47.53133" lon="-1.40751">
        <ele>26</ele>
        <time>2018-09-14T15:58:58Z</time>
      </trkpt>
      <trkpt lat="47.53138" lon="-1.40771">
        <ele>26</ele>
        <time>2018-09-14T15:59:03Z</time>
      </trkpt>
      <trkpt lat="47.53143" lon="-1.40779">
        <ele>27</ele>
        <time>2018-09-14T15:59:13Z</time>
      </trkpt>
      <trkpt lat="47.53144" lon="-1.40785">
        <ele>27</ele>
        <time>2018-09-14T15:59:15Z</time>
      </trkpt>
      <trkpt lat="47.53147" lon="-1.40813">
        <ele>27</ele>
        <time>2018-09-14T15:59:21Z</time>
      </trkpt>
      <trkpt lat="47.53153" lon="-1.40848">
        <ele>27</ele>
        <time>2018-09-14T15:59:27Z</time>
      </trkpt>
      <trkpt lat="47.53158" lon="-1.40879">
        <ele>28</ele>
        <time>2018-09-14T15:59:32Z</time>
      </trkpt>
      <trkpt lat="47.5316" lon="-1.4089">
        <ele>28</ele>
        <time>2018-09-14T15:59:34Z</time>
      </trkpt>
      <trkpt lat="47.53164" lon="-1.4091">
        <ele>29</ele>
        <time>2018-09-14T16:01:37Z</time>
      </trkpt>
      <trkpt lat="47.53169" lon="-1.4094">
        <ele>29</ele>
        <time>2018-09-14T16:01:44Z</time>
      </trkpt>
      <trkpt lat="47.53175" lon="-1.40975">
        <ele>30</ele>
        <time>2018-09-14T16:01:50Z</time>
      </trkpt>
      <trkpt lat="47.53175" lon="-1.40982">
        <ele>30</ele>
        <time>2018-09-14T16:01:51Z</time>
      </trkpt>
      <trkpt lat="47.5318" lon="-1.41028">
        <ele>31</ele>
        <time>2018-09-14T16:01:58Z</time>
      </trkpt>
      <trkpt lat="47.53184" lon="-1.41048">
        <ele>31</ele>
        <time>2018-09-14T16:02:01Z</time>
      </trkpt>
      <trkpt lat="47.53187" lon="-1.41069">
        <ele>31</ele>
        <time>2018-09-14T16:02:04Z</time>
      </trkpt>
      <trkpt lat="47.53191" lon="-1.41111">
        <ele>32</ele>
        <time>2018-09-14T16:02:10Z</time>
      </trkpt>
      <trkpt lat="47.53195" lon="-1.41142">
        <ele>32</ele>
        <time>2018-09-14T16:02:15Z</time>
      </trkpt>
      <trkpt lat="47.532" lon="-1.41174">
        <ele>33</ele>
        <time>2018-09-14T16:02:20Z</time>
      </trkpt>
      <trkpt lat="47.53203" lon="-1.41187">
        <ele>33</ele>
        <time>2018-09-14T16:02:22Z</time>
      </trkpt>
      <trkpt lat="47.53208" lon="-1.41216">
        <ele>34</ele>
        <time>2018-09-14T16:02:28Z</time>
      </trkpt>
      <trkpt lat="47.53206" lon="-1.41219">
        <ele>34</ele>
        <time>2018-09-14T16:02:31Z</time>
      </trkpt>
      <trkpt lat="47.53204" lon="-1.41221">
        <ele>34</ele>
        <time>2018-09-14T16:02:32Z</time>
      </trkpt>
      <trkpt lat="47.53194" lon="-1.41226">
        <ele>34</ele>
        <time>2018-09-14T16:02:37Z</time>
      </trkpt>
      <trkpt lat="47.53192" lon="-1.41228">
        <ele>34</ele>
        <time>2018-09-14T16:02:38Z</time>
      </trkpt>
      <trkpt lat="47.53183" lon="-1.41233">
        <ele>34</ele>
        <time>2018-09-14T16:02:42Z</time>
      </trkpt>
      <trkpt lat="47.53181" lon="-1.41233">
        <ele>34</ele>
        <time>2018-09-14T16:02:43Z</time>
      </trkpt>
      <trkpt lat="47.53167" lon="-1.41221">
        <ele>34</ele>
        <time>2018-09-14T16:02:56Z</time>
      </trkpt>
      <trkpt lat="47.53165" lon="-1.41222">
        <ele>34</ele>
        <time>2018-09-14T16:02:57Z</time>
      </trkpt>
      <trkpt lat="47.53154" lon="-1.41236">
        <ele>34</ele>
        <time>2018-09-14T16:03:03Z</time>
      </trkpt>
      <trkpt lat="47.53139" lon="-1.41252">
        <ele>33</ele>
        <time>2018-09-14T16:03:17Z</time>
      </trkpt>
      <trkpt lat="47.5313" lon="-1.41266">
        <ele>32</ele>
        <time>2018-09-14T16:03:23Z</time>
      </trkpt>
      <trkpt lat="47.53122" lon="-1.41267">
        <ele>32</ele>
        <time>2018-09-14T16:03:28Z</time>
      </trkpt>
      <trkpt lat="47.53117" lon="-1.4127">
        <ele>32</ele>
        <time>2018-09-14T16:03:30Z</time>
      </trkpt>
      <trkpt lat="47.53108" lon="-1.41277">
        <ele>31</ele>
        <time>2018-09-14T16:03:41Z</time>
      </trkpt>
      <trkpt lat="47.53104" lon="-1.41277">
        <ele>31</ele>
        <time>2018-09-14T16:03:43Z</time>
      </trkpt>
      <trkpt lat="47.53096" lon="-1.41272">
        <ele>30</ele>
        <time>2018-09-14T16:03:46Z</time>
      </trkpt>
      <trkpt lat="47.53094" lon="-1.41271">
        <ele>30</ele>
        <time>2018-09-14T16:03:47Z</time>
      </trkpt>
      <trkpt lat="47.53089" lon="-1.41268">
        <ele>30</ele>
        <time>2018-09-14T16:03:49Z</time>
      </trkpt>
      <trkpt lat="47.53076" lon="-1.41263">
        <ele>30</ele>
        <time>2018-09-14T16:03:56Z</time>
      </trkpt>
      <trkpt lat="47.53075" lon="-1.41264">
        <ele>30</ele>
        <time>2018-09-14T16:03:57Z</time>
      </trkpt>
      <trkpt lat="47.53068" lon="-1.41271">
        <ele>29</ele>
        <time>2018-09-14T16:04:03Z</time>
      </trkpt>
      <trkpt lat="47.53067" lon="-1.41272">
        <ele>29</ele>
        <time>2018-09-14T16:04:04Z</time>
      </trkpt>
      <trkpt lat="47.53064" lon="-1.41281">
        <ele>29</ele>
        <time>2018-09-14T16:04:13Z</time>
      </trkpt>
      <trkpt lat="47.53061" lon="-1.41283">
        <ele>29</ele>
        <time>2018-09-14T16:04:15Z</time>
      </trkpt>
      <trkpt lat="47.53053" lon="-1.41293">
        <ele>28</ele>
        <time>2018-09-14T16:04:20Z</time>
      </trkpt>
      <trkpt lat="47.5305" lon="-1.41298">
        <ele>28</ele>
        <time>2018-09-14T16:04:22Z</time>
      </trkpt>
      <trkpt lat="47.53042" lon="-1.4131">
        <ele>27</ele>
        <time>2018-09-14T16:04:38Z</time>
      </trkpt>
      <trkpt lat="47.53041" lon="-1.41313">
        <ele>27</ele>
        <time>2018-09-14T16:04:39Z</time>
      </trkpt>
      <trkpt lat="47.53035" lon="-1.41337">
        <ele>26</ele>
        <time>2018-09-14T16:04:53Z</time>
      </trkpt>
      <trkpt lat="47.53034" lon="-1.41339">
        <ele>26</ele>
        <time>2018-09-14T16:04:54Z</time>
      </trkpt>
      <trkpt lat="47.53032" lon="-1.41342">
        <ele>26</ele>
        <time>2018-09-14T16:04:55Z</time>
      </trkpt>
      <trkpt lat="47.53024" lon="-1.41353">
        <ele>25</ele>
        <time>2018-09-14T16:05:00Z</time>
      </trkpt>
      <trkpt lat="47.53022" lon="-1.41357">
        <ele>25</ele>
        <time>2018-09-14T16:05:02Z</time>
      </trkpt>
      <trkpt lat="47.53022" lon="-1.41367">
        <ele>24</ele>
        <time>2018-09-14T16:05:06Z</time>
      </trkpt>
      <trkpt lat="47.53026" lon="-1.4139">
        <ele>24</ele>
        <time>2018-09-14T16:05:11Z</time>
      </trkpt>
      <trkpt lat="47.53027" lon="-1.41394">
        <ele>24</ele>
        <time>2018-09-14T16:05:12Z</time>
      </trkpt>
      <trkpt lat="47.53029" lon="-1.41404">
        <ele>23</ele>
        <time>2018-09-14T16:05:17Z</time>
      </trkpt>
      <trkpt lat="47.53027" lon="-1.41404">
        <ele>23</ele>
        <time>2018-09-14T16:05:18Z</time>
      </trkpt>
      <trkpt lat="47.53015" lon="-1.41399">
        <ele>23</ele>
        <time>2018-09-14T16:05:22Z</time>
      </trkpt>
      <trkpt lat="47.53005" lon="-1.41395">
        <ele>23</ele>
        <time>2018-09-14T16:05:25Z</time>
      </trkpt>
      <trkpt lat="47.52993" lon="-1.41394">
        <ele>22</ele>
        <time>2018-09-14T16:05:28Z</time>
      </trkpt>
      <trkpt lat="47.52978" lon="-1.41396">
        <ele>21</ele>
        <time>2018-09-14T16:05:31Z</time>
      </trkpt>
      <trkpt lat="47.52974" lon="-1.41397">
        <ele>21</ele>
        <time>2018-09-14T16:05:32Z</time>
      </trkpt>
      <trkpt lat="47.5297" lon="-1.41398">
        <ele>21</ele>
        <time>2018-09-14T16:05:33Z</time>
      </trkpt>
      <trkpt lat="47.52961" lon="-1.41402">
        <ele>20</ele>
        <time>2018-09-14T16:05:35Z</time>
      </trkpt>
      <trkpt lat="47.52958" lon="-1.41404">
        <ele>20</ele>
        <time>2018-09-14T16:05:36Z</time>
      </trkpt>
      <trkpt lat="47.52951" lon="-1.41404">
        <ele>19</ele>
        <time>2018-09-14T16:05:38Z</time>
      </trkpt>
      <trkpt lat="47.5294" lon="-1.41404">
        <ele>18</ele>
        <time>2018-09-14T16:05:41Z</time>
      </trkpt>
      <trkpt lat="47.52936" lon="-1.41405">
        <ele>18</ele>
        <time>2018-09-14T16:05:42Z</time>
      </trkpt>
      <trkpt lat="47.52919" lon="-1.41408">
        <ele>17</ele>
        <time>2018-09-14T16:05:46Z</time>
      </trkpt>
      <trkpt lat="47.52914" lon="-1.41408">
        <ele>16</ele>
        <time>2018-09-14T16:05:47Z</time>
      </trkpt>
      <trkpt lat="47.52894" lon="-1.41413">
        <ele>15</ele>
        <time>2018-09-14T16:05:52Z</time>
      </trkpt>
      <trkpt lat="47.52892" lon="-1.41417">
        <ele>15</ele>
        <time>2018-09-14T16:05:53Z</time>
      </trkpt>
      <trkpt lat="47.52887" lon="-1.41431">
        <ele>15</ele>
        <time>2018-09-14T16:05:56Z</time>
      </trkpt>
      <trkpt lat="47.52879" lon="-1.41447">
        <ele>14</ele>
        <time>2018-09-14T16:06:00Z</time>
      </trkpt>
      <trkpt lat="47.52873" lon="-1.41455">
        <ele>14</ele>
        <time>2018-09-14T16:06:02Z</time>
      </trkpt>
      <trkpt lat="47.52862" lon="-1.41471">
        <ele>14</ele>
        <time>2018-09-14T16:06:07Z</time>
      </trkpt>
      <trkpt lat="47.52847" lon="-1.41483">
        <ele>13</ele>
        <time>2018-09-14T16:06:12Z</time>
      </trkpt>
      <trkpt lat="47.52843" lon="-1.41486">
        <ele>13</ele>
        <time>2018-09-14T16:06:13Z</time>
      </trkpt>
      <trkpt lat="47.52831" lon="-1.41499">
        <ele>13</ele>
        <time>2018-09-14T16:06:17Z</time>
      </trkpt>
      <trkpt lat="47.52807" lon="-1.41514">
        <ele>12</ele>
        <time>2018-09-14T16:06:23Z</time>
      </trkpt>
      <trkpt lat="47.52788" lon="-1.41517">
        <ele>11</ele>
        <time>2018-09-14T16:06:27Z</time>
      </trkpt>
      <trkpt lat="47.5278" lon="-1.4152">
        <ele>10</ele>
        <time>2018-09-14T16:06:29Z</time>
      </trkpt>
      <trkpt lat="47.52772" lon="-1.41523">
        <ele>10</ele>
        <time>2018-09-14T16:06:31Z</time>
      </trkpt>
      <trkpt lat="47.52759" lon="-1.41528">
        <ele>9</ele>
        <time>2018-09-14T16:06:34Z</time>
      </trkpt>
      <trkpt lat="47.5275" lon="-1.41531">
        <ele>8</ele>
        <time>2018-09-14T16:06:36Z</time>
      </trkpt>
      <trkpt lat="47.52745" lon="-1.41533">
        <ele>7</ele>
        <time>2018-09-14T16:06:37Z</time>
      </trkpt>
      <trkpt lat="47.52731" lon="-1.4154">
        <ele>6</ele>
        <time>2018-09-14T16:06:41Z</time>
      </trkpt>
      <trkpt lat="47.52716" lon="-1.41556">
        <ele>5</ele>
        <time>2018-09-14T16:06:45Z</time>
      </trkpt>
      <trkpt lat="47.52713" lon="-1.41559">
        <ele>5</ele>
        <time>2018-09-14T16:06:46Z</time>
      </trkpt>
      <trkpt lat="47.52707" lon="-1.41562">
        <ele>4</ele>
        <time>2018-09-14T16:06:48Z</time>
      </trkpt>
      <trkpt lat="47.52702" lon="-1.41561">
        <ele>4</ele>
        <time>2018-09-14T16:06:50Z</time>
      </trkpt>
      <trkpt lat="47.527" lon="-1.41561">
        <ele>4</ele>
        <time>2018-09-14T16:06:51Z</time>
      </trkpt>
      <trkpt lat="47.52686" lon="-1.41558">
        <ele>3</ele>
        <time>2018-09-14T16:06:58Z</time>
      </trkpt>
      <trkpt lat="47.52684" lon="-1.41554">
        <ele>3</ele>
        <time>2018-09-14T16:07:00Z</time>
      </trkpt>
      <trkpt lat="47.52676" lon="-1.4154">
        <ele>4</ele>
        <time>2018-09-14T16:19:27Z</time>
      </trkpt>
      <trkpt lat="47.52671" lon="-1.41518">
        <ele>4</ele>
        <time>2018-09-14T16:19:36Z</time>
      </trkpt>
      <trkpt lat="47.52671" lon="-1.4149">
        <ele>4</ele>
        <time>2018-09-14T16:19:44Z</time>
      </trkpt>
      <trkpt lat="47.52674" lon="-1.41455">
        <ele>4</ele>
        <time>2018-09-14T16:19:51Z</time>
      </trkpt>
      <trkpt lat="47.52676" lon="-1.41418">
        <ele>4</ele>
        <time>2018-09-14T16:19:57Z</time>
      </trkpt>
      <trkpt lat="47.52679" lon="-1.41375">
        <ele>4</ele>
        <time>2018-09-14T16:20:04Z</time>
      </trkpt>
      <trkpt lat="47.52681" lon="-1.41341">
        <ele>4</ele>
        <time>2018-09-14T16:20:10Z</time>
      </trkpt>
      <trkpt lat="47.52682" lon="-1.41306">
        <ele>4</ele>
        <time>2018-09-14T16:20:17Z</time>
      </trkpt>
      <trkpt lat="47.5268" lon="-1.41268">
        <ele>4</ele>
        <time>2018-09-14T16:20:23Z</time>
      </trkpt>
      <trkpt lat="47.52688" lon="-1.41242">
        <ele>3</ele>
        <time>2018-09-14T16:20:28Z</time>
      </trkpt>
      <trkpt lat="47.52683" lon="-1.41215">
        <ele>4</ele>
        <time>2018-09-14T16:20:33Z</time>
      </trkpt>
      <trkpt lat="47.52679" lon="-1.41191">
        <ele>4</ele>
        <time>2018-09-14T16:20:38Z</time>
      </trkpt>
      <trkpt lat="47.52677" lon="-1.41169">
        <ele>4</ele>
        <time>2018-09-14T16:20:42Z</time>
      </trkpt>
      <trkpt lat="47.52669" lon="-1.41143">
        <ele>4</ele>
        <time>2018-09-14T16:20:47Z</time>
      </trkpt>
      <trkpt lat="47.52659" lon="-1.41118">
        <ele>3</ele>
        <time>2018-09-14T16:20:53Z</time>
      </trkpt>
      <trkpt lat="47.52645" lon="-1.41095">
        <ele>4</ele>
        <time>2018-09-14T16:20:58Z</time>
      </trkpt>
      <trkpt lat="47.5264" lon="-1.41074">
        <ele>3</ele>
        <time>2018-09-14T16:21:02Z</time>
      </trkpt>
      <trkpt lat="47.5263" lon="-1.41035">
        <ele>4</ele>
        <time>2018-09-14T16:21:08Z</time>
      </trkpt>
      <trkpt lat="47.52623" lon="-1.40993">
        <ele>4</ele>
        <time>2018-09-14T16:21:15Z</time>
      </trkpt>
      <trkpt lat="47.52615" lon="-1.40977">
        <ele>4</ele>
        <time>2018-09-14T16:21:20Z</time>
      </trkpt>
      <trkpt lat="47.52609" lon="-1.40953">
        <ele>4</ele>
        <time>2018-09-14T16:21:26Z</time>
      </trkpt>
      <trkpt lat="47.5261" lon="-1.4092">
        <ele>4</ele>
        <time>2018-09-14T16:21:32Z</time>
      </trkpt>
      <trkpt lat="47.52611" lon="-1.40889">
        <ele>4</ele>
        <time>2018-09-14T16:21:38Z</time>
      </trkpt>
      <trkpt lat="47.52613" lon="-1.40874">
        <ele>4</ele>
        <time>2018-09-14T16:21:42Z</time>
      </trkpt>
      <trkpt lat="47.52611" lon="-1.40841">
        <ele>4</ele>
        <time>2018-09-14T16:21:48Z</time>
      </trkpt>
      <trkpt lat="47.52613" lon="-1.40825">
        <ele>4</ele>
        <time>2018-09-14T16:21:52Z</time>
      </trkpt>
      <trkpt lat="47.52612" lon="-1.40821">
        <ele>4</ele>
        <time>2018-09-14T16:21:53Z</time>
      </trkpt>
      <trkpt lat="47.52612" lon="-1.40804">
        <ele>4</ele>
        <time>2018-09-14T16:21:56Z</time>
      </trkpt>
      <trkpt lat="47.52621" lon="-1.40774">
        <ele>4</ele>
        <time>2018-09-14T16:22:01Z</time>
      </trkpt>
      <trkpt lat="47.52625" lon="-1.40755">
        <ele>4</ele>
        <time>2018-09-14T16:22:05Z</time>
      </trkpt>
      <trkpt lat="47.52626" lon="-1.40735">
        <ele>4</ele>
        <time>2018-09-14T16:22:10Z</time>
      </trkpt>
      <trkpt lat="47.52625" lon="-1.40717">
        <ele>4</ele>
        <time>2018-09-14T16:22:14Z</time>
      </trkpt>
      <trkpt lat="47.52625" lon="-1.40714">
        <ele>4</ele>
        <time>2018-09-14T16:22:15Z</time>
      </trkpt>
      <trkpt lat="47.52624" lon="-1.40706">
        <ele>4</ele>
        <time>2018-09-14T16:22:18Z</time>
      </trkpt>
      <trkpt lat="47.52622" lon="-1.40703">
        <ele>4</ele>
        <time>2018-09-14T16:22:19Z</time>
      </trkpt>
      <trkpt lat="47.52619" lon="-1.40696">
        <ele>5</ele>
        <time>2018-09-14T16:22:21Z</time>
      </trkpt>
      <trkpt lat="47.52612" lon="-1.40687">
        <ele>5</ele>
        <time>2018-09-14T16:22:24Z</time>
      </trkpt>
      <trkpt lat="47.52609" lon="-1.40684">
        <ele>5</ele>
        <time>2018-09-14T16:22:25Z</time>
      </trkpt>
      <trkpt lat="47.52591" lon="-1.40664">
        <ele>5</ele>
        <time>2018-09-14T16:22:30Z</time>
      </trkpt>
      <trkpt lat="47.52576" lon="-1.40646">
        <ele>4</ele>
        <time>2018-09-14T16:22:35Z</time>
      </trkpt>
      <trkpt lat="47.52567" lon="-1.4063">
        <ele>4</ele>
        <time>2018-09-14T16:22:39Z</time>
      </trkpt>
      <trkpt lat="47.52566" lon="-1.40606">
        <ele>4</ele>
        <time>2018-09-14T16:22:43Z</time>
      </trkpt>
      <trkpt lat="47.52576" lon="-1.40581">
        <ele>3</ele>
        <time>2018-09-14T16:22:48Z</time>
      </trkpt>
      <trkpt lat="47.5259" lon="-1.40558">
        <ele>3</ele>
        <time>2018-09-14T16:22:54Z</time>
      </trkpt>
      <trkpt lat="47.52591" lon="-1.40545">
        <ele>3</ele>
        <time>2018-09-14T16:22:58Z</time>
      </trkpt>
      <trkpt lat="47.52578" lon="-1.40547">
        <ele>3</ele>
        <time>2018-09-14T16:23:03Z</time>
      </trkpt>
      <trkpt lat="47.52575" lon="-1.40548">
        <ele>3</ele>
        <time>2018-09-14T16:23:04Z</time>
      </trkpt>
      <trkpt lat="47.52572" lon="-1.40549">
        <ele>3</ele>
        <time>2018-09-14T16:23:05Z</time>
      </trkpt>
      <trkpt lat="47.52556" lon="-1.40547">
        <ele>3</ele>
        <time>2018-09-14T16:23:10Z</time>
      </trkpt>
      <trkpt lat="47.52534" lon="-1.40536">
        <ele>4</ele>
        <time>2018-09-14T16:23:16Z</time>
      </trkpt>
      <trkpt lat="47.52523" lon="-1.40518">
        <ele>4</ele>
        <time>2018-09-14T16:23:21Z</time>
      </trkpt>
      <trkpt lat="47.52512" lon="-1.40487">
        <ele>4</ele>
        <time>2018-09-14T16:23:27Z</time>
      </trkpt>
      <trkpt lat="47.525" lon="-1.40451">
        <ele>4</ele>
        <time>2018-09-14T16:23:34Z</time>
      </trkpt>
      <trkpt lat="47.52496" lon="-1.40428">
        <ele>4</ele>
        <time>2018-09-14T16:23:39Z</time>
      </trkpt>
      <trkpt lat="47.52494" lon="-1.40406">
        <ele>3</ele>
        <time>2018-09-14T16:23:45Z</time>
      </trkpt>
      <trkpt lat="47.52489" lon="-1.40384">
        <ele>3</ele>
        <time>2018-09-14T16:23:51Z</time>
      </trkpt>
      <trkpt lat="47.52487" lon="-1.40355">
        <ele>3</ele>
        <time>2018-09-14T16:23:57Z</time>
      </trkpt>
      <trkpt lat="47.52488" lon="-1.4033">
        <ele>4</ele>
        <time>2018-09-14T16:24:02Z</time>
      </trkpt>
      <trkpt lat="47.52495" lon="-1.4031">
        <ele>4</ele>
        <time>2018-09-14T16:24:07Z</time>
      </trkpt>
      <trkpt lat="47.52512" lon="-1.40297">
        <ele>4</ele>
        <time>2018-09-14T16:24:13Z</time>
      </trkpt>
      <trkpt lat="47.52516" lon="-1.40289">
        <ele>4</ele>
        <time>2018-09-14T16:24:16Z</time>
      </trkpt>
      <trkpt lat="47.52516" lon="-1.40285">
        <ele>4</ele>
        <time>2018-09-14T16:24:17Z</time>
      </trkpt>
      <trkpt lat="47.52511" lon="-1.40279">
        <ele>4</ele>
        <time>2018-09-14T16:24:21Z</time>
      </trkpt>
      <trkpt lat="47.52501" lon="-1.40275">
        <ele>4</ele>
        <time>2018-09-14T16:24:25Z</time>
      </trkpt>
      <trkpt lat="47.52496" lon="-1.40271">
        <ele>4</ele>
        <time>2018-09-14T16:24:27Z</time>
      </trkpt>
      <trkpt lat="47.52485" lon="-1.40254">
        <ele>3</ele>
        <time>2018-09-14T16:24:32Z</time>
      </trkpt>
      <trkpt lat="47.52479" lon="-1.40227">
        <ele>4</ele>
        <time>2018-09-14T16:24:37Z</time>
      </trkpt>
      <trkpt lat="47.52471" lon="-1.40203">
        <ele>4</ele>
        <time>2018-09-14T16:24:42Z</time>
      </trkpt>
      <trkpt lat="47.5247" lon="-1.40194">
        <ele>4</ele>
        <time>2018-09-14T16:24:44Z</time>
      </trkpt>
      <trkpt lat="47.52468" lon="-1.40167">
        <ele>4</ele>
        <time>2018-09-14T16:24:50Z</time>
      </trkpt>
      <trkpt lat="47.52465" lon="-1.40146">
        <ele>4</ele>
        <time>2018-09-14T16:24:55Z</time>
      </trkpt>
      <trkpt lat="47.52464" lon="-1.40119">
        <ele>4</ele>
        <time>2018-09-14T16:25:00Z</time>
      </trkpt>
      <trkpt lat="47.5246" lon="-1.40089">
        <ele>3</ele>
        <time>2018-09-14T16:25:06Z</time>
      </trkpt>
      <trkpt lat="47.52456" lon="-1.40073">
        <ele>4</ele>
        <time>2018-09-14T16:25:11Z</time>
      </trkpt>
      <trkpt lat="47.52452" lon="-1.40051">
        <ele>3</ele>
        <time>2018-09-14T16:25:17Z</time>
      </trkpt>
      <trkpt lat="47.52444" lon="-1.40026">
        <ele>4</ele>
        <time>2018-09-14T16:25:22Z</time>
      </trkpt>
      <trkpt lat="47.52437" lon="-1.40013">
        <ele>4</ele>
        <time>2018-09-14T16:25:26Z</time>
      </trkpt>
      <trkpt lat="47.52423" lon="-1.39998">
        <ele>4</ele>
        <time>2018-09-14T16:25:31Z</time>
      </trkpt>
      <trkpt lat="47.52403" lon="-1.39984">
        <ele>4</ele>
        <time>2018-09-14T16:25:37Z</time>
      </trkpt>
      <trkpt lat="47.52386" lon="-1.39973">
        <ele>4</ele>
        <time>2018-09-14T16:25:42Z</time>
      </trkpt>
      <trkpt lat="47.52366" lon="-1.39954">
        <ele>4</ele>
        <time>2018-09-14T16:25:48Z</time>
      </trkpt>
      <trkpt lat="47.52355" lon="-1.3993">
        <ele>4</ele>
        <time>2018-09-14T16:25:53Z</time>
      </trkpt>
      <trkpt lat="47.52347" lon="-1.39901">
        <ele>4</ele>
        <time>2018-09-14T16:25:58Z</time>
      </trkpt>
      <trkpt lat="47.52348" lon="-1.3986">
        <ele>4</ele>
        <time>2018-09-14T16:26:04Z</time>
      </trkpt>
      <trkpt lat="47.52351" lon="-1.39815">
        <ele>4</ele>
        <time>2018-09-14T16:26:10Z</time>
      </trkpt>
      <trkpt lat="47.52355" lon="-1.39777">
        <ele>4</ele>
        <time>2018-09-14T16:26:16Z</time>
      </trkpt>
      <trkpt lat="47.52359" lon="-1.39728">
        <ele>4</ele>
        <time>2018-09-14T16:26:23Z</time>
      </trkpt>
      <trkpt lat="47.52365" lon="-1.39675">
        <ele>4</ele>
        <time>2018-09-14T16:26:31Z</time>
      </trkpt>
      <trkpt lat="47.52375" lon="-1.39634">
        <ele>4</ele>
        <time>2018-09-14T16:26:38Z</time>
      </trkpt>
      <trkpt lat="47.52377" lon="-1.39618">
        <ele>4</ele>
        <time>2018-09-14T16:26:42Z</time>
      </trkpt>
      <trkpt lat="47.52366" lon="-1.39613">
        <ele>5</ele>
        <time>2018-09-14T16:26:46Z</time>
      </trkpt>
      <trkpt lat="47.5235" lon="-1.3961">
        <ele>5</ele>
        <time>2018-09-14T16:26:50Z</time>
      </trkpt>
      <trkpt lat="47.52343" lon="-1.39608">
        <ele>5</ele>
        <time>2018-09-14T16:26:52Z</time>
      </trkpt>
      <trkpt lat="47.5233" lon="-1.39603">
        <ele>4</ele>
        <time>2018-09-14T16:26:57Z</time>
      </trkpt>
      <trkpt lat="47.52309" lon="-1.396">
        <ele>4</ele>
        <time>2018-09-14T16:27:03Z</time>
      </trkpt>
      <trkpt lat="47.52281" lon="-1.39601">
        <ele>4</ele>
        <time>2018-09-14T16:27:10Z</time>
      </trkpt>
      <trkpt lat="47.52256" lon="-1.3961">
        <ele>4</ele>
        <time>2018-09-14T16:27:17Z</time>
      </trkpt>
      <trkpt lat="47.52242" lon="-1.39614">
        <ele>4</ele>
        <time>2018-09-14T16:27:23Z</time>
      </trkpt>
      <trkpt lat="47.52231" lon="-1.39609">
        <ele>5</ele>
        <time>2018-09-14T16:27:40Z</time>
      </trkpt>
      <trkpt lat="47.52225" lon="-1.39606">
        <ele>5</ele>
        <time>2018-09-14T16:27:42Z</time>
      </trkpt>
      <trkpt lat="47.52217" lon="-1.39592">
        <ele>5</ele>
        <time>2018-09-14T16:27:45Z</time>
      </trkpt>
      <trkpt lat="47.52215" lon="-1.39586">
        <ele>5</ele>
        <time>2018-09-14T16:27:46Z</time>
      </trkpt>
      <trkpt lat="47.52203" lon="-1.39543">
        <ele>5</ele>
        <time>2018-09-14T16:27:53Z</time>
      </trkpt>
      <trkpt lat="47.52202" lon="-1.39537">
        <ele>5</ele>
        <time>2018-09-14T16:27:54Z</time>
      </trkpt>
      <trkpt lat="47.52202" lon="-1.39499">
        <ele>4</ele>
        <time>2018-09-14T16:28:00Z</time>
      </trkpt>
      <trkpt lat="47.52208" lon="-1.39477">
        <ele>4</ele>
        <time>2018-09-14T16:28:04Z</time>
      </trkpt>
      <trkpt lat="47.52212" lon="-1.39467">
        <ele>4</ele>
        <time>2018-09-14T16:28:06Z</time>
      </trkpt>
      <trkpt lat="47.5222" lon="-1.39454">
        <ele>5</ele>
        <time>2018-09-14T16:28:10Z</time>
      </trkpt>
      <trkpt lat="47.52224" lon="-1.39453">
        <ele>4</ele>
        <time>2018-09-14T16:28:11Z</time>
      </trkpt>
      <trkpt lat="47.52245" lon="-1.39443">
        <ele>4</ele>
        <time>2018-09-14T16:28:17Z</time>
      </trkpt>
      <trkpt lat="47.52254" lon="-1.39437">
        <ele>4</ele>
        <time>2018-09-14T16:28:20Z</time>
      </trkpt>
      <trkpt lat="47.52263" lon="-1.39428">
        <ele>4</ele>
        <time>2018-09-14T16:28:23Z</time>
      </trkpt>
      <trkpt lat="47.52286" lon="-1.39402">
        <ele>4</ele>
        <time>2018-09-14T16:28:30Z</time>
      </trkpt>
      <trkpt lat="47.52303" lon="-1.39377">
        <ele>4</ele>
        <time>2018-09-14T16:28:36Z</time>
      </trkpt>
      <trkpt lat="47.52312" lon="-1.39356">
        <ele>4</ele>
        <time>2018-09-14T16:28:41Z</time>
      </trkpt>
      <trkpt lat="47.52322" lon="-1.39333">
        <ele>4</ele>
        <time>2018-09-14T16:28:47Z</time>
      </trkpt>
      <trkpt lat="47.5233" lon="-1.39317">
        <ele>3</ele>
        <time>2018-09-14T16:28:52Z</time>
      </trkpt>
      <trkpt lat="47.52342" lon="-1.39319">
        <ele>3</ele>
        <time>2018-09-14T16:28:56Z</time>
      </trkpt>
      <trkpt lat="47.52349" lon="-1.39314">
        <ele>3</ele>
        <time>2018-09-14T16:28:59Z</time>
      </trkpt>
      <trkpt lat="47.5235" lon="-1.39311">
        <ele>3</ele>
        <time>2018-09-14T16:29:00Z</time>
      </trkpt>
      <trkpt lat="47.5236" lon="-1.39296">
        <ele>4</ele>
        <time>2018-09-14T16:29:05Z</time>
      </trkpt>
      <trkpt lat="47.5238" lon="-1.39277">
        <ele>4</ele>
        <time>2018-09-14T16:29:12Z</time>
      </trkpt>
      <trkpt lat="47.52393" lon="-1.39263">
        <ele>3</ele>
        <time>2018-09-14T16:29:17Z</time>
      </trkpt>
      <trkpt lat="47.52408" lon="-1.39248">
        <ele>4</ele>
        <time>2018-09-14T16:29:23Z</time>
      </trkpt>
      <trkpt lat="47.52428" lon="-1.3923">
        <ele>3</ele>
        <time>2018-09-14T16:29:29Z</time>
      </trkpt>
      <trkpt lat="47.52449" lon="-1.39213">
        <ele>3</ele>
        <time>2018-09-14T16:29:36Z</time>
      </trkpt>
      <trkpt lat="47.52462" lon="-1.39195">
        <ele>4</ele>
        <time>2018-09-14T16:29:41Z</time>
      </trkpt>
      <trkpt lat="47.52471" lon="-1.39173">
        <ele>4</ele>
        <time>2018-09-14T16:29:45Z</time>
      </trkpt>
      <trkpt lat="47.52472" lon="-1.39168">
        <ele>4</ele>
        <time>2018-09-14T16:29:46Z</time>
      </trkpt>
      <trkpt lat="47.52476" lon="-1.39153">
        <ele>4</ele>
        <time>2018-09-14T16:29:49Z</time>
      </trkpt>
      <trkpt lat="47.52477" lon="-1.39147">
        <ele>4</ele>
        <time>2018-09-14T16:29:50Z</time>
      </trkpt>
      <trkpt lat="47.52481" lon="-1.39121">
        <ele>4</ele>
        <time>2018-09-14T16:29:55Z</time>
      </trkpt>
      <trkpt lat="47.52487" lon="-1.39083">
        <ele>3</ele>
        <time>2018-09-14T16:30:02Z</time>
      </trkpt>
      <trkpt lat="47.52494" lon="-1.39041">
        <ele>4</ele>
        <time>2018-09-14T16:30:10Z</time>
      </trkpt>
      <trkpt lat="47.52499" lon="-1.39003">
        <ele>4</ele>
        <time>2018-09-14T16:30:17Z</time>
      </trkpt>
      <trkpt lat="47.52504" lon="-1.38963">
        <ele>4</ele>
        <time>2018-09-14T16:30:24Z</time>
      </trkpt>
      <trkpt lat="47.52506" lon="-1.38952">
        <ele>4</ele>
        <time>2018-09-14T16:30:26Z</time>
      </trkpt>
      <trkpt lat="47.52511" lon="-1.38924">
        <ele>4</ele>
        <time>2018-09-14T16:30:31Z</time>
      </trkpt>
      <trkpt lat="47.52517" lon="-1.38881">
        <ele>4</ele>
        <time>2018-09-14T16:30:38Z</time>
      </trkpt>
      <trkpt lat="47.52524" lon="-1.38841">
        <ele>4</ele>
        <time>2018-09-14T16:30:45Z</time>
      </trkpt>
      <trkpt lat="47.52533" lon="-1.38793">
        <ele>4</ele>
        <time>2018-09-14T16:30:53Z</time>
      </trkpt>
      <trkpt lat="47.52545" lon="-1.38757">
        <ele>4</ele>
        <time>2018-09-14T16:31:00Z</time>
      </trkpt>
      <trkpt lat="47.52562" lon="-1.38734">
        <ele>4</ele>
        <time>2018-09-14T16:31:06Z</time>
      </trkpt>
      <trkpt lat="47.52575" lon="-1.38712">
        <ele>4</ele>
        <time>2018-09-14T16:31:12Z</time>
      </trkpt>
      <trkpt lat="47.52586" lon="-1.38682">
        <ele>4</ele>
        <time>2018-09-14T16:31:18Z</time>
      </trkpt>
      <trkpt lat="47.52592" lon="-1.38641">
        <ele>4</ele>
        <time>2018-09-14T16:31:24Z</time>
      </trkpt>
      <trkpt lat="47.52586" lon="-1.38614">
        <ele>4</ele>
        <time>2018-09-14T16:31:29Z</time>
      </trkpt>
      <trkpt lat="47.52575" lon="-1.38607">
        <ele>4</ele>
        <time>2018-09-14T16:31:33Z</time>
      </trkpt>
      <trkpt lat="47.52573" lon="-1.38608">
        <ele>4</ele>
        <time>2018-09-14T16:31:34Z</time>
      </trkpt>
      <trkpt lat="47.52567" lon="-1.38607">
        <ele>7</ele>
        <time>2018-09-14T16:31:46Z</time>
      </trkpt>
      <trkpt lat="47.52549" lon="-1.38598">
        <ele>7</ele>
        <time>2018-09-14T16:31:52Z</time>
      </trkpt>
      <trkpt lat="47.52535" lon="-1.38593">
        <ele>8</ele>
        <time>2018-09-14T16:31:56Z</time>
      </trkpt>
      <trkpt lat="47.52519" lon="-1.38585">
        <ele>8</ele>
        <time>2018-09-14T16:32:01Z</time>
      </trkpt>
      <trkpt lat="47.52502" lon="-1.38573">
        <ele>9</ele>
        <time>2018-09-14T16:32:06Z</time>
      </trkpt>
      <trkpt lat="47.52495" lon="-1.38567">
        <ele>9</ele>
        <time>2018-09-14T16:32:08Z</time>
      </trkpt>
      <trkpt lat="47.52492" lon="-1.38562">
        <ele>9</ele>
        <time>2018-09-14T16:32:09Z</time>
      </trkpt>
      <trkpt lat="47.52476" lon="-1.38539">
        <ele>9</ele>
        <time>2018-09-14T16:32:14Z</time>
      </trkpt>
      <trkpt lat="47.52458" lon="-1.38502">
        <ele>9</ele>
        <time>2018-09-14T16:32:21Z</time>
      </trkpt>
      <trkpt lat="47.52447" lon="-1.38459">
        <ele>9</ele>
        <time>2018-09-14T16:32:28Z</time>
      </trkpt>
      <trkpt lat="47.52441" lon="-1.38411">
        <ele>10</ele>
        <time>2018-09-14T16:32:35Z</time>
      </trkpt>
      <trkpt lat="47.5244" lon="-1.38399">
        <ele>10</ele>
        <time>2018-09-14T16:32:37Z</time>
      </trkpt>
      <trkpt lat="47.52438" lon="-1.38366">
        <ele>11</ele>
        <time>2018-09-14T16:32:43Z</time>
      </trkpt>
      <trkpt lat="47.52437" lon="-1.38349">
        <ele>11</ele>
        <time>2018-09-14T16:32:46Z</time>
      </trkpt>
      <trkpt lat="47.52436" lon="-1.38322">
        <ele>11</ele>
        <time>2018-09-14T16:32:50Z</time>
      </trkpt>
      <trkpt lat="47.52434" lon="-1.38276">
        <ele>12</ele>
        <time>2018-09-14T16:32:58Z</time>
      </trkpt>
      <trkpt lat="47.52431" lon="-1.38236">
        <ele>12</ele>
        <time>2018-09-14T16:33:05Z</time>
      </trkpt>
      <trkpt lat="47.52429" lon="-1.3821">
        <ele>12</ele>
        <time>2018-09-14T16:33:11Z</time>
      </trkpt>
      <trkpt lat="47.52427" lon="-1.38195">
        <ele>12</ele>
        <time>2018-09-14T16:33:16Z</time>
      </trkpt>
      <trkpt lat="47.52429" lon="-1.38187">
        <ele>13</ele>
        <time>2018-09-14T16:33:20Z</time>
      </trkpt>
      <trkpt lat="47.52428" lon="-1.38178">
        <ele>13</ele>
        <time>2018-09-14T16:33:23Z</time>
      </trkpt>
      <trkpt lat="47.52427" lon="-1.38155">
        <ele>14</ele>
        <time>2018-09-14T16:33:28Z</time>
      </trkpt>
      <trkpt lat="47.52428" lon="-1.38144">
        <ele>14</ele>
        <time>2018-09-14T16:33:30Z</time>
      </trkpt>
      <trkpt lat="47.52426" lon="-1.38109">
        <ele>14</ele>
        <time>2018-09-14T16:33:37Z</time>
      </trkpt>
      <trkpt lat="47.52427" lon="-1.38086">
        <ele>14</ele>
        <time>2018-09-14T16:33:42Z</time>
      </trkpt>
      <trkpt lat="47.52426" lon="-1.38078">
        <ele>14</ele>
        <time>2018-09-14T16:33:44Z</time>
      </trkpt>
      <trkpt lat="47.52425" lon="-1.38051">
        <ele>15</ele>
        <time>2018-09-14T16:33:50Z</time>
      </trkpt>
      <trkpt lat="47.52424" lon="-1.38021">
        <ele>15</ele>
        <time>2018-09-14T16:33:56Z</time>
      </trkpt>
      <trkpt lat="47.52423" lon="-1.37992">
        <ele>15</ele>
        <time>2018-09-14T16:34:02Z</time>
      </trkpt>
      <trkpt lat="47.52423" lon="-1.37982">
        <ele>15</ele>
        <time>2018-09-14T16:34:04Z</time>
      </trkpt>
      <trkpt lat="47.52421" lon="-1.37958">
        <ele>15</ele>
        <time>2018-09-14T16:34:08Z</time>
      </trkpt>
      <trkpt lat="47.5242" lon="-1.37911">
        <ele>16</ele>
        <time>2018-09-14T16:34:16Z</time>
      </trkpt>
      <trkpt lat="47.52419" lon="-1.379">
        <ele>16</ele>
        <time>2018-09-14T16:34:18Z</time>
      </trkpt>
      <trkpt lat="47.52419" lon="-1.37885">
        <ele>16</ele>
        <time>2018-09-14T16:34:21Z</time>
      </trkpt>
      <trkpt lat="47.52415" lon="-1.37852">
        <ele>17</ele>
        <time>2018-09-14T16:34:27Z</time>
      </trkpt>
      <trkpt lat="47.52415" lon="-1.3782">
        <ele>17</ele>
        <time>2018-09-14T16:34:33Z</time>
      </trkpt>
      <trkpt lat="47.52414" lon="-1.37796">
        <ele>17</ele>
        <time>2018-09-14T16:34:38Z</time>
      </trkpt>
      <trkpt lat="47.52415" lon="-1.37773">
        <ele>17</ele>
        <time>2018-09-14T16:34:44Z</time>
      </trkpt>
      <trkpt lat="47.52412" lon="-1.37748">
        <ele>17</ele>
        <time>2018-09-14T16:34:50Z</time>
      </trkpt>
      <trkpt lat="47.52413" lon="-1.37737">
        <ele>17</ele>
        <time>2018-09-14T16:34:54Z</time>
      </trkpt>
      <trkpt lat="47.52428" lon="-1.37728">
        <ele>15</ele>
        <time>2018-09-14T16:35:26Z</time>
      </trkpt>
      <trkpt lat="47.52435" lon="-1.3772">
        <ele>15</ele>
        <time>2018-09-14T16:35:31Z</time>
      </trkpt>
      <trkpt lat="47.52438" lon="-1.3771">
        <ele>15</ele>
        <time>2018-09-14T16:35:36Z</time>
      </trkpt>
      <trkpt lat="47.52437" lon="-1.37708">
        <ele>16</ele>
        <time>2018-09-14T16:35:37Z</time>
      </trkpt>
      <trkpt lat="47.52436" lon="-1.37706">
        <ele>16</ele>
        <time>2018-09-14T16:35:38Z</time>
      </trkpt>
      <trkpt lat="47.52428" lon="-1.37709">
        <ele>16</ele>
        <time>2018-09-14T16:35:42Z</time>
      </trkpt>
      <trkpt lat="47.52425" lon="-1.37709">
        <ele>16</ele>
        <time>2018-09-14T16:35:43Z</time>
      </trkpt>
      <trkpt lat="47.52418" lon="-1.37697">
        <ele>16</ele>
        <time>2018-09-14T16:35:46Z</time>
      </trkpt>
      <trkpt lat="47.52416" lon="-1.37679">
        <ele>16</ele>
        <time>2018-09-14T16:35:49Z</time>
      </trkpt>
      <trkpt lat="47.52415" lon="-1.37666">
        <ele>16</ele>
        <time>2018-09-14T16:35:51Z</time>
      </trkpt>
      <trkpt lat="47.52413" lon="-1.37611">
        <ele>15</ele>
        <time>2018-09-14T16:35:59Z</time>
      </trkpt>
      <trkpt lat="47.52414" lon="-1.37596">
        <ele>15</ele>
        <time>2018-09-14T16:36:01Z</time>
      </trkpt>
      <trkpt lat="47.52416" lon="-1.37588">
        <ele>15</ele>
        <time>2018-09-14T16:36:02Z</time>
      </trkpt>
      <trkpt lat="47.52418" lon="-1.37578">
        <ele>14</ele>
        <time>2018-09-14T16:36:04Z</time>
      </trkpt>
      <trkpt lat="47.52412" lon="-1.37567">
        <ele>14</ele>
        <time>2018-09-14T16:36:08Z</time>
      </trkpt>
      <trkpt lat="47.52409" lon="-1.37554">
        <ele>13</ele>
        <time>2018-09-14T16:36:11Z</time>
      </trkpt>
      <trkpt lat="47.52414" lon="-1.37534">
        <ele>13</ele>
        <time>2018-09-14T16:36:15Z</time>
      </trkpt>
      <trkpt lat="47.52408" lon="-1.37507">
        <ele>13</ele>
        <time>2018-09-14T16:36:20Z</time>
      </trkpt>
      <trkpt lat="47.52407" lon="-1.37503">
        <ele>13</ele>
        <time>2018-09-14T16:36:21Z</time>
      </trkpt>
      <trkpt lat="47.52405" lon="-1.37482">
        <ele>13</ele>
        <time>2018-09-14T16:36:25Z</time>
      </trkpt>
      <trkpt lat="47.52402" lon="-1.37442">
        <ele>13</ele>
        <time>2018-09-14T16:36:30Z</time>
      </trkpt>
      <trkpt lat="47.52399" lon="-1.37425">
        <ele>13</ele>
        <time>2018-09-14T16:36:32Z</time>
      </trkpt>
      <trkpt lat="47.52392" lon="-1.37412">
        <ele>12</ele>
        <time>2018-09-14T16:36:34Z</time>
      </trkpt>
      <trkpt lat="47.52373" lon="-1.37398">
        <ele>11</ele>
        <time>2018-09-14T16:36:38Z</time>
      </trkpt>
      <trkpt lat="47.52362" lon="-1.37394">
        <ele>11</ele>
        <time>2018-09-14T16:36:40Z</time>
      </trkpt>
      <trkpt lat="47.5234" lon="-1.37386">
        <ele>10</ele>
        <time>2018-09-14T16:36:44Z</time>
      </trkpt>
      <trkpt lat="47.52335" lon="-1.37383">
        <ele>10</ele>
        <time>2018-09-14T16:36:45Z</time>
      </trkpt>
      <trkpt lat="47.52295" lon="-1.37366">
        <ele>9</ele>
        <time>2018-09-14T16:36:52Z</time>
      </trkpt>
      <trkpt lat="47.52289" lon="-1.37364">
        <ele>9</ele>
        <time>2018-09-14T16:36:53Z</time>
      </trkpt>
      <trkpt lat="47.52271" lon="-1.37355">
        <ele>9</ele>
        <time>2018-09-14T16:36:56Z</time>
      </trkpt>
      <trkpt lat="47.52261" lon="-1.3735">
        <ele>8</ele>
        <time>2018-09-14T16:36:58Z</time>
      </trkpt>
      <trkpt lat="47.52251" lon="-1.37346">
        <ele>8</ele>
        <time>2018-09-14T16:37:00Z</time>
      </trkpt>
      <trkpt lat="47.5223" lon="-1.37338">
        <ele>7</ele>
        <time>2018-09-14T16:37:04Z</time>
      </trkpt>
      <trkpt lat="47.5221" lon="-1.3733">
        <ele>7</ele>
        <time>2018-09-14T16:37:08Z</time>
      </trkpt>
      <trkpt lat="47.522" lon="-1.37325">
        <ele>6</ele>
        <time>2018-09-14T16:37:10Z</time>
      </trkpt>
      <trkpt lat="47.52196" lon="-1.37323">
        <ele>6</ele>
        <time>2018-09-14T16:37:11Z</time>
      </trkpt>
      <trkpt lat="47.52179" lon="-1.37318">
        <ele>6</ele>
        <time>2018-09-14T16:37:15Z</time>
      </trkpt>
      <trkpt lat="47.52166" lon="-1.37313">
        <ele>5</ele>
        <time>2018-09-14T16:37:18Z</time>
      </trkpt>
      <trkpt lat="47.52135" lon="-1.373">
        <ele>5</ele>
        <time>2018-09-14T16:37:24Z</time>
      </trkpt>
      <trkpt lat="47.52126" lon="-1.37294">
        <ele>5</ele>
        <time>2018-09-14T16:37:26Z</time>
      </trkpt>
      <trkpt lat="47.52122" lon="-1.3729">
        <ele>4</ele>
        <time>2018-09-14T16:37:27Z</time>
      </trkpt>
      <trkpt lat="47.52115" lon="-1.37288">
        <ele>4</ele>
        <time>2018-09-14T16:37:29Z</time>
      </trkpt>
      <trkpt lat="47.52108" lon="-1.37277">
        <ele>4</ele>
        <time>2018-09-14T16:37:32Z</time>
      </trkpt>
      <trkpt lat="47.52107" lon="-1.37273">
        <ele>4</ele>
        <time>2018-09-14T16:37:33Z</time>
      </trkpt>
      <trkpt lat="47.52105" lon="-1.37266">
        <ele>4</ele>
        <time>2018-09-14T16:37:36Z</time>
      </trkpt>
      <trkpt lat="47.52104" lon="-1.37272">
        <ele>5</ele>
        <time>2018-09-14T16:37:40Z</time>
      </trkpt>
      <trkpt lat="47.52102" lon="-1.37283">
        <ele>5</ele>
        <time>2018-09-14T16:37:43Z</time>
      </trkpt>
      <trkpt lat="47.52098" lon="-1.373">
        <ele>4</ele>
        <time>2018-09-14T16:37:46Z</time>
      </trkpt>
      <trkpt lat="47.52092" lon="-1.37311">
        <ele>4</ele>
        <time>2018-09-14T16:37:48Z</time>
      </trkpt>
      <trkpt lat="47.52075" lon="-1.37347">
        <ele>5</ele>
        <time>2018-09-14T16:37:55Z</time>
      </trkpt>
      <trkpt lat="47.52055" lon="-1.37391">
        <ele>6</ele>
        <time>2018-09-14T16:38:04Z</time>
      </trkpt>
      <trkpt lat="47.52037" lon="-1.37433">
        <ele>6</ele>
        <time>2018-09-14T16:38:11Z</time>
      </trkpt>
      <trkpt lat="47.52009" lon="-1.37496">
        <ele>6</ele>
        <time>2018-09-14T16:38:20Z</time>
      </trkpt>
      <trkpt lat="47.51989" lon="-1.37538">
        <ele>4</ele>
        <time>2018-09-14T16:38:26Z</time>
      </trkpt>
      <trkpt lat="47.5198" lon="-1.37557">
        <ele>4</ele>
        <time>2018-09-14T16:38:29Z</time>
      </trkpt>
      <trkpt lat="47.51968" lon="-1.3758">
        <ele>4</ele>
        <time>2018-09-14T16:38:34Z</time>
      </trkpt>
      <trkpt lat="47.51965" lon="-1.37581">
        <ele>4</ele>
        <time>2018-09-14T16:38:35Z</time>
      </trkpt>
      <trkpt lat="47.51954" lon="-1.37582">
        <ele>5</ele>
        <time>2018-09-14T16:38:38Z</time>
      </trkpt>
      <trkpt lat="47.51946" lon="-1.3758">
        <ele>5</ele>
        <time>2018-09-14T16:38:40Z</time>
      </trkpt>
      <trkpt lat="47.51922" lon="-1.37576">
        <ele>5</ele>
        <time>2018-09-14T16:38:45Z</time>
      </trkpt>
      <trkpt lat="47.51868" lon="-1.37568">
        <ele>6</ele>
        <time>2018-09-14T16:38:55Z</time>
      </trkpt>
      <trkpt lat="47.51863" lon="-1.37567">
        <ele>7</ele>
        <time>2018-09-14T16:38:56Z</time>
      </trkpt>
      <trkpt lat="47.51816" lon="-1.3756">
        <ele>8</ele>
        <time>2018-09-14T16:39:05Z</time>
      </trkpt>
      <trkpt lat="47.51812" lon="-1.3756">
        <ele>8</ele>
        <time>2018-09-14T16:39:06Z</time>
      </trkpt>
      <trkpt lat="47.5179" lon="-1.37557">
        <ele>9</ele>
        <time>2018-09-14T16:39:11Z</time>
      </trkpt>
      <trkpt lat="47.51782" lon="-1.37556">
        <ele>9</ele>
        <time>2018-09-14T16:39:13Z</time>
      </trkpt>
      <trkpt lat="47.51775" lon="-1.37555">
        <ele>10</ele>
        <time>2018-09-14T16:39:15Z</time>
      </trkpt>
      <trkpt lat="47.51765" lon="-1.37554">
        <ele>11</ele>
        <time>2018-09-14T16:39:18Z</time>
      </trkpt>
      <trkpt lat="47.51755" lon="-1.37553">
        <ele>12</ele>
        <time>2018-09-14T16:39:21Z</time>
      </trkpt>
      <trkpt lat="47.51751" lon="-1.37553">
        <ele>13</ele>
        <time>2018-09-14T16:39:22Z</time>
      </trkpt>
      <trkpt lat="47.51734" lon="-1.3755">
        <ele>14</ele>
        <time>2018-09-14T16:39:27Z</time>
      </trkpt>
      <trkpt lat="47.51716" lon="-1.37547">
        <ele>15</ele>
        <time>2018-09-14T16:39:32Z</time>
      </trkpt>
      <trkpt lat="47.51709" lon="-1.37546">
        <ele>15</ele>
        <time>2018-09-14T16:39:34Z</time>
      </trkpt>
      <trkpt lat="47.51699" lon="-1.37544">
        <ele>16</ele>
        <time>2018-09-14T16:39:37Z</time>
      </trkpt>
      <trkpt lat="47.51681" lon="-1.37542">
        <ele>17</ele>
        <time>2018-09-14T16:39:42Z</time>
      </trkpt>
      <trkpt lat="47.51674" lon="-1.37541">
        <ele>18</ele>
        <time>2018-09-14T16:39:44Z</time>
      </trkpt>
      <trkpt lat="47.51654" lon="-1.37538">
        <ele>18</ele>
        <time>2018-09-14T16:39:49Z</time>
      </trkpt>
      <trkpt lat="47.51631" lon="-1.37535">
        <ele>19</ele>
        <time>2018-09-14T16:39:55Z</time>
      </trkpt>
      <trkpt lat="47.51607" lon="-1.37532">
        <ele>21</ele>
        <time>2018-09-14T16:40:01Z</time>
      </trkpt>
      <trkpt lat="47.51598" lon="-1.37531">
        <ele>21</ele>
        <time>2018-09-14T16:40:03Z</time>
      </trkpt>
      <trkpt lat="47.51577" lon="-1.37529">
        <ele>22</ele>
        <time>2018-09-14T16:40:08Z</time>
      </trkpt>
      <trkpt lat="47.51559" lon="-1.37526">
        <ele>22</ele>
        <time>2018-09-14T16:40:12Z</time>
      </trkpt>
      <trkpt lat="47.51537" lon="-1.37522">
        <ele>22</ele>
        <time>2018-09-14T16:40:17Z</time>
      </trkpt>
      <trkpt lat="47.51534" lon="-1.37517">
        <ele>22</ele>
        <time>2018-09-14T16:40:18Z</time>
      </trkpt>
      <trkpt lat="47.51525" lon="-1.37491">
        <ele>22</ele>
        <time>2018-09-14T16:40:22Z</time>
      </trkpt>
      <trkpt lat="47.51524" lon="-1.37484">
        <ele>22</ele>
        <time>2018-09-14T16:40:23Z</time>
      </trkpt>
      <trkpt lat="47.51511" lon="-1.37434">
        <ele>21</ele>
        <time>2018-09-14T16:40:29Z</time>
      </trkpt>
      <trkpt lat="47.51506" lon="-1.37416">
        <ele>20</ele>
        <time>2018-09-14T16:40:31Z</time>
      </trkpt>
      <trkpt lat="47.515" lon="-1.37386">
        <ele>20</ele>
        <time>2018-09-14T16:40:34Z</time>
      </trkpt>
      <trkpt lat="47.51499" lon="-1.37375">
        <ele>19</ele>
        <time>2018-09-14T16:40:35Z</time>
      </trkpt>
      <trkpt lat="47.51498" lon="-1.37364">
        <ele>19</ele>
        <time>2018-09-14T16:40:36Z</time>
      </trkpt>
      <trkpt lat="47.51498" lon="-1.37339">
        <ele>18</ele>
        <time>2018-09-14T16:40:38Z</time>
      </trkpt>
      <trkpt lat="47.51498" lon="-1.37327">
        <ele>18</ele>
        <time>2018-09-14T16:40:39Z</time>
      </trkpt>
      <trkpt lat="47.51498" lon="-1.37315">
        <ele>18</ele>
        <time>2018-09-14T16:40:40Z</time>
      </trkpt>
      <trkpt lat="47.51493" lon="-1.37292">
        <ele>17</ele>
        <time>2018-09-14T16:40:42Z</time>
      </trkpt>
      <trkpt lat="47.51485" lon="-1.37271">
        <ele>16</ele>
        <time>2018-09-14T16:40:44Z</time>
      </trkpt>
      <trkpt lat="47.51475" lon="-1.37252">
        <ele>15</ele>
        <time>2018-09-14T16:40:46Z</time>
      </trkpt>
      <trkpt lat="47.51461" lon="-1.37237">
        <ele>13</ele>
        <time>2018-09-14T16:40:48Z</time>
      </trkpt>
      <trkpt lat="47.51445" lon="-1.37225">
        <ele>12</ele>
        <time>2018-09-14T16:40:50Z</time>
      </trkpt>
      <trkpt lat="47.51436" lon="-1.3722">
        <ele>11</ele>
        <time>2018-09-14T16:40:51Z</time>
      </trkpt>
      <trkpt lat="47.51427" lon="-1.37216">
        <ele>10</ele>
        <time>2018-09-14T16:40:52Z</time>
      </trkpt>
      <trkpt lat="47.5141" lon="-1.37211">
        <ele>7</ele>
        <time>2018-09-14T16:40:54Z</time>
      </trkpt>
      <trkpt lat="47.51393" lon="-1.37208">
        <ele>6</ele>
        <time>2018-09-14T16:40:56Z</time>
      </trkpt>
      <trkpt lat="47.51378" lon="-1.37203">
        <ele>4</ele>
        <time>2018-09-14T16:40:58Z</time>
      </trkpt>
      <trkpt lat="47.51363" lon="-1.37197">
        <ele>3</ele>
        <time>2018-09-14T16:41:00Z</time>
      </trkpt>
      <trkpt lat="47.51347" lon="-1.3719">
        <ele>2</ele>
        <time>2018-09-14T16:41:02Z</time>
      </trkpt>
      <trkpt lat="47.51332" lon="-1.37182">
        <ele>1</ele>
        <time>2018-09-14T16:41:04Z</time>
      </trkpt>
      <trkpt lat="47.51317" lon="-1.37172">
        <ele>23.6</ele>
        <time>2018-09-14T16:41:06Z</time>
      </trkpt>
      <trkpt lat="47.51305" lon="-1.37163">
        <ele>-2</ele>
        <time>2018-09-14T16:41:08Z</time>
      </trkpt>
      <trkpt lat="47.51296" lon="-1.37153">
        <ele>-3</ele>
        <time>2018-09-14T16:41:10Z</time>
      </trkpt>
      <trkpt lat="47.51289" lon="-1.37143">
        <ele>-4</ele>
        <time>2018-09-14T16:41:12Z</time>
      </trkpt>
      <trkpt lat="47.51287" lon="-1.37137">
        <ele>-5</ele>
        <time>2018-09-14T16:41:13Z</time>
      </trkpt>
      <trkpt lat="47.51287" lon="-1.37126">
        <ele>-5</ele>
        <time>2018-09-14T16:41:15Z</time>
      </trkpt>
      <trkpt lat="47.51293" lon="-1.37113">
        <ele>-5</ele>
        <time>2018-09-14T16:41:18Z</time>
      </trkpt>
      <trkpt lat="47.51303" lon="-1.37107">
        <ele>-4</ele>
        <time>2018-09-14T16:41:21Z</time>
      </trkpt>
      <trkpt lat="47.51315" lon="-1.37101">
        <ele>-4</ele>
        <time>2018-09-14T16:41:24Z</time>
      </trkpt>
      <trkpt lat="47.51341" lon="-1.37091">
        <ele>-4</ele>
        <time>2018-09-14T16:41:30Z</time>
      </trkpt>
      <trkpt lat="47.51344" lon="-1.3709">
        <ele>-3</ele>
        <time>2018-09-14T16:41:31Z</time>
      </trkpt>
      <trkpt lat="47.51366" lon="-1.37082">
        <ele>-3</ele>
        <time>2018-09-14T16:41:37Z</time>
      </trkpt>
      <trkpt lat="47.51373" lon="-1.37079">
        <ele>-2</ele>
        <time>2018-09-14T16:41:39Z</time>
      </trkpt>
      <trkpt lat="47.51385" lon="-1.37074">
        <ele>-2</ele>
        <time>2018-09-14T16:41:44Z</time>
      </trkpt>
      <trkpt lat="47.51387" lon="-1.37074">
        <ele>-1</ele>
        <time>2018-09-14T16:41:45Z</time>
      </trkpt>
      <trkpt lat="47.51401" lon="-1.3707">
        <ele>-1</ele>
        <time>2018-09-14T16:41:50Z</time>
      </trkpt>
      <trkpt lat="47.51411" lon="-1.37067">
        <ele>29.9</ele>
        <time>2018-09-14T16:41:54Z</time>
      </trkpt>
      <trkpt lat="47.51421" lon="-1.37064">
        <ele>30.4</ele>
        <time>2018-09-14T16:41:58Z</time>
      </trkpt>
      <trkpt lat="47.51426" lon="-1.37062">
        <ele>1</ele>
        <time>2018-09-14T16:42:00Z</time>
      </trkpt>
      <trkpt lat="47.51438" lon="-1.37058">
        <ele>2</ele>
        <time>2018-09-14T16:42:05Z</time>
      </trkpt>
      <trkpt lat="47.51443" lon="-1.37056">
        <ele>2</ele>
        <time>2018-09-14T16:42:07Z</time>
      </trkpt>
      <trkpt lat="47.51447" lon="-1.37052">
        <ele>3</ele>
        <time>2018-09-14T16:42:09Z</time>
      </trkpt>
      <trkpt lat="47.5146" lon="-1.37047">
        <ele>4</ele>
        <time>2018-09-14T16:42:14Z</time>
      </trkpt>
      <trkpt lat="47.51462" lon="-1.37046">
        <ele>4</ele>
        <time>2018-09-14T16:42:15Z</time>
      </trkpt>
      <trkpt lat="47.51474" lon="-1.37038">
        <ele>5</ele>
        <time>2018-09-14T16:42:21Z</time>
      </trkpt>
      <trkpt lat="47.51476" lon="-1.37037">
        <ele>5</ele>
        <time>2018-09-14T16:42:22Z</time>
      </trkpt>
      <trkpt lat="47.51491" lon="-1.3703">
        <ele>6</ele>
        <time>2018-09-14T16:42:28Z</time>
      </trkpt>
      <trkpt lat="47.51496" lon="-1.37027">
        <ele>7</ele>
        <time>2018-09-14T16:42:30Z</time>
      </trkpt>
      <trkpt lat="47.51503" lon="-1.37022">
        <ele>7</ele>
        <time>2018-09-14T16:42:33Z</time>
      </trkpt>
      <trkpt lat="47.51512" lon="-1.37015">
        <ele>8</ele>
        <time>2018-09-14T16:42:37Z</time>
      </trkpt>
      <trkpt lat="47.51517" lon="-1.37009">
        <ele>8</ele>
        <time>2018-09-14T16:42:40Z</time>
      </trkpt>
      <trkpt lat="47.51521" lon="-1.36997">
        <ele>9</ele>
        <time>2018-09-14T16:42:44Z</time>
      </trkpt>
      <trkpt lat="47.51521" lon="-1.36994">
        <ele>9</ele>
        <time>2018-09-14T16:42:45Z</time>
      </trkpt>
      <trkpt lat="47.5152" lon="-1.36979">
        <ele>10</ele>
        <time>2018-09-14T16:42:50Z</time>
      </trkpt>
      <trkpt lat="47.5152" lon="-1.36976">
        <ele>11</ele>
        <time>2018-09-14T16:42:51Z</time>
      </trkpt>
      <trkpt lat="47.51519" lon="-1.36968">
        <ele>11</ele>
        <time>2018-09-14T16:42:54Z</time>
      </trkpt>
      <trkpt lat="47.51518" lon="-1.36953">
        <ele>13</ele>
        <time>2018-09-14T16:42:59Z</time>
      </trkpt>
      <trkpt lat="47.51518" lon="-1.36948">
        <ele>13</ele>
        <time>2018-09-14T16:43:01Z</time>
      </trkpt>
      <trkpt lat="47.51517" lon="-1.36937">
        <ele>14</ele>
        <time>2018-09-14T16:43:05Z</time>
      </trkpt>
      <trkpt lat="47.51515" lon="-1.36922">
        <ele>15</ele>
        <time>2018-09-14T16:43:10Z</time>
      </trkpt>
      <trkpt lat="47.51515" lon="-1.36919">
        <ele>15</ele>
        <time>2018-09-14T16:43:11Z</time>
      </trkpt>
      <trkpt lat="47.51514" lon="-1.36904">
        <ele>16</ele>
        <time>2018-09-14T16:43:16Z</time>
      </trkpt>
      <trkpt lat="47.51513" lon="-1.36891">
        <ele>17</ele>
        <time>2018-09-14T16:43:20Z</time>
      </trkpt>
      <trkpt lat="47.51512" lon="-1.36885">
        <ele>17</ele>
        <time>2018-09-14T16:43:22Z</time>
      </trkpt>
      <trkpt lat="47.51511" lon="-1.36861">
        <ele>18</ele>
        <time>2018-09-14T16:43:29Z</time>
      </trkpt>
      <trkpt lat="47.51509" lon="-1.36833">
        <ele>19</ele>
        <time>2018-09-14T16:43:37Z</time>
      </trkpt>
      <trkpt lat="47.51509" lon="-1.36825">
        <ele>20</ele>
        <time>2018-09-14T16:43:39Z</time>
      </trkpt>
      <trkpt lat="47.51507" lon="-1.368">
        <ele>21</ele>
        <time>2018-09-14T16:43:45Z</time>
      </trkpt>
      <trkpt lat="47.51507" lon="-1.36796">
        <ele>21</ele>
        <time>2018-09-14T16:43:46Z</time>
      </trkpt>
      <trkpt lat="47.51506" lon="-1.36783">
        <ele>21</ele>
        <time>2018-09-14T16:43:49Z</time>
      </trkpt>
      <trkpt lat="47.51504" lon="-1.36752">
        <ele>22</ele>
        <time>2018-09-14T16:43:56Z</time>
      </trkpt>
      <trkpt lat="47.51503" lon="-1.36747">
        <ele>22</ele>
        <time>2018-09-14T16:43:57Z</time>
      </trkpt>
      <trkpt lat="47.515" lon="-1.36693">
        <ele>22</ele>
        <time>2018-09-14T16:44:07Z</time>
      </trkpt>
      <trkpt lat="47.51497" lon="-1.36651">
        <ele>23</ele>
        <time>2018-09-14T16:44:14Z</time>
      </trkpt>
      <trkpt lat="47.51497" lon="-1.36639">
        <ele>23</ele>
        <time>2018-09-14T16:44:16Z</time>
      </trkpt>
      <trkpt lat="47.51494" lon="-1.36587">
        <ele>23</ele>
        <time>2018-09-14T16:44:25Z</time>
      </trkpt>
      <trkpt lat="47.51488" lon="-1.36548">
        <ele>24</ele>
        <time>2018-09-14T16:44:32Z</time>
      </trkpt>
      <trkpt lat="47.51485" lon="-1.36544">
        <ele>24</ele>
        <time>2018-09-14T16:44:33Z</time>
      </trkpt>
      <trkpt lat="47.51472" lon="-1.36543">
        <ele>24</ele>
        <time>2018-09-14T16:44:36Z</time>
      </trkpt>
      <trkpt lat="47.51464" lon="-1.36544">
        <ele>24</ele>
        <time>2018-09-14T16:44:38Z</time>
      </trkpt>
      <trkpt lat="47.51439" lon="-1.36546">
        <ele>24</ele>
        <time>2018-09-14T16:44:43Z</time>
      </trkpt>
      <trkpt lat="47.51397" lon="-1.36551">
        <ele>23</ele>
        <time>2018-09-14T16:44:51Z</time>
      </trkpt>
      <trkpt lat="47.5138" lon="-1.36552">
        <ele>22</ele>
        <time>2018-09-14T16:44:54Z</time>
      </trkpt>
      <trkpt lat="47.51355" lon="-1.3655">
        <ele>22</ele>
        <time>2018-09-14T16:44:58Z</time>
      </trkpt>
      <trkpt lat="47.51342" lon="-1.36546">
        <ele>21</ele>
        <time>2018-09-14T16:45:00Z</time>
      </trkpt>
      <trkpt lat="47.51312" lon="-1.36535">
        <ele>20</ele>
        <time>2018-09-14T16:45:04Z</time>
      </trkpt>
      <trkpt lat="47.51289" lon="-1.36527">
        <ele>19</ele>
        <time>2018-09-14T16:45:07Z</time>
      </trkpt>
      <trkpt lat="47.51266" lon="-1.36518">
        <ele>18</ele>
        <time>2018-09-14T16:45:10Z</time>
      </trkpt>
      <trkpt lat="47.51251" lon="-1.36513">
        <ele>17</ele>
        <time>2018-09-14T16:45:12Z</time>
      </trkpt>
      <trkpt lat="47.51244" lon="-1.36511">
        <ele>17</ele>
        <time>2018-09-14T16:45:13Z</time>
      </trkpt>
      <trkpt lat="47.51219" lon="-1.36502">
        <ele>16</ele>
        <time>2018-09-14T16:45:17Z</time>
      </trkpt>
      <trkpt lat="47.51213" lon="-1.36502">
        <ele>16</ele>
        <time>2018-09-14T16:45:18Z</time>
      </trkpt>
      <trkpt lat="47.51207" lon="-1.36503">
        <ele>16</ele>
        <time>2018-09-14T16:45:19Z</time>
      </trkpt>
      <trkpt lat="47.51196" lon="-1.36509">
        <ele>16</ele>
        <time>2018-09-14T16:45:21Z</time>
      </trkpt>
      <trkpt lat="47.51192" lon="-1.36513">
        <ele>16</ele>
        <time>2018-09-14T16:45:22Z</time>
      </trkpt>
      <trkpt lat="47.51179" lon="-1.36522">
        <ele>16</ele>
        <time>2018-09-14T16:45:25Z</time>
      </trkpt>
      <trkpt lat="47.51175" lon="-1.36522">
        <ele>16</ele>
        <time>2018-09-14T16:45:26Z</time>
      </trkpt>
      <trkpt lat="47.51168" lon="-1.36513">
        <ele>16</ele>
        <time>2018-09-14T16:45:29Z</time>
      </trkpt>
      <trkpt lat="47.51172" lon="-1.36496">
        <ele>17</ele>
        <time>2018-09-14T16:45:32Z</time>
      </trkpt>
      <trkpt lat="47.51175" lon="-1.3649">
        <ele>17</ele>
        <time>2018-09-14T16:45:33Z</time>
      </trkpt>
      <trkpt lat="47.51177" lon="-1.36484">
        <ele>17</ele>
        <time>2018-09-14T16:45:34Z</time>
      </trkpt>
      <trkpt lat="47.51192" lon="-1.36451">
        <ele>17</ele>
        <time>2018-09-14T16:45:39Z</time>
      </trkpt>
      <trkpt lat="47.51204" lon="-1.36423">
        <ele>18</ele>
        <time>2018-09-14T16:45:43Z</time>
      </trkpt>
      <trkpt lat="47.51206" lon="-1.36408">
        <ele>18</ele>
        <time>2018-09-14T16:45:45Z</time>
      </trkpt>
      <trkpt lat="47.51205" lon="-1.36395">
        <ele>18</ele>
        <time>2018-09-14T16:45:47Z</time>
      </trkpt>
      <trkpt lat="47.51203" lon="-1.36389">
        <ele>18</ele>
        <time>2018-09-14T16:45:48Z</time>
      </trkpt>
      <trkpt lat="47.51197" lon="-1.36379">
        <ele>19</ele>
        <time>2018-09-14T16:45:50Z</time>
      </trkpt>
      <trkpt lat="47.51181" lon="-1.36353">
        <ele>19</ele>
        <time>2018-09-14T16:45:55Z</time>
      </trkpt>
      <trkpt lat="47.51153" lon="-1.36306">
        <ele>20</ele>
        <time>2018-09-14T16:46:03Z</time>
      </trkpt>
      <trkpt lat="47.5115" lon="-1.363">
        <ele>20</ele>
        <time>2018-09-14T16:46:04Z</time>
      </trkpt>
      <trkpt lat="47.51125" lon="-1.36254">
        <ele>20</ele>
        <time>2018-09-14T16:46:11Z</time>
      </trkpt>
      <trkpt lat="47.51088" lon="-1.3619">
        <ele>20</ele>
        <time>2018-09-14T16:46:20Z</time>
      </trkpt>
      <trkpt lat="47.51084" lon="-1.36183">
        <ele>19</ele>
        <time>2018-09-14T16:46:21Z</time>
      </trkpt>
      <trkpt lat="47.51077" lon="-1.36169">
        <ele>19</ele>
        <time>2018-09-14T16:46:23Z</time>
      </trkpt>
      <trkpt lat="47.51051" lon="-1.3612">
        <ele>18</ele>
        <time>2018-09-14T16:46:30Z</time>
      </trkpt>
      <trkpt lat="47.51048" lon="-1.36113">
        <ele>18</ele>
        <time>2018-09-14T16:46:31Z</time>
      </trkpt>
      <trkpt lat="47.51026" lon="-1.3607">
        <ele>18</ele>
        <time>2018-09-14T16:46:37Z</time>
      </trkpt>
      <trkpt lat="47.51015" lon="-1.36048">
        <ele>17</ele>
        <time>2018-09-14T16:46:40Z</time>
      </trkpt>
      <trkpt lat="47.50994" lon="-1.36007">
        <ele>16</ele>
        <time>2018-09-14T16:46:45Z</time>
      </trkpt>
      <trkpt lat="47.50981" lon="-1.35982">
        <ele>15</ele>
        <time>2018-09-14T16:46:48Z</time>
      </trkpt>
      <trkpt lat="47.50962" lon="-1.35945">
        <ele>14</ele>
        <time>2018-09-14T16:46:53Z</time>
      </trkpt>
      <trkpt lat="47.50936" lon="-1.35889">
        <ele>14</ele>
        <time>2018-09-14T16:47:01Z</time>
      </trkpt>
      <trkpt lat="47.50912" lon="-1.35835">
        <ele>15</ele>
        <time>2018-09-14T16:47:09Z</time>
      </trkpt>
      <trkpt lat="47.5091" lon="-1.35829">
        <ele>15</ele>
        <time>2018-09-14T16:47:10Z</time>
      </trkpt>
      <trkpt lat="47.50893" lon="-1.35793">
        <ele>16</ele>
        <time>2018-09-14T16:47:16Z</time>
      </trkpt>
      <trkpt lat="47.50888" lon="-1.35782">
        <ele>16</ele>
        <time>2018-09-14T16:47:18Z</time>
      </trkpt>
      <trkpt lat="47.50883" lon="-1.3577">
        <ele>17</ele>
        <time>2018-09-14T16:47:20Z</time>
      </trkpt>
      <trkpt lat="47.50871" lon="-1.35743">
        <ele>18</ele>
        <time>2018-09-14T16:47:25Z</time>
      </trkpt>
      <trkpt lat="47.50866" lon="-1.35731">
        <ele>19</ele>
        <time>2018-09-14T16:47:27Z</time>
      </trkpt>
      <trkpt lat="47.50856" lon="-1.35709">
        <ele>19</ele>
        <time>2018-09-14T16:47:31Z</time>
      </trkpt>
      <trkpt lat="47.50841" lon="-1.35674">
        <ele>20</ele>
        <time>2018-09-14T16:47:37Z</time>
      </trkpt>
      <trkpt lat="47.50835" lon="-1.35663">
        <ele>20</ele>
        <time>2018-09-14T16:47:39Z</time>
      </trkpt>
      <trkpt lat="47.50832" lon="-1.35658">
        <ele>20</ele>
        <time>2018-09-14T16:47:40Z</time>
      </trkpt>
      <trkpt lat="47.50824" lon="-1.35652">
        <ele>21</ele>
        <time>2018-09-14T16:47:42Z</time>
      </trkpt>
      <trkpt lat="47.5081" lon="-1.35655">
        <ele>21</ele>
        <time>2018-09-14T16:47:45Z</time>
      </trkpt>
      <trkpt lat="47.50806" lon="-1.35657">
        <ele>21</ele>
        <time>2018-09-14T16:47:46Z</time>
      </trkpt>
      <trkpt lat="47.50797" lon="-1.35662">
        <ele>21</ele>
        <time>2018-09-14T16:47:48Z</time>
      </trkpt>
      <trkpt lat="47.50772" lon="-1.35676">
        <ele>22</ele>
        <time>2018-09-14T16:47:54Z</time>
      </trkpt>
      <trkpt lat="47.5076" lon="-1.35683">
        <ele>22</ele>
        <time>2018-09-14T16:47:59Z</time>
      </trkpt>
      <trkpt lat="47.50757" lon="-1.35685">
        <ele>22</ele>
        <time>2018-09-14T16:48:18Z</time>
      </trkpt>
      <trkpt lat="47.50755" lon="-1.35687">
        <ele>22</ele>
        <time>2018-09-14T16:48:19Z</time>
      </trkpt>
      <trkpt lat="47.50736" lon="-1.35695">
        <ele>22</ele>
        <time>2018-09-14T16:48:25Z</time>
      </trkpt>
      <trkpt lat="47.5071" lon="-1.35712">
        <ele>22</ele>
        <time>2018-09-14T16:48:31Z</time>
      </trkpt>
      <trkpt lat="47.50679" lon="-1.35733">
        <ele>21</ele>
        <time>2018-09-14T16:48:37Z</time>
      </trkpt>
      <trkpt lat="47.50668" lon="-1.3574">
        <ele>21</ele>
        <time>2018-09-14T16:48:39Z</time>
      </trkpt>
      <trkpt lat="47.50631" lon="-1.35765">
        <ele>20</ele>
        <time>2018-09-14T16:48:46Z</time>
      </trkpt>
      <trkpt lat="47.50616" lon="-1.35775">
        <ele>20</ele>
        <time>2018-09-14T16:48:49Z</time>
      </trkpt>
      <trkpt lat="47.50589" lon="-1.35793">
        <ele>19</ele>
        <time>2018-09-14T16:48:54Z</time>
      </trkpt>
      <trkpt lat="47.50555" lon="-1.35816">
        <ele>18</ele>
        <time>2018-09-14T16:49:00Z</time>
      </trkpt>
      <trkpt lat="47.50502" lon="-1.35852">
        <ele>17</ele>
        <time>2018-09-14T16:49:09Z</time>
      </trkpt>
      <trkpt lat="47.50496" lon="-1.35856">
        <ele>17</ele>
        <time>2018-09-14T16:49:10Z</time>
      </trkpt>
      <trkpt lat="47.50458" lon="-1.35871">
        <ele>17</ele>
        <time>2018-09-14T16:49:16Z</time>
      </trkpt>
      <trkpt lat="47.50437" lon="-1.35874">
        <ele>16</ele>
        <time>2018-09-14T16:49:19Z</time>
      </trkpt>
      <trkpt lat="47.50394" lon="-1.3588">
        <ele>16</ele>
        <time>2018-09-14T16:49:25Z</time>
      </trkpt>
      <trkpt lat="47.50381" lon="-1.35883">
        <ele>15</ele>
        <time>2018-09-14T16:49:27Z</time>
      </trkpt>
      <trkpt lat="47.50335" lon="-1.35889">
        <ele>14</ele>
        <time>2018-09-14T16:49:34Z</time>
      </trkpt>
      <trkpt lat="47.50275" lon="-1.35898">
        <ele>13</ele>
        <time>2018-09-14T16:49:43Z</time>
      </trkpt>
      <trkpt lat="47.50242" lon="-1.35904">
        <ele>13</ele>
        <time>2018-09-14T16:49:48Z</time>
      </trkpt>
      <trkpt lat="47.50203" lon="-1.35908">
        <ele>13</ele>
        <time>2018-09-14T16:49:54Z</time>
      </trkpt>
      <trkpt lat="47.50163" lon="-1.35907">
        <ele>13</ele>
        <time>2018-09-14T16:50:01Z</time>
      </trkpt>
      <trkpt lat="47.50155" lon="-1.35899">
        <ele>13</ele>
        <time>2018-09-14T16:50:04Z</time>
      </trkpt>
      <trkpt lat="47.50156" lon="-1.35887">
        <ele>13</ele>
        <time>2018-09-14T16:50:07Z</time>
      </trkpt>
      <trkpt lat="47.5016" lon="-1.35878">
        <ele>13</ele>
        <time>2018-09-14T16:50:09Z</time>
      </trkpt>
      <trkpt lat="47.5017" lon="-1.35856">
        <ele>13</ele>
        <time>2018-09-14T16:50:13Z</time>
      </trkpt>
      <trkpt lat="47.50193" lon="-1.35807">
        <ele>14</ele>
        <time>2018-09-14T16:50:21Z</time>
      </trkpt>
      <trkpt lat="47.50226" lon="-1.35738">
        <ele>14</ele>
        <time>2018-09-14T16:50:31Z</time>
      </trkpt>
      <trkpt lat="47.50257" lon="-1.3567">
        <ele>14</ele>
        <time>2018-09-14T16:50:40Z</time>
      </trkpt>
      <trkpt lat="47.5026" lon="-1.35663">
        <ele>14</ele>
        <time>2018-09-14T16:50:41Z</time>
      </trkpt>
      <trkpt lat="47.5029" lon="-1.35595">
        <ele>14</ele>
        <time>2018-09-14T16:50:51Z</time>
      </trkpt>
      <trkpt lat="47.50295" lon="-1.35583">
        <ele>14</ele>
        <time>2018-09-14T16:50:53Z</time>
      </trkpt>
      <trkpt lat="47.5031" lon="-1.35548">
        <ele>15</ele>
        <time>2018-09-14T16:50:59Z</time>
      </trkpt>
      <trkpt lat="47.50312" lon="-1.35543">
        <ele>15</ele>
        <time>2018-09-14T16:51:00Z</time>
      </trkpt>
      <trkpt lat="47.50327" lon="-1.35509">
        <ele>16</ele>
        <time>2018-09-14T16:51:06Z</time>
      </trkpt>
      <trkpt lat="47.5034" lon="-1.3548">
        <ele>17</ele>
        <time>2018-09-14T16:51:11Z</time>
      </trkpt>
      <trkpt lat="47.50347" lon="-1.35462">
        <ele>17</ele>
        <time>2018-09-14T16:51:14Z</time>
      </trkpt>
      <trkpt lat="47.5036" lon="-1.35432">
        <ele>18</ele>
        <time>2018-09-14T16:51:19Z</time>
      </trkpt>
      <trkpt lat="47.50368" lon="-1.35413">
        <ele>19</ele>
        <time>2018-09-14T16:51:22Z</time>
      </trkpt>
      <trkpt lat="47.50384" lon="-1.35375">
        <ele>19</ele>
        <time>2018-09-14T16:51:28Z</time>
      </trkpt>
      <trkpt lat="47.50402" lon="-1.35335">
        <ele>20</ele>
        <time>2018-09-14T16:51:34Z</time>
      </trkpt>
      <trkpt lat="47.50432" lon="-1.35264">
        <ele>20</ele>
        <time>2018-09-14T16:51:44Z</time>
      </trkpt>
      <trkpt lat="47.50435" lon="-1.35257">
        <ele>20</ele>
        <time>2018-09-14T16:51:45Z</time>
      </trkpt>
      <trkpt lat="47.50468" lon="-1.3519">
        <ele>20</ele>
        <time>2018-09-14T16:51:55Z</time>
      </trkpt>
      <trkpt lat="47.50492" lon="-1.35136">
        <ele>20</ele>
        <time>2018-09-14T16:52:02Z</time>
      </trkpt>
      <trkpt lat="47.50519" lon="-1.3506">
        <ele>20</ele>
        <time>2018-09-14T16:52:11Z</time>
      </trkpt>
      <trkpt lat="47.50525" lon="-1.35043">
        <ele>20</ele>
        <time>2018-09-14T16:52:13Z</time>
      </trkpt>
      <trkpt lat="47.5055" lon="-1.3497">
        <ele>19</ele>
        <time>2018-09-14T16:52:22Z</time>
      </trkpt>
      <trkpt lat="47.50562" lon="-1.3494">
        <ele>20</ele>
        <time>2018-09-14T16:52:27Z</time>
      </trkpt>
      <trkpt lat="47.50567" lon="-1.34928">
        <ele>20</ele>
        <time>2018-09-14T16:52:31Z</time>
      </trkpt>
      <trkpt lat="47.50577" lon="-1.349">
        <ele>20</ele>
        <time>2018-09-14T16:52:37Z</time>
      </trkpt>
      <trkpt lat="47.5059" lon="-1.34868">
        <ele>20</ele>
        <time>2018-09-14T16:52:42Z</time>
      </trkpt>
      <trkpt lat="47.50598" lon="-1.34848">
        <ele>21</ele>
        <time>2018-09-14T16:52:45Z</time>
      </trkpt>
      <trkpt lat="47.50609" lon="-1.3482">
        <ele>21</ele>
        <time>2018-09-14T16:52:49Z</time>
      </trkpt>
      <trkpt lat="47.50623" lon="-1.34785">
        <ele>22</ele>
        <time>2018-09-14T16:52:54Z</time>
      </trkpt>
      <trkpt lat="47.50638" lon="-1.34743">
        <ele>22</ele>
        <time>2018-09-14T16:53:00Z</time>
      </trkpt>
      <trkpt lat="47.50666" lon="-1.34674">
        <ele>22</ele>
        <time>2018-09-14T16:53:10Z</time>
      </trkpt>
      <trkpt lat="47.50694" lon="-1.34618">
        <ele>21</ele>
        <time>2018-09-14T16:53:18Z</time>
      </trkpt>
      <trkpt lat="47.5071" lon="-1.34587">
        <ele>20</ele>
        <time>2018-09-14T16:53:22Z</time>
      </trkpt>
      <trkpt lat="47.5073" lon="-1.34549">
        <ele>19</ele>
        <time>2018-09-14T16:53:27Z</time>
      </trkpt>
      <trkpt lat="47.50751" lon="-1.34514">
        <ele>18</ele>
        <time>2018-09-14T16:53:32Z</time>
      </trkpt>
      <trkpt lat="47.50763" lon="-1.34492">
        <ele>17</ele>
        <time>2018-09-14T16:53:35Z</time>
      </trkpt>
      <trkpt lat="47.50775" lon="-1.34471">
        <ele>16</ele>
        <time>2018-09-14T16:53:38Z</time>
      </trkpt>
      <trkpt lat="47.50787" lon="-1.34452">
        <ele>16</ele>
        <time>2018-09-14T16:53:41Z</time>
      </trkpt>
      <trkpt lat="47.50799" lon="-1.34431">
        <ele>16</ele>
        <time>2018-09-14T16:53:45Z</time>
      </trkpt>
      <trkpt lat="47.50798" lon="-1.34427">
        <ele>15</ele>
        <time>2018-09-14T16:53:46Z</time>
      </trkpt>
      <trkpt lat="47.50794" lon="-1.34418">
        <ele>15</ele>
        <time>2018-09-14T16:53:48Z</time>
      </trkpt>
      <trkpt lat="47.50786" lon="-1.3441">
        <ele>15</ele>
        <time>2018-09-14T16:53:50Z</time>
      </trkpt>
      <trkpt lat="47.50777" lon="-1.34399">
        <ele>15</ele>
        <time>2018-09-14T16:53:52Z</time>
      </trkpt>
      <trkpt lat="47.50746" lon="-1.3436">
        <ele>14</ele>
        <time>2018-09-14T16:53:59Z</time>
      </trkpt>
      <trkpt lat="47.50701" lon="-1.34304">
        <ele>13</ele>
        <time>2018-09-14T16:54:09Z</time>
      </trkpt>
      <trkpt lat="47.50682" lon="-1.34293">
        <ele>12</ele>
        <time>2018-09-14T16:54:13Z</time>
      </trkpt>
      <trkpt lat="47.50678" lon="-1.34286">
        <ele>12</ele>
        <time>2018-09-14T16:54:15Z</time>
      </trkpt>
      <trkpt lat="47.50677" lon="-1.34281">
        <ele>12</ele>
        <time>2018-09-14T16:54:16Z</time>
      </trkpt>
      <trkpt lat="47.50674" lon="-1.3426">
        <ele>11</ele>
        <time>2018-09-14T16:54:20Z</time>
      </trkpt>
      <trkpt lat="47.50672" lon="-1.34256">
        <ele>11</ele>
        <time>2018-09-14T16:54:21Z</time>
      </trkpt>
      <trkpt lat="47.50662" lon="-1.3425">
        <ele>11</ele>
        <time>2018-09-14T16:54:25Z</time>
      </trkpt>
      <trkpt lat="47.50644" lon="-1.34247">
        <ele>11</ele>
        <time>2018-09-14T16:54:31Z</time>
      </trkpt>
      <trkpt lat="47.50632" lon="-1.34244">
        <ele>11</ele>
        <time>2018-09-14T16:54:35Z</time>
      </trkpt>
      <trkpt lat="47.50631" lon="-1.3424">
        <ele>11</ele>
        <time>2018-09-14T16:54:36Z</time>
      </trkpt>
      <trkpt lat="47.50632" lon="-1.34226">
        <ele>11</ele>
        <time>2018-09-14T16:54:39Z</time>
      </trkpt>
      <trkpt lat="47.50636" lon="-1.34203">
        <ele>11</ele>
        <time>2018-09-14T16:54:43Z</time>
      </trkpt>
      <trkpt lat="47.50638" lon="-1.3419">
        <ele>11</ele>
        <time>2018-09-14T16:54:45Z</time>
      </trkpt>
      <trkpt lat="47.50644" lon="-1.34134">
        <ele>12</ele>
        <time>2018-09-14T16:54:53Z</time>
      </trkpt>
      <trkpt lat="47.50648" lon="-1.34105">
        <ele>13</ele>
        <time>2018-09-14T16:54:57Z</time>
      </trkpt>
      <trkpt lat="47.50654" lon="-1.34063">
        <ele>14</ele>
        <time>2018-09-14T16:55:03Z</time>
      </trkpt>
      <trkpt lat="47.50656" lon="-1.34049">
        <ele>14</ele>
        <time>2018-09-14T16:55:05Z</time>
      </trkpt>
      <trkpt lat="47.50661" lon="-1.34013">
        <ele>14</ele>
        <time>2018-09-14T16:55:11Z</time>
      </trkpt>
      <trkpt lat="47.50662" lon="-1.33999">
        <ele>15</ele>
        <time>2018-09-14T16:55:14Z</time>
      </trkpt>
      <trkpt lat="47.50663" lon="-1.33992">
        <ele>15</ele>
        <time>2018-09-14T16:55:16Z</time>
      </trkpt>
      <trkpt lat="47.50665" lon="-1.33971">
        <ele>16</ele>
        <time>2018-09-14T16:55:21Z</time>
      </trkpt>
      <trkpt lat="47.50666" lon="-1.33953">
        <ele>17</ele>
        <time>2018-09-14T16:55:25Z</time>
      </trkpt>
      <trkpt lat="47.50666" lon="-1.33944">
        <ele>17</ele>
        <time>2018-09-14T16:55:27Z</time>
      </trkpt>
      <trkpt lat="47.50666" lon="-1.33912">
        <ele>18</ele>
        <time>2018-09-14T16:55:34Z</time>
      </trkpt>
      <trkpt lat="47.50666" lon="-1.33908">
        <ele>18</ele>
        <time>2018-09-14T16:55:35Z</time>
      </trkpt>
      <trkpt lat="47.50665" lon="-1.33875">
        <ele>19</ele>
        <time>2018-09-14T16:55:42Z</time>
      </trkpt>
      <trkpt lat="47.50665" lon="-1.33867">
        <ele>20</ele>
        <time>2018-09-14T16:55:44Z</time>
      </trkpt>
      <trkpt lat="47.50664" lon="-1.33849">
        <ele>20</ele>
        <time>2018-09-14T16:55:48Z</time>
      </trkpt>
      <trkpt lat="47.50664" lon="-1.33834">
        <ele>21</ele>
        <time>2018-09-14T16:55:51Z</time>
      </trkpt>
      <trkpt lat="47.50663" lon="-1.33804">
        <ele>22</ele>
        <time>2018-09-14T16:55:57Z</time>
      </trkpt>
      <trkpt lat="47.50662" lon="-1.33788">
        <ele>22</ele>
        <time>2018-09-14T16:56:00Z</time>
      </trkpt>
      <trkpt lat="47.50655" lon="-1.33733">
        <ele>23</ele>
        <time>2018-09-14T16:56:10Z</time>
      </trkpt>
      <trkpt lat="47.50657" lon="-1.33704">
        <ele>23</ele>
        <time>2018-09-14T16:56:16Z</time>
      </trkpt>
      <trkpt lat="47.50668" lon="-1.33682">
        <ele>24</ele>
        <time>2018-09-14T16:56:22Z</time>
      </trkpt>
      <trkpt lat="47.50678" lon="-1.33685">
        <ele>24</ele>
        <time>2018-09-14T16:56:25Z</time>
      </trkpt>
      <trkpt lat="47.50684" lon="-1.33688">
        <ele>24</ele>
        <time>2018-09-14T16:56:27Z</time>
      </trkpt>
      <trkpt lat="47.50697" lon="-1.33693">
        <ele>25</ele>
        <time>2018-09-14T16:56:31Z</time>
      </trkpt>
      <trkpt lat="47.507" lon="-1.33694">
        <ele>25</ele>
        <time>2018-09-14T16:56:32Z</time>
      </trkpt>
      <trkpt lat="47.50718" lon="-1.33698">
        <ele>26</ele>
        <time>2018-09-14T16:56:38Z</time>
      </trkpt>
      <trkpt lat="47.50721" lon="-1.33699">
        <ele>26</ele>
        <time>2018-09-14T16:56:39Z</time>
      </trkpt>
      <trkpt lat="47.50744" lon="-1.33701">
        <ele>27</ele>
        <time>2018-09-14T16:56:46Z</time>
      </trkpt>
      <trkpt lat="47.5075" lon="-1.33701">
        <ele>27</ele>
        <time>2018-09-14T16:56:48Z</time>
      </trkpt>
      <trkpt lat="47.50767" lon="-1.33704">
        <ele>27</ele>
        <time>2018-09-14T16:56:53Z</time>
      </trkpt>
      <trkpt lat="47.5079" lon="-1.33717">
        <ele>28</ele>
        <time>2018-09-14T16:56:59Z</time>
      </trkpt>
      <trkpt lat="47.50828" lon="-1.33739">
        <ele>27</ele>
        <time>2018-09-14T16:57:08Z</time>
      </trkpt>
      <trkpt lat="47.50862" lon="-1.33758">
        <ele>27</ele>
        <time>2018-09-14T16:57:15Z</time>
      </trkpt>
      <trkpt lat="47.50888" lon="-1.33774">
        <ele>26</ele>
        <time>2018-09-14T16:57:20Z</time>
      </trkpt>
      <trkpt lat="47.50905" lon="-1.33785">
        <ele>25</ele>
        <time>2018-09-14T16:57:23Z</time>
      </trkpt>
      <trkpt lat="47.50922" lon="-1.33797">
        <ele>24</ele>
        <time>2018-09-14T16:57:26Z</time>
      </trkpt>
      <trkpt lat="47.50946" lon="-1.33811">
        <ele>23</ele>
        <time>2018-09-14T16:57:30Z</time>
      </trkpt>
      <trkpt lat="47.50974" lon="-1.3383">
        <ele>23</ele>
        <time>2018-09-14T16:57:36Z</time>
      </trkpt>
      <trkpt lat="47.51" lon="-1.33846">
        <ele>24</ele>
        <time>2018-09-14T16:57:43Z</time>
      </trkpt>
      <trkpt lat="47.5101" lon="-1.33852">
        <ele>24</ele>
        <time>2018-09-14T16:57:46Z</time>
      </trkpt>
      <trkpt lat="47.51026" lon="-1.33864">
        <ele>25</ele>
        <time>2018-09-14T16:57:51Z</time>
      </trkpt>
      <trkpt lat="47.5103" lon="-1.33866">
        <ele>26</ele>
        <time>2018-09-14T16:57:52Z</time>
      </trkpt>
      <trkpt lat="47.51052" lon="-1.33879">
        <ele>27</ele>
        <time>2018-09-14T16:57:58Z</time>
      </trkpt>
      <trkpt lat="47.51055" lon="-1.33881">
        <ele>27</ele>
        <time>2018-09-14T16:57:59Z</time>
      </trkpt>
      <trkpt lat="47.5108" lon="-1.33896">
        <ele>27</ele>
        <time>2018-09-14T16:58:06Z</time>
      </trkpt>
      <trkpt lat="47.51087" lon="-1.339">
        <ele>28</ele>
        <time>2018-09-14T16:58:08Z</time>
      </trkpt>
      <trkpt lat="47.51097" lon="-1.33904">
        <ele>28</ele>
        <time>2018-09-14T16:58:12Z</time>
      </trkpt>
      <trkpt lat="47.51098" lon="-1.33905">
        <ele>30</ele>
        <time>2018-09-14T16:58:34Z</time>
      </trkpt>
      <trkpt lat="47.511" lon="-1.33907">
        <ele>30</ele>
        <time>2018-09-14T16:58:35Z</time>
      </trkpt>
      <trkpt lat="47.51109" lon="-1.33911">
        <ele>30</ele>
        <time>2018-09-14T16:58:38Z</time>
      </trkpt>
      <trkpt lat="47.51113" lon="-1.33913">
        <ele>30</ele>
        <time>2018-09-14T16:58:39Z</time>
      </trkpt>
      <trkpt lat="47.51139" lon="-1.33925">
        <ele>30</ele>
        <time>2018-09-14T16:58:45Z</time>
      </trkpt>
      <trkpt lat="47.51162" lon="-1.33933">
        <ele>31</ele>
        <time>2018-09-14T16:58:50Z</time>
      </trkpt>
      <trkpt lat="47.51176" lon="-1.3394">
        <ele>31</ele>
        <time>2018-09-14T16:58:53Z</time>
      </trkpt>
      <trkpt lat="47.5119" lon="-1.33949">
        <ele>32</ele>
        <time>2018-09-14T16:58:56Z</time>
      </trkpt>
      <trkpt lat="47.51208" lon="-1.33962">
        <ele>33</ele>
        <time>2018-09-14T16:59:00Z</time>
      </trkpt>
      <trkpt lat="47.5123" lon="-1.33981">
        <ele>33</ele>
        <time>2018-09-14T16:59:05Z</time>
      </trkpt>
      <trkpt lat="47.51244" lon="-1.33993">
        <ele>34</ele>
        <time>2018-09-14T16:59:08Z</time>
      </trkpt>
      <trkpt lat="47.51267" lon="-1.34013">
        <ele>34</ele>
        <time>2018-09-14T16:59:13Z</time>
      </trkpt>
      <trkpt lat="47.51276" lon="-1.34021">
        <ele>35</ele>
        <time>2018-09-14T16:59:15Z</time>
      </trkpt>
      <trkpt lat="47.51313" lon="-1.34042">
        <ele>35</ele>
        <time>2018-09-14T16:59:22Z</time>
      </trkpt>
      <trkpt lat="47.51352" lon="-1.34044">
        <ele>35</ele>
        <time>2018-09-14T16:59:28Z</time>
      </trkpt>
      <trkpt lat="47.51405" lon="-1.34042">
        <ele>34</ele>
        <time>2018-09-14T16:59:36Z</time>
      </trkpt>
      <trkpt lat="47.51425" lon="-1.34041">
        <ele>33</ele>
        <time>2018-09-14T16:59:39Z</time>
      </trkpt>
      <trkpt lat="47.51465" lon="-1.34034">
        <ele>32</ele>
        <time>2018-09-14T16:59:45Z</time>
      </trkpt>
      <trkpt lat="47.51479" lon="-1.3403">
        <ele>32</ele>
        <time>2018-09-14T16:59:47Z</time>
      </trkpt>
      <trkpt lat="47.51499" lon="-1.34019">
        <ele>31</ele>
        <time>2018-09-14T16:59:50Z</time>
      </trkpt>
      <trkpt lat="47.51506" lon="-1.34016">
        <ele>31</ele>
        <time>2018-09-14T16:59:51Z</time>
      </trkpt>
      <trkpt lat="47.5154" lon="-1.33998">
        <ele>30</ele>
        <time>2018-09-14T16:59:56Z</time>
      </trkpt>
      <trkpt lat="47.51555" lon="-1.3399">
        <ele>30</ele>
        <time>2018-09-14T16:59:58Z</time>
      </trkpt>
      <trkpt lat="47.51569" lon="-1.33983">
        <ele>29</ele>
        <time>2018-09-14T17:00:00Z</time>
      </trkpt>
      <trkpt lat="47.51606" lon="-1.33963">
        <ele>28</ele>
        <time>2018-09-14T17:00:05Z</time>
      </trkpt>
      <trkpt lat="47.51621" lon="-1.33955">
        <ele>27</ele>
        <time>2018-09-14T17:00:07Z</time>
      </trkpt>
      <trkpt lat="47.51637" lon="-1.33947">
        <ele>27</ele>
        <time>2018-09-14T17:00:09Z</time>
      </trkpt>
      <trkpt lat="47.51675" lon="-1.33928">
        <ele>26</ele>
        <time>2018-09-14T17:00:14Z</time>
      </trkpt>
      <trkpt lat="47.51691" lon="-1.33923">
        <ele>25</ele>
        <time>2018-09-14T17:00:16Z</time>
      </trkpt>
      <trkpt lat="47.51699" lon="-1.33922">
        <ele>25</ele>
        <time>2018-09-14T17:00:17Z</time>
      </trkpt>
      <trkpt lat="47.51723" lon="-1.33927">
        <ele>25</ele>
        <time>2018-09-14T17:00:20Z</time>
      </trkpt>
      <trkpt lat="47.51738" lon="-1.33934">
        <ele>25</ele>
        <time>2018-09-14T17:00:22Z</time>
      </trkpt>
      <trkpt lat="47.51746" lon="-1.33938">
        <ele>24</ele>
        <time>2018-09-14T17:00:23Z</time>
      </trkpt>
      <trkpt lat="47.51776" lon="-1.33953">
        <ele>24</ele>
        <time>2018-09-14T17:00:27Z</time>
      </trkpt>
      <trkpt lat="47.51834" lon="-1.33978">
        <ele>24</ele>
        <time>2018-09-14T17:00:35Z</time>
      </trkpt>
      <trkpt lat="47.5188" lon="-1.3399">
        <ele>24</ele>
        <time>2018-09-14T17:00:42Z</time>
      </trkpt>
      <trkpt lat="47.51935" lon="-1.33997">
        <ele>25</ele>
        <time>2018-09-14T17:00:50Z</time>
      </trkpt>
      <trkpt lat="47.51984" lon="-1.33997">
        <ele>23</ele>
        <time>2018-09-14T17:00:56Z</time>
      </trkpt>
      <trkpt lat="47.5201" lon="-1.33999">
        <ele>22</ele>
        <time>2018-09-14T17:00:59Z</time>
      </trkpt>
      <trkpt lat="47.52036" lon="-1.34006">
        <ele>21</ele>
        <time>2018-09-14T17:01:02Z</time>
      </trkpt>
      <trkpt lat="47.52053" lon="-1.34015">
        <ele>20</ele>
        <time>2018-09-14T17:01:04Z</time>
      </trkpt>
      <trkpt lat="47.52061" lon="-1.34021">
        <ele>20</ele>
        <time>2018-09-14T17:01:05Z</time>
      </trkpt>
      <trkpt lat="47.52069" lon="-1.34027">
        <ele>20</ele>
        <time>2018-09-14T17:01:06Z</time>
      </trkpt>
      <trkpt lat="47.52086" lon="-1.34036">
        <ele>19</ele>
        <time>2018-09-14T17:01:08Z</time>
      </trkpt>
      <trkpt lat="47.52104" lon="-1.34038">
        <ele>18</ele>
        <time>2018-09-14T17:01:10Z</time>
      </trkpt>
      <trkpt lat="47.5212" lon="-1.34032">
        <ele>18</ele>
        <time>2018-09-14T17:01:12Z</time>
      </trkpt>
      <trkpt lat="47.52128" lon="-1.34027">
        <ele>18</ele>
        <time>2018-09-14T17:01:13Z</time>
      </trkpt>
      <trkpt lat="47.52135" lon="-1.34022">
        <ele>17</ele>
        <time>2018-09-14T17:01:14Z</time>
      </trkpt>
      <trkpt lat="47.52164" lon="-1.34002">
        <ele>17</ele>
        <time>2018-09-14T17:01:18Z</time>
      </trkpt>
      <trkpt lat="47.52178" lon="-1.33992">
        <ele>16</ele>
        <time>2018-09-14T17:01:20Z</time>
      </trkpt>
      <trkpt lat="47.52199" lon="-1.33978">
        <ele>15</ele>
        <time>2018-09-14T17:01:24Z</time>
      </trkpt>
      <trkpt lat="47.52208" lon="-1.33982">
        <ele>15</ele>
        <time>2018-09-14T17:01:27Z</time>
      </trkpt>
      <trkpt lat="47.52214" lon="-1.34">
        <ele>15</ele>
        <time>2018-09-14T17:01:30Z</time>
      </trkpt>
      <trkpt lat="47.52216" lon="-1.34008">
        <ele>14</ele>
        <time>2018-09-14T17:01:31Z</time>
      </trkpt>
      <trkpt lat="47.52225" lon="-1.34045">
        <ele>14</ele>
        <time>2018-09-14T17:01:35Z</time>
      </trkpt>
      <trkpt lat="47.52229" lon="-1.34064">
        <ele>13</ele>
        <time>2018-09-14T17:01:37Z</time>
      </trkpt>
      <trkpt lat="47.52246" lon="-1.34125">
        <ele>12</ele>
        <time>2018-09-14T17:01:43Z</time>
      </trkpt>
      <trkpt lat="47.5226" lon="-1.34181">
        <ele>11</ele>
        <time>2018-09-14T17:01:48Z</time>
      </trkpt>
      <trkpt lat="47.52276" lon="-1.34237">
        <ele>10</ele>
        <time>2018-09-14T17:01:53Z</time>
      </trkpt>
      <trkpt lat="47.52279" lon="-1.34249">
        <ele>10</ele>
        <time>2018-09-14T17:01:54Z</time>
      </trkpt>
      <trkpt lat="47.52299" lon="-1.34327">
        <ele>9</ele>
        <time>2018-09-14T17:02:01Z</time>
      </trkpt>
      <trkpt lat="47.52305" lon="-1.34349">
        <ele>9</ele>
        <time>2018-09-14T17:02:03Z</time>
      </trkpt>
      <trkpt lat="47.52327" lon="-1.34433">
        <ele>8</ele>
        <time>2018-09-14T17:02:11Z</time>
      </trkpt>
      <trkpt lat="47.5233" lon="-1.34443">
        <ele>8</ele>
        <time>2018-09-14T17:02:12Z</time>
      </trkpt>
      <trkpt lat="47.5235" lon="-1.34501">
        <ele>8</ele>
        <time>2018-09-14T17:02:18Z</time>
      </trkpt>
      <trkpt lat="47.52359" lon="-1.34516">
        <ele>8</ele>
        <time>2018-09-14T17:02:20Z</time>
      </trkpt>
      <trkpt lat="47.52376" lon="-1.34538">
        <ele>8</ele>
        <time>2018-09-14T17:02:23Z</time>
      </trkpt>
      <trkpt lat="47.52383" lon="-1.34545">
        <ele>8</ele>
        <time>2018-09-14T17:02:24Z</time>
      </trkpt>
      <trkpt lat="47.52409" lon="-1.34568">
        <ele>7</ele>
        <time>2018-09-14T17:02:28Z</time>
      </trkpt>
      <trkpt lat="47.52415" lon="-1.34574">
        <ele>6</ele>
        <time>2018-09-14T17:02:29Z</time>
      </trkpt>
      <trkpt lat="47.52433" lon="-1.34591">
        <ele>6</ele>
        <time>2018-09-14T17:02:32Z</time>
      </trkpt>
      <trkpt lat="47.52461" lon="-1.34621">
        <ele>5</ele>
        <time>2018-09-14T17:02:37Z</time>
      </trkpt>
      <trkpt lat="47.52505" lon="-1.34674">
        <ele>5</ele>
        <time>2018-09-14T17:02:46Z</time>
      </trkpt>
      <trkpt lat="47.52531" lon="-1.34711">
        <ele>5</ele>
        <time>2018-09-14T17:02:52Z</time>
      </trkpt>
      <trkpt lat="47.52537" lon="-1.34724">
        <ele>5</ele>
        <time>2018-09-14T17:02:54Z</time>
      </trkpt>
      <trkpt lat="47.52542" lon="-1.34738">
        <ele>4</ele>
        <time>2018-09-14T17:02:56Z</time>
      </trkpt>
      <trkpt lat="47.52556" lon="-1.34769">
        <ele>4</ele>
        <time>2018-09-14T17:03:01Z</time>
      </trkpt>
    </trkseg>
  </trk>
</gpx>